Provisional Data: Grays Run near Gray, PA


Please select a monitoring station.
Please select start date.
Please select start date.

Toggle Unit: C/F Toggle Unit: C/F
Sample Time Temperature (C) Temperature (F) Specific Conductivity (mS/cm) pH   Turbidity (NTU+) DO (mg/L)
3/7/2021 12:00:00 AM 1.81 35.258 0.031 6.78 3.45 13.51
3/7/2021 12:15:00 AM 1.8 35.24 0.031 6.78 3.47 13.51
3/7/2021 12:30:00 AM 1.79 35.222 0.031 6.79 3.42 13.52
3/7/2021 12:45:00 AM 1.78 35.204 0.031 6.79 3.41 13.52
3/7/2021 1:00:00 AM 1.78 35.204 0.031 6.78 3.42 13.53
3/7/2021 1:15:00 AM 1.77 35.186 0.031 6.78 3.49 13.53
3/7/2021 1:30:00 AM 1.76 35.168 0.031 6.78 3.52 13.53
3/7/2021 1:45:00 AM 1.75 35.15 0.031 6.77 3.48 13.54
3/7/2021 2:00:00 AM 1.73 35.114 0.031 6.78 3.46 13.54
3/7/2021 2:15:00 AM 1.71 35.078 0.031 6.78 3.44 13.55
3/7/2021 2:30:00 AM 1.69 35.042 0.031 6.77 3.41 13.56
3/7/2021 2:45:00 AM 1.65 34.97 0.031 6.77 3.42 13.57
3/7/2021 3:00:00 AM 1.63 34.934 0.031 6.78 3.66 13.58
3/7/2021 3:15:00 AM 1.6 34.88 0.031 6.78 3.46 13.58
3/7/2021 3:30:00 AM 1.58 34.844 0.031 6.78 3.5 13.6
3/7/2021 3:45:00 AM 1.56 34.808 0.031 6.78 3.48 13.62
3/7/2021 4:00:00 AM 1.52 34.736 0.031 6.78 3.48 13.62
3/7/2021 4:15:00 AM 1.49 34.682 0.031 6.77 3.42 13.63
3/7/2021 4:30:00 AM 1.46 34.628 0.032 6.77 3.37 13.65
3/7/2021 4:45:00 AM 1.42 34.556 0.031 6.77 3.42 13.67
3/7/2021 5:00:00 AM 1.38 34.484 0.031 6.77 3.44 13.69
3/7/2021 5:15:00 AM 1.34 34.412 0.031 6.76 3.49 13.7
3/7/2021 5:30:00 AM 1.29 34.322 0.031 6.77 3.43 13.72
3/7/2021 5:45:00 AM 1.25 34.25 0.031 6.77 3.42 13.74
3/7/2021 6:00:00 AM 1.21 34.178 0.031 6.77 3.49 13.77
3/7/2021 6:15:00 AM 1.17 34.106 0.031 6.77 3.49 13.78
3/7/2021 6:30:00 AM 1.12 34.016 0.031 6.77 3.41 13.8
3/7/2021 6:45:00 AM 1.08 33.944 0.031 6.77 3.4 13.84
3/7/2021 7:00:00 AM 1.04 33.872 0.031 6.78 3.53 13.88
3/7/2021 7:15:00 AM 1.02 33.836 0.031 6.79 3.47 13.94
3/7/2021 7:30:00 AM 1 33.8 0.031 6.8 3.41 13.99
3/7/2021 7:45:00 AM 0.98 33.764 0.031 6.8 3.45 14.02
3/7/2021 8:00:00 AM 0.96 33.728 0.031 6.81 3.41 14.05
3/7/2021 8:15:00 AM 0.94 33.692 0.031 6.82 3.36 14.07
3/7/2021 8:30:00 AM 0.92 33.656 0.031 6.83 3.39 14.09
3/7/2021 8:45:00 AM 0.93 33.674 0.031 6.84 3.41 14.13
3/7/2021 9:00:00 AM 0.99 33.782 0.031 6.86 3.48 14.16
3/7/2021 9:15:00 AM 1.05 33.89 0.031 6.87 3.44 14.16
3/7/2021 9:30:00 AM 1.12 34.016 0.031 6.88 3.45 14.17
3/7/2021 9:45:00 AM 1.19 34.142 0.031 6.88 3.35 14.16
3/7/2021 10:00:00 AM 1.28 34.304 0.031 6.9 3.67 14.16
3/7/2021 10:15:00 AM 1.4 34.52 0.031 6.91 3.49 14.13
3/7/2021 10:30:00 AM 1.52 34.736 0.031 6.91 3.44 14.09
3/7/2021 10:45:00 AM 1.64 34.952 0.031 6.92 3.47 14.05
3/7/2021 11:00:00 AM 1.79 35.222 0.031 6.93 3.54 14
3/7/2021 11:15:00 AM 1.94 35.492 0.031 6.93 3.46 13.95
3/7/2021 11:30:00 AM 2.11 35.798 0.031 6.92 3.57 13.88
3/7/2021 11:45:00 AM 2.3 36.14 0.031 6.92 3.55 13.82
3/7/2021 12:00:00 PM 2.49 36.482 0.031 6.94 3.42 13.76
3/7/2021 12:15:00 PM 2.67 36.806 0.031 6.92 3.44 13.7
3/7/2021 12:30:00 PM 2.85 37.13 0.031 6.93 3.49 13.63
3/7/2021 12:45:00 PM 3.01 37.418 0.031 6.94 3.48 13.54
3/7/2021 1:00:00 PM 3.17 37.706 0.031 6.95 3.31 13.49
3/7/2021 1:15:00 PM 3.33 37.994 0.031 6.94 3.32 13.42
3/7/2021 1:30:00 PM 3.44 38.192 0.031 6.94 3.97 13.35
3/7/2021 1:45:00 PM 3.54 38.372 0.031 6.94 3.35 13.29
3/7/2021 2:00:00 PM 3.62 38.516 0.031 6.94 3.46 13.25
3/7/2021 2:15:00 PM 3.66 38.588 0.031 6.93 3.38 13.22
3/7/2021 2:30:00 PM 3.66 38.588 0.031 6.93 3.44 13.2
3/7/2021 2:45:00 PM 3.64 38.552 0.031 6.92 3.36 13.2
3/7/2021 3:00:00 PM 3.59 38.462 0.031 6.92 3.4 13.2
3/7/2021 3:15:00 PM 3.52 38.336 0.031 6.91 3.45 13.2
3/7/2021 3:30:00 PM 3.46 38.228 0.031 6.9 3.39 13.22
3/7/2021 3:45:00 PM 3.39 38.102 0.031 6.89 3.41 13.23
3/7/2021 4:00:00 PM 3.32 37.976 0.031 6.9 3.33 13.24
3/7/2021 4:15:00 PM 3.23 37.814 0.031 6.88 3.41 13.24
3/7/2021 4:30:00 PM 3.14 37.652 0.031 6.87 3.48 13.27
3/7/2021 4:45:00 PM 3.04 37.472 0.031 6.86 3.46 13.28
3/7/2021 5:00:00 PM 2.96 37.328 0.031 6.86 3.41 13.29
3/7/2021 5:15:00 PM 2.88 37.184 0.031 6.85 3.4 13.31
3/7/2021 5:30:00 PM 2.81 37.058 0.031 6.84 3.43 13.32
3/7/2021 5:45:00 PM 2.72 36.896 0.031 6.83 3.5 13.31
3/7/2021 6:00:00 PM 2.65 36.77 0.031 6.82 3.49 13.31
3/7/2021 6:15:00 PM 2.58 36.644 0.031 6.82 3.44 13.31
3/7/2021 6:30:00 PM 2.51 36.518 0.031 6.79 3.46 13.31
3/7/2021 6:45:00 PM 2.44 36.392 0.031 6.81 3.47 13.33
3/7/2021 7:00:00 PM 2.38 36.284 0.032 6.8 3.42 13.36
3/7/2021 7:15:00 PM 2.31 36.158 0.031 6.79 3.47 13.37
3/7/2021 7:30:00 PM 2.25 36.05 0.031 6.79 3.47 13.4
3/7/2021 7:45:00 PM 2.19 35.942 0.031 6.78 3.49 13.42
3/7/2021 8:00:00 PM 2.14 35.852 0.031 6.77 3.53 13.44
3/7/2021 8:15:00 PM 2.09 35.762 0.031 6.79 3.48 13.46
3/7/2021 8:30:00 PM 2.04 35.672 0.032 6.78 3.45 13.48
3/7/2021 8:45:00 PM 2 35.6 0.032 6.78 3.48 13.49
3/7/2021 9:00:00 PM 1.95 35.51 0.031 6.78 3.53 13.52
3/7/2021 9:15:00 PM 1.91 35.438 0.032 6.77 3.41 13.53
3/7/2021 9:30:00 PM 1.87 35.366 0.031 6.78 3.43 13.55
3/7/2021 9:45:00 PM 1.83 35.294 0.031 6.78 3.55 13.56
3/7/2021 10:00:00 PM 1.79 35.222 0.032 6.78 3.29 13.58
3/7/2021 10:15:00 PM 1.74 35.132 0.031 6.77 3.43 13.6
3/7/2021 10:30:00 PM 1.71 35.078 0.032 6.77 3.46 13.61
3/7/2021 10:45:00 PM 1.67 35.006 0.031 6.77 3.52 13.63
3/7/2021 11:00:00 PM 1.63 34.934 0.032 6.77 3.35 13.64
3/7/2021 11:15:00 PM 1.59 34.862 0.031 6.77 3.52 13.66
3/7/2021 11:30:00 PM 1.56 34.808 0.031 6.76 3.45 13.68
3/7/2021 11:45:00 PM 1.52 34.736 0.031 6.78 3.66 13.7
3/8/2021 12:00:00 AM 1.48 34.664 0.031 6.78 3.49 13.7
3/8/2021 12:15:00 AM 1.45 34.61 0.031 6.77 3.51 13.72
3/8/2021 12:30:00 AM 1.41 34.538 0.031 6.78 3.43 13.74
3/8/2021 12:45:00 AM 1.37 34.466 0.031 6.76 3.56 13.74
3/8/2021 1:00:00 AM 1.33 34.394 0.031 6.76 3.68 13.75
3/8/2021 1:15:00 AM 1.3 34.34 0.031 6.76 3.48 13.77
3/8/2021 1:30:00 AM 1.26 34.268 0.031 6.75 3.49 13.79
3/8/2021 1:45:00 AM 1.22 34.196 0.031 6.77 3.54 13.81
3/8/2021 2:00:00 AM 1.19 34.142 0.032 6.76 3.57 13.82
3/8/2021 2:15:00 AM 1.15 34.07 0.032 6.76 3.51 13.84
3/8/2021 2:30:00 AM 1.11 33.998 0.032 6.76 3.47 13.86
3/8/2021 2:45:00 AM 1.07 33.926 0.032 6.76 3.49 13.87
3/8/2021 3:00:00 AM 1.03 33.854 0.032 6.76 3.47 13.89
3/8/2021 3:15:00 AM 0.99 33.782 0.032 6.75 3.3 13.91
3/8/2021 3:30:00 AM 0.96 33.728 0.032 6.75 3.45 13.92
3/8/2021 3:45:00 AM 0.92 33.656 0.032 6.76 3.55 13.94
3/8/2021 4:00:00 AM 0.89 33.602 0.032 6.76 3.48 13.95
3/8/2021 4:15:00 AM 0.85 33.53 0.032 6.76 3.48 13.96
3/8/2021 4:30:00 AM 0.82 33.476 0.032 6.77 3.53 13.97
3/8/2021 4:45:00 AM 0.79 33.422 0.032 6.75 3.52 14
3/8/2021 5:00:00 AM 0.76 33.368 0.032 6.76 3.65 14.01
3/8/2021 5:15:00 AM 0.72 33.296 0.032 6.76 3.48 14.03
3/8/2021 5:30:00 AM 0.69 33.242 0.032 6.76 3.49 14.04
3/8/2021 5:45:00 AM 0.66 33.188 0.032 6.76 3.5 14.05
3/8/2021 6:00:00 AM 0.63 33.134 0.032 6.76 3.53 14.07
3/8/2021 6:15:00 AM 0.59 33.062 0.032 6.75 3.5 14.08
3/8/2021 6:30:00 AM 0.56 33.008 0.032 6.75 3.5 14.1
3/8/2021 6:45:00 AM 0.53 32.954 0.032 6.77 3.48 14.13
3/8/2021 7:00:00 AM 0.51 32.918 0.032 6.76 3.49 14.17
3/8/2021 7:15:00 AM 0.49 32.882 0.032 6.77 3.46 14.21
3/8/2021 7:30:00 AM 0.47 32.846 0.032 6.79 3.52 14.24
3/8/2021 7:45:00 AM 0.45 32.81 0.032 6.79 3.48 14.29
3/8/2021 8:00:00 AM 0.44 32.792 0.031 6.81 3.47 14.32
3/8/2021 8:15:00 AM 0.43 32.774 0.031 6.81 3.49 14.35
3/8/2021 8:30:00 AM 0.44 32.792 0.031 6.82 3.52 14.38
3/8/2021 8:45:00 AM 0.47 32.846 0.032 6.83 3.57 14.4
3/8/2021 9:00:00 AM 0.52 32.936 0.031 6.85 3.44 14.41
3/8/2021 9:15:00 AM 0.6 33.08 0.031 6.85 3.47 14.41
3/8/2021 9:30:00 AM 0.69 33.242 0.031 6.87 3.51 14.4
3/8/2021 9:45:00 AM 0.8 33.44 0.031 6.88 3.53 14.38
3/8/2021 10:00:00 AM 0.92 33.656 0.031 6.89 3.48 14.36
3/8/2021 10:15:00 AM 1.06 33.908 0.031 6.9 3.45 14.32
3/8/2021 10:30:00 AM 1.19 34.142 0.031 6.91 3.39 14.28
3/8/2021 10:45:00 AM 1.34 34.412 0.031 6.91 3.54 14.24
3/8/2021 11:00:00 AM 1.5 34.7 0.031 6.92 3.68 14.18
3/8/2021 11:15:00 AM 1.67 35.006 0.031 6.93 3.38 14.12
3/8/2021 11:30:00 AM 1.87 35.366 0.031 6.93 3.46 14.05
3/8/2021 11:45:00 AM 2.01 35.618 0.031 6.94 3.43 13.99
3/8/2021 12:00:00 PM 2.24 36.032 0.031 6.94 3.46 13.92
3/8/2021 12:15:00 PM 2.41 36.338 0.031 6.95 3.48 13.85
3/8/2021 12:30:00 PM 2.57 36.626 0.031 6.94 3.43 13.79
3/8/2021 12:45:00 PM 2.72 36.896 0.031 6.94 3.45 13.71
3/8/2021 1:00:00 PM 2.84 37.112 0.031 6.95 3.46 13.65
3/8/2021 1:15:00 PM 2.95 37.31 0.031 6.94 3.43 13.58
3/8/2021 1:30:00 PM 3.05 37.49 0.031 6.96 3.51 13.54
3/8/2021 1:45:00 PM 3.12 37.616 0.031 6.94 3.43 13.5
3/8/2021 2:00:00 PM 3.2 37.76 0.031 6.95 3.42 13.48
3/8/2021 2:15:00 PM 3.28 37.904 0.031 6.95 3.49 13.45
3/8/2021 2:30:00 PM 3.37 38.066 0.031 6.95 3.42 13.43
3/8/2021 2:45:00 PM 3.41 38.138 0.031 6.95 3.62 13.39
3/8/2021 3:00:00 PM 3.42 38.156 0.031 6.94 3.43 13.37
3/8/2021 3:15:00 PM 3.43 38.174 0.031 6.95 3.49 13.36
3/8/2021 3:30:00 PM 3.42 38.156 0.031 6.94 3.46 13.35
3/8/2021 3:45:00 PM 3.4 38.12 0.031 6.92 3.42 13.34
3/8/2021 4:00:00 PM 3.39 38.102 0.031 6.93 3.61 13.34
3/8/2021 4:15:00 PM 3.37 38.066 0.031 6.91 3.53 13.33
3/8/2021 4:30:00 PM 3.33 37.994 0.031 6.91 3.54 13.32
3/8/2021 4:45:00 PM 3.29 37.922 0.031 6.89 3.43 13.31
3/8/2021 5:00:00 PM 3.24 37.832 0.031 6.87 3.39 13.29
3/8/2021 5:15:00 PM 3.19 37.742 0.031 6.85 3.46 13.27
3/8/2021 5:30:00 PM 3.13 37.634 0.031 6.84 3.58 13.26
3/8/2021 5:45:00 PM 3.07 37.526 0.031 6.83 3.62 13.24
3/8/2021 6:00:00 PM 3.01 37.418 0.031 6.83 3.52 13.22
3/8/2021 6:15:00 PM 2.95 37.31 0.031 6.8 3.43 13.2
3/8/2021 6:30:00 PM 2.89 37.202 0.031 6.79 3.49 13.19
3/8/2021 6:45:00 PM 2.83 37.094 0.031 6.78 3.55 13.21
3/8/2021 7:00:00 PM 2.77 36.986 0.031 6.78 3.47 13.21
3/8/2021 7:15:00 PM 2.72 36.896 0.031 6.79 3.52 13.21
3/8/2021 7:30:00 PM 2.67 36.806 0.031 6.78 3.51 13.24
3/8/2021 7:45:00 PM 2.61 36.698 0.031 6.77 3.59 13.25
3/8/2021 8:00:00 PM 2.56 36.608 0.031 6.77 3.6 13.26
3/8/2021 8:15:00 PM 2.51 36.518 0.031 6.77 3.54 13.29
3/8/2021 8:30:00 PM 2.47 36.446 0.031 6.76 3.46 13.3
3/8/2021 8:45:00 PM 2.43 36.374 0.031 6.77 3.48 13.31
3/8/2021 9:00:00 PM 2.39 36.302 0.031 6.77 3.49 13.33
3/8/2021 9:15:00 PM 2.35 36.23 0.031 6.77 3.5 13.34
3/8/2021 9:30:00 PM 2.32 36.176 0.031 6.77 3.48 13.36
3/8/2021 9:45:00 PM 2.28 36.104 0.031 6.77 3.53 13.37
3/8/2021 10:00:00 PM 2.25 36.05 0.031 6.77 3.52 13.38
3/8/2021 10:15:00 PM 2.22 35.996 0.031 6.77 3.54 13.39
3/8/2021 10:30:00 PM 2.19 35.942 0.031 6.77 3.47 13.4
3/8/2021 10:45:00 PM 2.17 35.906 0.031 6.76 3.43 13.41
3/8/2021 11:00:00 PM 2.16 35.888 0.031 6.76 3.61 13.42
3/8/2021 11:15:00 PM 2.15 35.87 0.031 6.76 3.7 13.42
3/8/2021 11:30:00 PM 2.15 35.87 0.031 6.76 3.51 13.42
3/8/2021 11:45:00 PM 2.15 35.87 0.031 6.75 3.49 13.43
3/9/2021 12:00:00 AM 2.15 35.87 0.031 6.76 3.51 13.42
3/9/2021 12:15:00 AM 2.15 35.87 0.031 6.77 3.42 13.42
3/9/2021 12:30:00 AM 2.16 35.888 0.031 6.76 3.48 13.42
3/9/2021 12:45:00 AM 2.16 35.888 0.031 6.75 3.51 13.41
3/9/2021 1:00:00 AM 2.17 35.906 0.031 6.77 3.6 13.41
3/9/2021 1:15:00 AM 2.15 35.87 0.031 6.78 3.58 13.42
3/9/2021 1:30:00 AM 2.14 35.852 0.031 6.79 3.48 13.42
3/9/2021 1:45:00 AM 2.14 35.852 0.031 6.78 3.5 13.42
3/9/2021 2:00:00 AM 2.13 35.834 0.031 6.77 3.49 13.43
3/9/2021 2:15:00 AM 2.11 35.798 0.031 6.77 3.43 13.42
3/9/2021 2:30:00 AM 2.1 35.78 0.031 6.77 3.48 13.43
3/9/2021 2:45:00 AM 2.09 35.762 0.031 6.77 3.5 13.43
3/9/2021 3:00:00 AM 2.08 35.744 0.031 6.76 3.46 13.43
3/9/2021 3:15:00 AM 2.06 35.708 0.031 6.77 3.44 13.43
3/9/2021 3:30:00 AM 2.04 35.672 0.031 6.76 3.47 13.44
3/9/2021 3:45:00 AM 2.03 35.654 0.031 6.77 3.43 13.44
3/9/2021 4:00:00 AM 2.01 35.618 0.032 6.76 3.44 13.45
3/9/2021 4:15:00 AM 1.99 35.582 0.032 6.78 3.48 13.46
3/9/2021 4:30:00 AM 1.98 35.564 0.031 6.77 3.53 13.46
3/9/2021 4:45:00 AM 1.96 35.528 0.032 6.77 3.49 13.47
3/9/2021 5:00:00 AM 1.94 35.492 0.032 6.77 3.36 13.48
3/9/2021 5:15:00 AM 1.92 35.456 0.032 6.77 3.47 13.49
3/9/2021 5:30:00 AM 1.9 35.42 0.032 6.77 3.5 13.5
3/9/2021 5:45:00 AM 1.88 35.384 0.032 6.78 3.47 13.51
3/9/2021 6:00:00 AM 1.86 35.348 0.032 6.78 3.44 13.52
3/9/2021 6:15:00 AM 1.84 35.312 0.032 6.76 3.38 13.53
3/9/2021 6:30:00 AM 1.82 35.276 0.032 6.78 3.7 13.54
3/9/2021 6:45:00 AM 1.82 35.276 0.032 6.77 3.51 13.56
3/9/2021 7:00:00 AM 1.8 35.24 0.032 6.77 3.48 13.6
3/9/2021 7:15:00 AM 1.79 35.222 0.032 6.79 3.45 13.65
3/9/2021 7:30:00 AM 1.79 35.222 0.032 6.81 3.48 13.7
3/9/2021 7:45:00 AM 1.79 35.222 0.031 6.83 3.48 13.74
3/9/2021 8:00:00 AM 1.8 35.24 0.031 6.83 3.52 13.77
3/9/2021 8:15:00 AM 1.8 35.24 0.031 6.85 3.51 13.8
3/9/2021 8:30:00 AM 1.81 35.258 0.032 6.85 3.37 13.81
3/9/2021 8:45:00 AM 1.85 35.33 0.031 6.86 3.52 13.84
3/9/2021 9:00:00 AM 1.92 35.456 0.031 6.88 3.51 13.84
3/9/2021 9:15:00 AM 2 35.6 0.031 6.89 3.56 13.84
3/9/2021 9:30:00 AM 2.11 35.798 0.031 6.91 3.52 13.82
3/9/2021 9:45:00 AM 2.23 36.014 0.031 6.91 3.51 13.8
3/9/2021 10:00:00 AM 2.37 36.266 0.031 6.92 3.47 13.77
3/9/2021 10:15:00 AM 2.53 36.554 0.031 6.93 3.56 13.74
3/9/2021 10:30:00 AM 2.69 36.842 0.031 6.93 3.43 13.69
3/9/2021 10:45:00 AM 2.85 37.13 0.031 6.94 3.44 13.63
3/9/2021 11:00:00 AM 3.04 37.472 0.031 6.95 3.46 13.58
3/9/2021 11:15:00 AM 3.25 37.85 0.031 6.95 3.45 13.51
3/9/2021 11:30:00 AM 3.47 38.246 0.031 6.96 3.37 13.43
3/9/2021 11:45:00 AM 3.7 38.66 0.031 6.96 3.33 13.35
3/9/2021 12:00:00 PM 3.92 39.056 0.031 6.97 3.43 13.28
3/9/2021 12:15:00 PM 4.11 39.398 0.031 6.98 3.44 13.21
3/9/2021 12:30:00 PM 4.32 39.776 0.031 6.96 3.46 13.14
3/9/2021 12:45:00 PM 4.52 40.136 0.031 6.98 3.45 13.07
3/9/2021 1:00:00 PM 4.71 40.478 0.031 6.97 3.46 12.99
3/9/2021 1:15:00 PM 4.9 40.82 0.031 6.97 3.4 12.91
3/9/2021 1:30:00 PM 5.05 41.09 0.031 6.97 3.45 12.84
3/9/2021 1:45:00 PM 5.18 41.324 0.031 6.97 3.5 12.78
3/9/2021 2:00:00 PM 5.29 41.522 0.031 6.97 3.51 12.73
3/9/2021 2:15:00 PM 5.37 41.666 0.031 6.97 3.49 12.68
3/9/2021 2:30:00 PM 5.41 41.738 0.031 6.96 3.5 12.65
3/9/2021 2:45:00 PM 5.41 41.738 0.031 6.96 3.51 12.63
3/9/2021 3:00:00 PM 5.39 41.702 0.031 6.94 3.35 12.63
3/9/2021 3:15:00 PM 5.35 41.63 0.031 6.95 3.51 12.62
3/9/2021 3:30:00 PM 5.3 41.54 0.031 6.93 3.54 12.62
3/9/2021 3:45:00 PM 5.23 41.414 0.031 6.92 3.54 12.62
3/9/2021 4:00:00 PM 5.16 41.288 0.031 6.92 3.56 12.63
3/9/2021 4:15:00 PM 5.07 41.126 0.031 6.89 3.6 12.64
3/9/2021 4:30:00 PM 4.96 40.928 0.031 6.89 3.65 12.66
3/9/2021 4:45:00 PM 4.85 40.73 0.031 6.88 3.62 12.67
3/9/2021 5:00:00 PM 4.73 40.514 0.031 6.87 3.6 12.68
3/9/2021 5:15:00 PM 4.62 40.316 0.031 6.85 3.62 12.7
3/9/2021 5:30:00 PM 4.5 40.1 0.031 6.84 3.7 12.71
3/9/2021 5:45:00 PM 4.39 39.902 0.031 6.84 3.61 12.72
3/9/2021 6:00:00 PM 4.27 39.686 0.031 6.82 3.64 12.73
3/9/2021 6:15:00 PM 4.17 39.506 0.031 6.81 3.75 12.74
3/9/2021 6:30:00 PM 4.07 39.326 0.031 6.8 3.78 12.76
3/9/2021 6:45:00 PM 3.98 39.164 0.031 6.79 3.77 12.78
3/9/2021 7:00:00 PM 3.88 38.984 0.032 6.79 3.72 12.81
3/9/2021 7:15:00 PM 3.8 38.84 0.032 6.78 3.66 12.84
3/9/2021 7:30:00 PM 3.72 38.696 0.031 6.78 3.89 12.86
3/9/2021 7:45:00 PM 3.65 38.57 0.032 6.78 3.89 12.89
3/9/2021 8:00:00 PM 3.59 38.462 0.032 6.78 3.83 12.91
3/9/2021 8:15:00 PM 3.54 38.372 0.032 6.79 3.92 12.93
3/9/2021 8:30:00 PM 3.48 38.264 0.032 6.79 3.8 12.95
3/9/2021 8:45:00 PM 3.43 38.174 0.032 6.78 3.69 12.97
3/9/2021 9:00:00 PM 3.38 38.084 0.032 6.78 3.86 12.99
3/9/2021 9:15:00 PM 3.34 38.012 0.032 6.78 3.74 13.01
3/9/2021 9:30:00 PM 3.3 37.94 0.032 6.79 3.72 13.02
3/9/2021 9:45:00 PM 3.26 37.868 0.032 6.79 3.73 13.04
3/9/2021 10:00:00 PM 3.23 37.814 0.032 6.78 3.82 13.05
3/9/2021 10:15:00 PM 3.2 37.76 0.032 6.78 3.76 13.06
3/9/2021 10:30:00 PM 3.16 37.688 0.031 6.78 3.97 13.08
3/9/2021 10:45:00 PM 3.13 37.634 0.031 6.78 3.73 13.09
3/9/2021 11:00:00 PM 3.1 37.58 0.031 6.77 3.76 13.1
3/9/2021 11:15:00 PM 3.08 37.544 0.031 6.78 3.81 13.11
3/9/2021 11:30:00 PM 3.05 37.49 0.031 6.78 3.77 13.13
3/9/2021 11:45:00 PM 3.02 37.436 0.031 6.78 3.79 13.14
3/10/2021 12:00:00 AM 3 37.4 0.031 6.78 3.7 13.14
3/10/2021 12:15:00 AM 2.97 37.346 0.031 6.78 3.79 13.16
3/10/2021 12:30:00 AM 2.95 37.31 0.031 6.77 3.67 13.16
3/10/2021 12:45:00 AM 2.92 37.256 0.031 6.77 3.8 13.18
3/10/2021 1:00:00 AM 2.9 37.22 0.031 6.77 3.83 13.17
3/10/2021 1:15:00 AM 2.88 37.184 0.031 6.77 3.89 13.2
3/10/2021 1:30:00 AM 2.86 37.148 0.031 6.78 3.78 13.21
3/10/2021 1:45:00 AM 2.83 37.094 0.032 6.77 3.65 13.2
3/10/2021 2:00:00 AM 2.81 37.058 0.031 6.77 3.64 13.22
3/10/2021 2:15:00 AM 2.79 37.022 0.031 6.77 3.71 13.22
3/10/2021 2:30:00 AM 2.77 36.986 0.031 6.77 3.69 13.23
3/10/2021 2:45:00 AM 2.75 36.95 0.031 6.77 3.68 13.23
3/10/2021 3:00:00 AM 2.73 36.914 0.031 6.78 3.64 13.25
3/10/2021 3:15:00 AM 2.71 36.878 0.031 6.76 3.8 13.27
3/10/2021 3:30:00 AM 2.69 36.842 0.031 6.77 3.77 13.27
3/10/2021 3:45:00 AM 2.67 36.806 0.031 6.77 3.73 13.27
3/10/2021 4:00:00 AM 2.65 36.77 0.031 6.77 3.72 13.27
3/10/2021 4:15:00 AM 2.63 36.734 0.031 6.77 3.69 13.28
3/10/2021 4:30:00 AM 2.61 36.698 0.031 6.77 3.75 13.3
3/10/2021 4:45:00 AM 2.59 36.662 0.031 6.76 3.74 13.31
3/10/2021 5:00:00 AM 2.57 36.626 0.031 6.76 3.76 13.31
3/10/2021 5:15:00 AM 2.55 36.59 0.031 6.76 3.77 13.33
3/10/2021 5:30:00 AM 2.53 36.554 0.031 6.76 3.67 13.34
3/10/2021 5:45:00 AM 2.51 36.518 0.031 6.76 3.73 13.34
3/10/2021 6:00:00 AM 2.5 36.5 0.031 6.76 3.75 13.35
3/10/2021 6:15:00 AM 2.48 36.464 0.031 6.76 3.83 13.35
3/10/2021 6:30:00 AM 2.46 36.428 0.031 6.76 3.7 13.36
3/10/2021 6:45:00 AM 2.45 36.41 0.031 6.77 3.79 13.39
3/10/2021 7:00:00 AM 2.44 36.392 0.031 6.78 3.77 13.42
3/10/2021 7:15:00 AM 2.43 36.374 0.031 6.79 3.77 13.45
3/10/2021 7:30:00 AM 2.42 36.356 0.031 6.79 3.8 13.49
3/10/2021 7:45:00 AM 2.42 36.356 0.031 6.81 3.94 13.52
3/10/2021 8:00:00 AM 2.42 36.356 0.031 6.81 3.76 13.55
3/10/2021 8:15:00 AM 2.42 36.356 0.031 6.82 3.86 13.57
3/10/2021 8:30:00 AM 2.43 36.374 0.031 6.83 3.78 13.59
3/10/2021 8:45:00 AM 2.47 36.446 0.031 6.84 3.76 13.61
3/10/2021 9:00:00 AM 2.54 36.572 0.031 6.86 4 13.63
3/10/2021 9:15:00 AM 2.62 36.716 0.031 6.87 3.81 13.64
3/10/2021 9:30:00 AM 2.72 36.896 0.031 6.88 3.79 13.61
3/10/2021 9:45:00 AM 2.83 37.094 0.031 6.9 3.78 13.59
3/10/2021 10:00:00 AM 2.97 37.346 0.031 6.91 3.84 13.57
3/10/2021 10:15:00 AM 3.12 37.616 0.031 6.91 3.82 13.53
3/10/2021 10:30:00 AM 3.29 37.922 0.031 6.93 3.67 13.48
3/10/2021 10:45:00 AM 3.46 38.228 0.031 6.93 3.65 13.43
3/10/2021 11:00:00 AM 3.65 38.57 0.031 6.94 3.61 13.37
3/10/2021 11:15:00 AM 3.84 38.912 0.031 6.95 3.74 13.3
3/10/2021 11:30:00 AM 4.06 39.308 0.031 6.95 3.74 13.23
3/10/2021 11:45:00 AM 4.27 39.686 0.031 6.96 3.83 13.16
3/10/2021 12:00:00 PM 4.49 40.082 0.031 6.97 3.66 13.08
3/10/2021 12:15:00 PM 4.7 40.46 0.031 6.97 3.72 13.01
3/10/2021 12:30:00 PM 4.91 40.838 0.03 6.97 3.77 12.93
3/10/2021 12:45:00 PM 5.11 41.198 0.03 6.97 3.75 12.85
3/10/2021 1:00:00 PM 5.3 41.54 0.03 6.96 3.81 12.77
3/10/2021 1:15:00 PM 5.49 41.882 0.031 6.96 3.69 12.7
3/10/2021 1:30:00 PM 5.64 42.152 0.031 6.97 3.69 12.63
3/10/2021 1:45:00 PM 5.76 42.368 0.031 6.95 3.62 12.58
3/10/2021 2:00:00 PM 5.85 42.53 0.031 6.96 3.82 12.53
3/10/2021 2:15:00 PM 5.91 42.638 0.031 6.95 3.84 12.5
3/10/2021 2:30:00 PM 5.93 42.674 0.031 6.95 3.91 12.48
3/10/2021 2:45:00 PM 5.92 42.656 0.031 6.94 3.78 12.46
3/10/2021 3:00:00 PM 5.88 42.584 0.031 6.94 3.95 12.46
3/10/2021 3:15:00 PM 5.84 42.512 0.031 6.93 4.53 12.45
3/10/2021 3:30:00 PM 5.78 42.404 0.031 6.92 3.88 12.45
3/10/2021 3:45:00 PM 5.71 42.278 0.031 6.92 3.81 12.45
3/10/2021 4:00:00 PM 5.63 42.134 0.031 6.91 3.89 12.46
3/10/2021 4:15:00 PM 5.54 41.972 0.031 6.9 4.04 12.46
3/10/2021 4:30:00 PM 5.46 41.828 0.031 6.9 4.19 12.49
3/10/2021 4:45:00 PM 5.37 41.666 0.031 6.9 4.2 12.5
3/10/2021 5:00:00 PM 5.29 41.522 0.031 6.88 4.15 12.5
3/10/2021 5:15:00 PM 5.18 41.324 0.031 6.87 4.5 12.5
3/10/2021 5:30:00 PM 5.09 41.162 0.031 6.87 4.71 12.53
3/10/2021 5:45:00 PM 4.99 40.982 0.031 6.86 4.82 12.52
3/10/2021 6:00:00 PM 4.9 40.82 0.031 6.84 4.64 12.52
3/10/2021 6:15:00 PM 4.81 40.658 0.031 6.83 5.26 12.52
3/10/2021 6:30:00 PM 4.71 40.478 0.031 6.81 5.04 12.53
3/10/2021 6:45:00 PM 4.61 40.298 0.031 6.81 4.95 12.54
3/10/2021 7:00:00 PM 4.51 40.118 0.031 6.8 5.7 12.57
3/10/2021 7:15:00 PM 4.44 39.992 0.031 6.8 5.44 12.59
3/10/2021 7:30:00 PM 4.36 39.848 0.031 6.77 5.42 12.62
3/10/2021 7:45:00 PM 4.29 39.722 0.031 6.76 5.31 12.65
3/10/2021 8:00:00 PM 4.23 39.614 0.031 6.75 5.99 12.67
3/10/2021 8:15:00 PM 4.17 39.506 0.031 6.76 5.26 12.69
3/10/2021 8:30:00 PM 4.12 39.416 0.031 6.75 5.42 12.71
3/10/2021 8:45:00 PM 4.07 39.326 0.031 6.75 4.98 12.73
3/10/2021 9:00:00 PM 4.02 39.236 0.031 6.75 5.07 12.75
3/10/2021 9:15:00 PM 3.99 39.182 0.031 6.75 5.07 12.76
3/10/2021 9:30:00 PM 3.95 39.11 0.031 6.75 5.3 12.77
3/10/2021 9:45:00 PM 3.92 39.056 0.031 6.75 4.62 12.78
3/10/2021 10:00:00 PM 3.89 39.002 0.031 6.75 5.12 12.79
3/10/2021 10:15:00 PM 3.87 38.966 0.031 6.76 4.89 12.79
3/10/2021 10:30:00 PM 3.85 38.93 0.031 6.75 4.85 12.8
3/10/2021 10:45:00 PM 3.83 38.894 0.031 6.75 5.13 12.81
3/10/2021 11:00:00 PM 3.81 38.858 0.031 6.74 4.74 12.82
3/10/2021 11:15:00 PM 3.79 38.822 0.031 6.76 4.71 12.83
3/10/2021 11:30:00 PM 3.76 38.768 0.031 6.75 4.77 12.83
3/10/2021 11:45:00 PM 3.74 38.732 0.031 6.74 4.9 12.84
3/11/2021 12:00:00 AM 3.72 38.696 0.031 6.74 4.74 12.85
3/11/2021 12:15:00 AM 3.7 38.66 0.031 6.74 4.94 12.86
3/11/2021 12:30:00 AM 3.68 38.624 0.031 6.74 4.66 12.86
3/11/2021 12:45:00 AM 3.66 38.588 0.031 6.74 4.63 12.86
3/11/2021 1:00:00 AM 3.64 38.552 0.031 6.73 4.79 12.87
3/11/2021 1:15:00 AM 3.63 38.534 0.031 6.73 5.02 12.88
3/11/2021 1:30:00 AM 3.61 38.498 0.031 6.77 4.62 12.88
3/11/2021 1:45:00 AM 3.59 38.462 0.031 6.74 4.14 12.88
3/11/2021 2:00:00 AM 3.58 38.444 0.031 6.74 4.41 12.89
3/11/2021 2:15:00 AM 3.56 38.408 0.031 6.76 4.35 12.9
3/11/2021 2:30:00 AM 3.55 38.39 0.031 6.76 4.45 12.9
3/11/2021 2:45:00 AM 3.54 38.372 0.031 6.76 4.22 12.9
3/11/2021 3:00:00 AM 3.53 38.354 0.031 6.76 4.11 12.9
3/11/2021 3:15:00 AM 3.52 38.336 0.031 6.77 4.19 12.9
3/11/2021 3:30:00 AM 3.52 38.336 0.031 6.76 4.26 12.91
3/11/2021 3:45:00 AM 3.51 38.318 0.031 6.76 4.37 12.91
3/11/2021 4:00:00 AM 3.51 38.318 0.031 6.76 4.55 12.91
3/11/2021 4:15:00 AM 3.5 38.3 0.031 6.76 4.44 12.91
3/11/2021 4:30:00 AM 3.5 38.3 0.031 6.75 4.48 12.91
3/11/2021 4:45:00 AM 3.5 38.3 0.031 6.74 4.33 12.91
3/11/2021 5:00:00 AM 3.5 38.3 0.031 6.75 4.27 12.91
3/11/2021 5:15:00 AM 3.5 38.3 0.031 6.75 4.29 12.92
3/11/2021 5:30:00 AM 3.49 38.282 0.031 6.75 4.49 12.91
3/11/2021 5:45:00 AM 3.48 38.264 0.031 6.75 4.25 12.92
3/11/2021 6:00:00 AM 3.48 38.264 0.031 6.75 4.29 12.92
3/11/2021 6:15:00 AM 3.48 38.264 0.031 6.76 4.35 12.92
3/11/2021 6:30:00 AM 3.47 38.246 0.031 6.76 4.15 12.93
3/11/2021 6:45:00 AM 3.46 38.228 0.031 6.75 4.51 12.94
3/11/2021 7:00:00 AM 3.46 38.228 0.031 6.76 4.38 12.96
3/11/2021 7:15:00 AM 3.46 38.228 0.03 6.77 4.38 12.98
3/11/2021 7:30:00 AM 3.47 38.246 0.03 6.78 4.68 13.01
3/11/2021 7:45:00 AM 3.48 38.264 0.03 6.79 4.22 13.04
3/11/2021 8:00:00 AM 3.5 38.3 0.03 6.79 3.99 13.06
3/11/2021 8:15:00 AM 3.5 38.3 0.03 6.79 4.03 13.08
3/11/2021 8:30:00 AM 3.51 38.318 0.03 6.79 4.35 13.07
3/11/2021 8:45:00 AM 3.53 38.354 0.03 6.8 4.22 13.09
3/11/2021 9:00:00 AM 3.6 38.48 0.03 6.82 4.61 13.11
3/11/2021 9:15:00 AM 3.66 38.588 0.03 6.83 4.48 13.11
3/11/2021 9:30:00 AM 3.72 38.696 0.03 6.84 4.48 13.1
3/11/2021 9:45:00 AM 3.81 38.858 0.03 6.86 4.62 13.1
3/11/2021 10:00:00 AM 3.91 39.038 0.03 6.86 4.19 13.07
3/11/2021 10:15:00 AM 4.04 39.272 0.03 6.87 4.2 13.04
3/11/2021 10:30:00 AM 4.14 39.452 0.03 6.87 4.29 13.01
3/11/2021 10:45:00 AM 4.23 39.614 0.031 6.88 4.21 12.96
3/11/2021 11:00:00 AM 4.3 39.74 0.03 6.88 4.26 12.92
3/11/2021 11:15:00 AM 4.36 39.848 0.03 6.88 4.14 12.88
3/11/2021 11:30:00 AM 4.39 39.902 0.03 6.87 4.33 12.82
3/11/2021 11:45:00 AM 4.42 39.956 0.03 6.87 4.06 12.8
3/11/2021 12:00:00 PM 4.47 40.046 0.03 6.86 4.29 12.8
3/11/2021 12:15:00 PM 4.51 40.118 0.03 6.86 4.12 12.79
3/11/2021 12:30:00 PM 4.58 40.244 0.03 6.88 4.1 12.79
3/11/2021 12:45:00 PM 4.61 40.298 0.03 6.88 4.27 12.78
3/11/2021 1:00:00 PM 4.6 40.28 0.03 6.86 4.51 12.74
3/11/2021 1:15:00 PM 4.6 40.28 0.03 6.86 4.17 12.73
3/11/2021 1:30:00 PM 4.58 40.244 0.03 6.85 4.34 12.71
3/11/2021 1:45:00 PM 4.57 40.226 0.03 6.84 4.6 12.72
3/11/2021 2:00:00 PM 4.57 40.226 0.03 6.84 4.61 12.7
3/11/2021 2:15:00 PM 4.57 40.226 0.03 6.84 4.62 12.7
3/11/2021 2:30:00 PM 4.58 40.244 0.03 6.84 5.25 12.67
3/11/2021 2:45:00 PM 4.62 40.316 0.03 6.83 5 12.66
3/11/2021 3:00:00 PM 4.64 40.352 0.03 6.85 4.94 12.64
3/11/2021 3:15:00 PM 4.65 40.37 0.03 6.84 5.97 12.66
3/11/2021 3:30:00 PM 4.64 40.352 0.03 6.84 5.57 12.64
3/11/2021 3:45:00 PM 4.62 40.316 0.03 6.82 6.1 12.61
3/11/2021 4:00:00 PM 4.6 40.28 0.03 6.8 6.59 12.6
3/11/2021 4:15:00 PM 4.59 40.262 0.03 6.8 7.5 12.59
3/11/2021 4:30:00 PM 4.59 40.262 0.03 6.79 7.6 12.63
3/11/2021 4:45:00 PM 4.58 40.244 0.03 6.79 6.68 12.62
3/11/2021 5:00:00 PM 4.56 40.208 0.03 6.79 7.88 12.62
3/11/2021 5:15:00 PM 4.53 40.154 0.03 6.77 7.16 12.61
3/11/2021 5:30:00 PM 4.49 40.082 0.03 6.77 7.1 12.6
3/11/2021 5:45:00 PM 4.46 40.028 0.03 6.76 7.22 12.59
3/11/2021 6:00:00 PM 4.43 39.974 0.03 6.75 8.45 12.6
3/11/2021 6:15:00 PM 4.41 39.938 0.03 6.73 7.63 12.6
3/11/2021 6:30:00 PM 4.39 39.902 0.03 6.7 7.83 12.6
3/11/2021 6:45:00 PM 4.37 39.866 0.03 6.72 6.6 12.59
3/11/2021 7:00:00 PM 4.35 39.83 0.03 6.69 9.42 12.6
3/11/2021 7:15:00 PM 4.32 39.776 0.03 6.72 7.3 12.61
3/11/2021 7:30:00 PM 4.3 39.74 0.03 6.7 8.56 12.61
3/11/2021 7:45:00 PM 4.28 39.704 0.029 6.7 8.45 12.62
3/11/2021 8:00:00 PM 4.26 39.668 0.029 6.72 8.25 12.63
3/11/2021 8:15:00 PM 4.24 39.632 0.029 6.69 10.98 12.64
3/11/2021 8:30:00 PM 4.21 39.578 0.029 6.7 8.5 12.65
3/11/2021 8:45:00 PM 4.19 39.542 0.029 6.71 7.49 12.66
3/11/2021 9:00:00 PM 4.17 39.506 0.029 6.69 8.04 12.67
3/11/2021 9:15:00 PM 4.16 39.488 0.029 6.7 9.02 12.68
3/11/2021 9:30:00 PM 4.15 39.47 0.029 6.68 8.92 12.69
3/11/2021 9:45:00 PM 4.13 39.434 0.029 6.67 8.45 12.69
3/11/2021 10:00:00 PM 4.13 39.434 0.029 6.69 8.33 12.7
3/11/2021 10:15:00 PM 4.12 39.416 0.029 6.68 7.87 12.7
3/11/2021 10:30:00 PM 4.12 39.416 0.029 6.7 7.62 12.7
3/11/2021 10:45:00 PM 4.12 39.416 0.029 6.68 7.57 12.7
3/11/2021 11:00:00 PM 4.11 39.398 0.029 6.69 8.59 12.71
3/11/2021 11:15:00 PM 4.11 39.398 0.029 6.68 6.62 12.7
3/11/2021 11:30:00 PM 4.11 39.398 0.029 6.68 7.57 12.7
3/11/2021 11:45:00 PM 4.1 39.38 0.029 6.67 7.28 12.71
3/12/2021 12:00:00 AM 4.1 39.38 0.029 6.68 7.05 12.7
3/12/2021 12:15:00 AM 4.09 39.362 0.029 6.67 7.37 12.71
3/12/2021 12:30:00 AM 4.08 39.344 0.029 6.68 7.59 12.72
3/12/2021 12:45:00 AM 4.08 39.344 0.029 6.68 9.34 12.71
3/12/2021 1:00:00 AM 4.08 39.344 0.029 6.66 6.98 12.71
3/12/2021 1:15:00 AM 4.07 39.326 0.029 6.65 8.45 12.72
3/12/2021 1:30:00 AM 4.06 39.308 0.029 6.67 7.1 12.73
3/12/2021 1:45:00 AM 4.05 39.29 0.029 6.64 7.32 12.72
3/12/2021 2:00:00 AM 4.04 39.272 0.029 6.66 8.59 12.73
3/12/2021 2:15:00 AM 4.03 39.254 0.029 6.65 9.05 12.73
3/12/2021 2:30:00 AM 4.03 39.254 0.029 6.65 8.18 12.73
3/12/2021 2:45:00 AM 4.02 39.236 0.029 6.64 8.69 12.75
3/12/2021 3:00:00 AM 4.01 39.218 0.028 6.64 8.91 12.74
3/12/2021 3:15:00 AM 4.02 39.236 0.029 6.64 9.21 12.75
3/12/2021 3:30:00 AM 4.02 39.236 0.029 6.66 9.05 12.75
3/12/2021 3:45:00 AM 4.02 39.236 0.028 6.64 9.03 12.75
3/12/2021 4:00:00 AM 4.02 39.236 0.028 6.64 9.72 12.76
3/12/2021 4:15:00 AM 4.02 39.236 0.028 6.64 8.82 12.76
3/12/2021 4:30:00 AM 4.02 39.236 0.028 6.64 10.02 12.76
3/12/2021 4:45:00 AM 4.01 39.218 0.028 6.63 9.67 12.77
3/12/2021 5:00:00 AM 4 39.2 0.028 6.63 9.2 12.78
3/12/2021 5:15:00 AM 3.98 39.164 0.028 6.62 8.54 12.79
3/12/2021 5:30:00 AM 3.95 39.11 0.028 6.63 9.54 12.8
3/12/2021 5:45:00 AM 3.93 39.074 0.028 6.61 10.67 12.81
3/12/2021 6:00:00 AM 3.9 39.02 0.028 6.62 10.42 12.82
3/12/2021 6:15:00 AM 3.88 38.984 0.028 6.61 9.37 12.84
3/12/2021 6:30:00 AM 3.86 38.948 0.028 6.6 11.27 12.84
3/12/2021 6:45:00 AM 3.83 38.894 0.028 6.62 9.48 12.87
3/12/2021 7:00:00 AM 3.81 38.858 0.028 6.61 9.62 12.88
3/12/2021 7:15:00 AM 3.8 38.84 0.028 6.61 10.87 12.89
3/12/2021 7:30:00 AM 3.78 38.804 0.028 6.61 10.45 12.91
3/12/2021 7:45:00 AM 3.76 38.768 0.028 6.62 11.79 12.93
3/12/2021 8:00:00 AM 3.75 38.75 0.028 6.62 9.8 12.94
3/12/2021 8:15:00 AM 3.75 38.75 0.028 6.64 8.94 12.94
3/12/2021 8:30:00 AM 3.76 38.768 0.028 6.63 10.89 12.96
3/12/2021 8:45:00 AM 3.79 38.822 0.028 6.65 11.7 12.96
3/12/2021 9:00:00 AM 3.83 38.894 0.028 6.65 8.82 12.95
3/12/2021 9:15:00 AM 3.9 39.02 0.028 6.67 9.82 12.95
3/12/2021 9:30:00 AM 3.99 39.182 0.028 6.67 12.4 12.92
3/12/2021 9:45:00 AM 4.1 39.38 0.028 6.67 13.5 12.9
3/12/2021 10:00:00 AM 4.22 39.596 0.028 6.68 12.2 12.85
3/12/2021 10:15:00 AM 4.35 39.83 0.028 6.68 11.7 12.82
3/12/2021 10:30:00 AM 4.48 40.064 0.028 6.69 13.98 12.78
3/12/2021 10:45:00 AM 4.61 40.298 0.027 6.7 12.9 12.74
3/12/2021 11:00:00 AM 4.75 40.55 0.027 6.7 13.94 12.69
3/12/2021 11:15:00 AM 4.9 40.82 0.027 6.7 13.66 12.64
3/12/2021 11:30:00 AM 5.04 41.072 0.027 6.7 14.13 12.6
3/12/2021 11:45:00 AM 5.19 41.342 0.027 6.71 12.81 12.55
3/12/2021 12:00:00 PM 5.31 41.558 0.027 6.71 14.7 12.51
3/12/2021 12:15:00 PM 5.45 41.81 0.027 6.71 14.14 12.45
3/12/2021 12:30:00 PM 5.56 42.008 0.027 6.71 15.48 12.41
3/12/2021 12:45:00 PM 5.55 41.99 0.027 6.7 14.44 12.43
3/12/2021 1:00:00 PM 5.57 42.026 0.027 6.7 13.45 12.42
3/12/2021 1:15:00 PM 5.73 42.314 0.027 6.7 15.29 12.35
3/12/2021 1:30:00 PM 5.83 42.494 0.027 6.71 15.52 12.31
3/12/2021 1:45:00 PM 5.89 42.602 0.027 6.7 15.03 12.28
3/12/2021 2:00:00 PM 5.91 42.638 0.027 6.69 14.32 12.26
3/12/2021 2:15:00 PM 5.91 42.638 0.027 6.68 15.76 12.25
3/12/2021 2:30:00 PM 5.9 42.62 0.027 6.68 15.94 12.24
3/12/2021 2:45:00 PM 5.91 42.638 0.027 6.67 16.46 12.23
3/12/2021 3:00:00 PM 5.92 42.656 0.027 6.67 15.99 12.21
3/12/2021 3:15:00 PM 5.87 42.566 0.027 6.69 18.8 12.24
3/12/2021 3:30:00 PM 5.85 42.53 0.027 6.68 19.94 12.23
3/12/2021 3:45:00 PM 5.83 42.494 0.027 6.67 20.62 12.23
3/12/2021 4:00:00 PM 5.78 42.404 0.027 6.65 22.49 12.23
3/12/2021 4:15:00 PM 5.74 42.332 0.027 6.65 17.77 12.23
3/12/2021 4:30:00 PM 5.7 42.26 0.027 6.64 19.81 12.23
3/12/2021 4:45:00 PM 5.66 42.188 0.027 6.65 17.6 12.23
3/12/2021 5:00:00 PM 5.6 42.08 0.027 6.62 17.62 12.25
3/12/2021 5:15:00 PM 5.53 41.954 0.027 6.61 27.09 12.26
3/12/2021 5:30:00 PM 5.47 41.846 0.027 6.61 19.21 12.28
3/12/2021 5:45:00 PM 5.4 41.72 0.027 6.61 16.35 12.31
3/12/2021 6:00:00 PM 5.35 41.63 0.027 6.6 20.3 12.3
3/12/2021 6:15:00 PM 5.27 41.486 0.027 6.58 19.75 12.32
3/12/2021 6:30:00 PM 5.2 41.36 0.027 6.57 20.82 12.33
3/12/2021 6:45:00 PM 5.13 41.234 0.027 6.58 22.35 12.37
3/12/2021 7:00:00 PM 5.06 41.108 0.027 6.58 22.84 12.39
3/12/2021 7:15:00 PM 5.01 41.018 0.027 6.58 27.18 12.42
3/12/2021 7:30:00 PM 4.94 40.892 0.027 6.57 21.85 12.44
3/12/2021 7:45:00 PM 4.88 40.784 0.027 6.57 20.32 12.47
3/12/2021 8:00:00 PM 4.83 40.694 0.027 6.56 21.58 12.48
3/12/2021 8:15:00 PM 4.77 40.586 0.027 6.57 23.74 12.5
3/12/2021 8:30:00 PM 4.73 40.514 0.027 6.56 20.21 12.52
3/12/2021 8:45:00 PM 4.69 40.442 0.027 6.54 20.37 12.54
3/12/2021 9:00:00 PM 4.65 40.37 0.027 6.55 21.75 12.55
3/12/2021 9:15:00 PM 4.61 40.298 0.027 6.56 20.38 12.56
3/12/2021 9:30:00 PM 4.58 40.244 0.027 6.54 23.17 12.58
3/12/2021 9:45:00 PM 4.55 40.19 0.027 6.54 21.83 12.6
3/12/2021 10:00:00 PM 4.51 40.118 0.019 6.56 28.22 12.63
3/12/2021 10:15:00 PM 4.46 40.028 0.027 6.55 26.62 12.64
3/12/2021 10:30:00 PM 4.45 40.01 0.027 6.56 46.16 12.65
3/12/2021 10:45:00 PM 4.43 39.974 0.021 6.55 33.27 12.65
3/12/2021 11:00:00 PM 4.4 39.92 0.028 6.57 2357.28 12.66
3/12/2021 11:15:00 PM 4.37 39.866 0.027 6.56 117.53 12.67
3/12/2021 11:30:00 PM 4.34 39.812 0.027 6.56 48.36 12.69
3/12/2021 11:45:00 PM 4.3 39.74 0.025 6.57 151.95 12.7
3/13/2021 12:00:00 AM 4.26 39.668 0.027 6.61 179.5 12.72
3/13/2021 12:15:00 AM 4.21 39.578 0.027 6.55 104.36 12.74
3/13/2021 12:30:00 AM 4.16 39.488 0.028 6.55 42.25 12.75
3/13/2021 12:45:00 AM 4.11 39.398 0.027 6.54 86.03 12.78
3/13/2021 1:00:00 AM 4.05 39.29 0.027 6.53 94.65 12.81
3/13/2021 1:15:00 AM 3.98 39.164 0.027 6.52 111.92 12.83
3/13/2021 1:30:00 AM 3.93 39.074 0.027 6.55 67.56 12.85
3/13/2021 1:45:00 AM 3.89 39.002 0.025 6.56 67.08 12.87
3/13/2021 2:00:00 AM 3.85 38.93 0.028 6.54 49.12 12.89
3/13/2021 2:15:00 AM 3.8 38.84 0.028 6.55 49.07 12.9
3/13/2021 2:30:00 AM 3.74 38.732 0.029 6.51 44.86 12.92
3/13/2021 2:45:00 AM 3.69 38.642 0.027 6.52 121.62 12.94
3/13/2021 3:00:00 AM 3.63 38.534 0.028 6.53 88.56 12.96
3/13/2021 3:15:00 AM 3.59 38.462 0.013 6.54 43.12 12.99
3/13/2021 3:30:00 AM 3.53 38.354 0.013 6.54 44.48 13.01
3/13/2021 3:45:00 AM 3.48 38.264 0.013 6.54 46.19 13.03
3/13/2021 4:00:00 AM 3.43 38.174 0.013 6.54 77.51 13.05
3/13/2021 4:15:00 AM 3.38 38.084 0.013 6.54 7150.69 13.08
3/13/2021 4:30:00 AM 3.33 37.994 0.029 6.55 102.48 13.09
3/13/2021 4:45:00 AM 3.28 37.904 0.029 6.52 107.22 13.11
3/13/2021 5:00:00 AM 3.24 37.832 0.027 6.54 95.49 13.13
3/13/2021 5:15:00 AM 3.19 37.742 0.023 6.64 64.56 13.15
3/13/2021 5:30:00 AM 3.15 37.67 0.017 6.53 114.18 13.17
3/13/2021 5:45:00 AM 3.11 37.598 0.017 6.53 134.44 13.19
3/13/2021 6:00:00 AM 3.07 37.526 0.016 6.53 4334.83 13.2
3/13/2021 6:15:00 AM 3.03 37.454 0.016 6.53 9632.95 13.22
3/13/2021 6:30:00 AM 2.99 37.382 0.016 6.53 3116.22 13.25
3/13/2021 6:45:00 AM 2.96 37.328 0.016 6.53 1179.22 13.27
3/13/2021 7:00:00 AM 2.93 37.274 0.016 6.53 1211.05 13.28
3/13/2021 7:15:00 AM 2.91 37.238 0.016 6.54 1145.91 13.29
3/13/2021 7:30:00 AM 2.88 37.184 0.015 6.54 1115.69 13.32
3/13/2021 7:45:00 AM 2.86 37.148 0.015 6.54 1133.14 13.33
3/13/2021 8:00:00 AM 2.84 37.112 0.014 6.55 1142.68 13.36
3/13/2021 8:15:00 AM 2.83 37.094 0.014 6.55 1168.44 13.35
3/13/2021 8:30:00 AM 2.83 37.094 0.014 6.56 1236.87 13.38
3/13/2021 8:45:00 AM 2.85 37.13 0.014 6.56 1199.46 13.39
3/13/2021 9:00:00 AM 2.87 37.166 0.014 6.57 1149.17 13.38
3/13/2021 9:15:00 AM 2.92 37.256 0.02 6.58 62.93 13.37
3/13/2021 9:30:00 AM 2.97 37.346 0.015 6.56 103.25 13.38
3/13/2021 9:45:00 AM 3.05 37.49 0.014 6.58 638.52 13.35
3/13/2021 10:00:00 AM 3.13 37.634 0.013 6.59 1844.28 13.33
3/13/2021 10:15:00 AM 3.24 37.832 0.013 6.59 896.31 13.29
3/13/2021 10:30:00 AM 3.35 38.03 0.014 6.6 860.83 13.26
3/13/2021 10:45:00 AM 3.49 38.282 0.027 6.58 89.26 13.2
3/13/2021 11:00:00 AM 3.6 38.48 0.016 6.58 102.21 13.17
3/13/2021 11:15:00 AM 3.72 38.696 0.015 6.59 358.35 13.13
3/13/2021 11:30:00 AM 3.87 38.966 0.021 6.59 729.24 13.08
3/13/2021 11:45:00 AM 4.01 39.218 0.015 6.57 706.48 13.04
3/13/2021 12:00:00 PM 4.15 39.47 0.014 6.59 715.59 12.98
3/13/2021 12:15:00 PM 4.29 39.722 0.014 6.6 681.81 12.94
3/13/2021 12:30:00 PM 4.42 39.956 0.028 6.59 1957.79 12.89
3/13/2021 12:45:00 PM 4.55 40.19 0.02 6.55 154.63 12.84
3/13/2021 1:00:00 PM 4.66 40.388 0.015 6.59 126.58 12.79
3/13/2021 1:15:00 PM 4.75 40.55 0.021 6.67 175.81 12.75
3/13/2021 1:30:00 PM 4.82 40.676 0.022 6.59 253.44 12.71
3/13/2021 1:45:00 PM 4.88 40.784 0.015 6.59 203.05 12.67
3/13/2021 2:00:00 PM 4.92 40.856 0.015 6.59 210.49 12.65
3/13/2021 2:15:00 PM 4.97 40.946 0.028 6.51 507.06 12.61
3/13/2021 2:30:00 PM 5 41 0.028 6.58 563.51 12.6
3/13/2021 2:45:00 PM 5.02 41.036 0.028 6.58 4494.1 12.58
3/13/2021 3:00:00 PM 5.04 41.072 0.029 6.58 9542.66 12.56
3/13/2021 3:15:00 PM 5.04 41.072 0.029 6.57 11498.45 12.55
3/13/2021 3:30:00 PM 5.05 41.09 0.029 6.57 7575.75 12.54
3/13/2021 3:45:00 PM 5.04 41.072 0.029 6.57 9172.38 12.53
3/13/2021 4:00:00 PM 5.02 41.036 0.029 6.57 9978.51 12.53
3/13/2021 4:15:00 PM 5.01 41.018 0.029 6.57 4889.73 12.52
3/13/2021 4:30:00 PM 4.98 40.964 0.029 6.56 10390.04 12.52
3/13/2021 4:45:00 PM 4.96 40.928 0.029 6.56 9139.32 12.51
3/13/2021 5:00:00 PM 4.95 40.91 0.029 6.56 12315 12.5
3/13/2021 5:15:00 PM 4.93 40.874 0.029 6.55 551.69 12.5
3/13/2021 5:30:00 PM 4.88 40.784 0.029 6.54 507.36 12.51
3/13/2021 5:45:00 PM 4.84 40.712 0.029 6.54 316.87 12.51
3/13/2021 6:00:00 PM 4.81 40.658 0.029 6.53 347.92 12.52
3/13/2021 6:15:00 PM 4.77 40.586 0.029 6.52 344.06 12.53
3/13/2021 6:30:00 PM 4.71 40.478 0.029 6.52 362.27 12.53
3/13/2021 6:45:00 PM 4.65 40.37 0.029 6.51 343.73 12.55
3/13/2021 7:00:00 PM 4.59 40.262 0.029 6.51 506.12 12.56
3/13/2021 7:15:00 PM 4.54 40.172 0.029 6.51 512.58 12.58
3/13/2021 7:30:00 PM 4.49 40.082 0.029 6.52 516.79 12.61
3/13/2021 7:45:00 PM 4.43 39.974 0.029 6.47 523.45 12.63
3/13/2021 8:00:00 PM 4.37 39.866 0.029 6.51 540.47 12.64
3/13/2021 8:15:00 PM 4.32 39.776 0.029 6.52 525.7 12.65
3/13/2021 8:30:00 PM 4.27 39.686 0.029 6.47 478.03 12.66
3/13/2021 8:45:00 PM 4.22 39.596 0.029 6.51 445.45 12.67
3/13/2021 9:00:00 PM 4.17 39.506 0.029 6.51 423.87 12.69
3/13/2021 9:15:00 PM 4.13 39.434 0.029 6.51 423.83 12.71
3/13/2021 9:30:00 PM 4.08 39.344 0.029 6.51 423.73 12.72
3/13/2021 9:45:00 PM 4.04 39.272 0.029 6.51 399.89 12.74
3/13/2021 10:00:00 PM 4 39.2 0.029 6.51 406.42 12.74
3/13/2021 10:15:00 PM 3.96 39.128 0.029 6.52 404.92 12.76
3/13/2021 10:30:00 PM 3.93 39.074 0.029 6.52 406.12 12.78
3/13/2021 10:45:00 PM 3.89 39.002 0.029 6.52 419.04 12.79
3/13/2021 11:00:00 PM 3.86 38.948 0.029 6.52 420.34 12.8
3/13/2021 11:15:00 PM 3.83 38.894 0.029 6.52 423.28 12.82
3/13/2021 11:30:00 PM 3.8 38.84 0.029 6.52 423.9 12.82
3/13/2021 11:45:00 PM 3.77 38.786 0.029 6.52 424.47 12.83
3/14/2021 12:00:00 AM 3.74 38.732 0.029 6.52 425.77 12.84
3/14/2021 12:15:00 AM 3.71 38.678 0.029 6.52 421.94 12.85
3/14/2021 12:30:00 AM 3.68 38.624 0.029 6.52 423.49 12.86
3/14/2021 12:45:00 AM 3.65 38.57 0.029 6.52 424.61 12.87
3/14/2021 1:00:00 AM 3.63 38.534 0.022 6.52 426.19 12.88
3/14/2021 1:15:00 AM 3.61 38.498 0.018 6.52 426.67 12.89
3/14/2021 1:30:00 AM 3.59 38.462 0.016 6.53 428.75 12.89
3/14/2021 1:45:00 AM 3.58 38.444 0.015 6.53 431.27 12.9
3/14/2021 3:00:00 AM 3.5 38.3 0.015 6.53 437.76 12.92
3/14/2021 3:15:00 AM 3.48 38.264 0.015 6.53 439.4 12.92
3/14/2021 3:30:00 AM 3.46 38.228 0.015 6.52 444.02 12.91
3/14/2021 3:45:00 AM 3.45 38.21 0.015 6.52 432.6 12.92
3/14/2021 4:00:00 AM 3.44 38.192 0.015 6.54 429.71 12.92
3/14/2021 5:15:00 AM 3.42 38.156 0.016 6.54 435.22 12.93
3/14/2021 5:30:00 AM 3.4 38.12 0.016 6.51 437.24 12.93
3/14/2021 5:45:00 AM 3.39 38.102 0.016 6.53 440.98 12.93
3/14/2021 6:00:00 AM 3.37 38.066 0.017 6.53 453.55 12.94
3/14/2021 6:15:00 AM 3.36 38.048 0.017 6.53 451.51 12.95
3/14/2021 6:30:00 AM 3.34 38.012 0.017 6.53 463.22 12.95
3/14/2021 6:45:00 AM 3.33 37.994 0.018 6.53 470.17 12.95
3/14/2021 7:00:00 AM 3.31 37.958 0.018 6.52 470.24 12.96
3/14/2021 7:15:00 AM 3.3 37.94 0.018 6.53 470.01 12.96
3/14/2021 7:30:00 AM 3.28 37.904 0.018 6.53 464.68 12.98
3/14/2021 7:45:00 AM 3.27 37.886 0.019 6.53 461.46 12.98
3/14/2021 8:00:00 AM 3.26 37.868 0.019 6.54 443.23 13
3/14/2021 8:15:00 AM 3.25 37.85 0.019 6.54 419.38 13.02
3/14/2021 8:30:00 AM 3.24 37.832 0.02 6.54 416.48 13.02
3/14/2021 8:45:00 AM 3.23 37.814 0.02 6.55 415.57 13.04
3/14/2021 9:00:00 AM 3.23 37.814 0.02 6.55 416.15 13.05
3/14/2021 9:15:00 AM 3.23 37.814 0.022 6.55 452.88 13.05
3/14/2021 9:30:00 AM 3.27 37.886 0.029 6.57 118.81 13.06
3/14/2021 9:45:00 AM 3.32 37.976 0.022 6.6 3969.14 13.07
3/14/2021 10:00:00 AM 3.38 38.084 0.017 6.57 8325.83 13.06
3/14/2021 10:15:00 AM 3.46 38.228 0.016 6.58 5184.87 13.05
3/14/2021 10:30:00 AM 3.57 38.426 0.015 6.59 4875.02 13.02
3/14/2021 10:45:00 AM 3.7 38.66 0.015 6.6 4772.51 12.98
3/14/2021 11:00:00 AM 3.84 38.912 0.014 6.61 4678.89 12.94
3/14/2021 11:15:00 AM 3.97 39.146 0.015 6.62 3955.77 12.9
3/14/2021 11:30:00 AM 4.13 39.434 0.021 6.58 830.05 12.84
3/14/2021 11:45:00 AM 4.26 39.668 0.015 6.61 11363.03 12.8
3/14/2021 12:00:00 PM 4.41 39.938 0.014 6.59 10869.24 12.75
3/14/2021 12:15:00 PM 4.56 40.208 0.028 6.58 2892.6 12.7
3/14/2021 12:30:00 PM 4.69 40.442 0.019 6.58 2316.62 12.65
3/14/2021 12:45:00 PM 4.8 40.64 0.018 6.6 2322.55 12.62
3/14/2021 1:00:00 PM 4.97 40.946 0.017 6.62 2382.21 12.59
3/14/2021 1:15:00 PM 5.07 41.126 0.016 6.61 2265.52 12.54
3/14/2021 1:30:00 PM 5.21 41.378 0.014 6.63 2240.29 12.5
3/14/2021 1:45:00 PM 5.35 41.63 0.014 6.6 2199.58 12.47
3/14/2021 2:00:00 PM 5.45 41.81 0.014 6.63 2046.11 12.42
3/14/2021 2:15:00 PM 5.56 42.008 0.029 6.61 1748.77 12.39
3/14/2021 2:30:00 PM 5.53 41.954 0.017 6.59 6318.71 12.37
3/14/2021 2:45:00 PM 5.41 41.738 0.016 6.6 1673.16 12.37
3/14/2021 3:00:00 PM 5.42 41.756 0.015 6.61 1418.3 12.38
3/14/2021 3:15:00 PM 5.39 41.702 0.015 6.61 1330.23 12.39
3/14/2021 3:30:00 PM 5.41 41.738 0.015 6.61 1294.83 12.38
3/14/2021 3:45:00 PM 5.41 41.738 0.02 6.61 1778.53 12.36
3/14/2021 4:00:00 PM 5.38 41.684 0.015 6.58 1940.67 12.37
3/14/2021 4:15:00 PM 5.42 41.756 0.014 6.6 1596.27 12.36
3/14/2021 4:30:00 PM 5.43 41.774 0.024 6.59 1566.53 12.34
3/14/2021 4:45:00 PM 5.42 41.756 0.019 6.6 427.21 12.36
3/14/2021 5:00:00 PM 5.39 41.702 0.018 6.59 441.3 12.34
3/14/2021 5:15:00 PM 5.35 41.63 0.017 6.56 553.55 12.35
3/14/2021 5:30:00 PM 5.3 41.54 0.016 6.58 600.35 12.35
3/14/2021 5:45:00 PM 5.24 41.432 0.015 6.58 602.1 12.36
3/14/2021 6:00:00 PM 5.17 41.306 0.014 6.55 667.73 12.38
3/14/2021 6:15:00 PM 5.1 41.18 0.029 6.53 2294.01 12.38
3/14/2021 6:30:00 PM 5.03 41.054 0.017 6.49 1651.62 12.4
3/14/2021 6:45:00 PM 4.94 40.892 0.016 6.54 1031.79 12.43
3/14/2021 7:00:00 PM 4.85 40.73 0.016 6.53 1014.43 12.45
3/14/2021 7:15:00 PM 4.8 40.64 0.021 6.49 7570.17 12.47
3/14/2021 7:30:00 PM 4.73 40.514 0.015 6.53 2432.13 12.48
3/14/2021 7:45:00 PM 4.64 40.352 0.015 6.48 1957.8 12.51
3/14/2021 8:00:00 PM 4.56 40.208 0.015 6.52 1998.95 12.54
3/14/2021 8:15:00 PM 4.48 40.064 0.029 6.49 221.25 12.57
3/14/2021 8:30:00 PM 4.4 39.92 0.029 6.51 203.82 12.6
3/14/2021 8:45:00 PM 4.32 39.776 0.029 6.51 159.84 12.64
3/14/2021 9:00:00 PM 4.25 39.65 0.029 6.53 171.2 12.67
3/14/2021 9:15:00 PM 4.17 39.506 0.029 6.51 219.91 12.7
3/14/2021 9:30:00 PM 4.1 39.38 0.029 6.51 241.51 12.73
3/14/2021 9:45:00 PM 4.03 39.254 0.029 6.51 285.63 12.76
3/14/2021 10:00:00 PM 3.95 39.11 0.029 6.51 310.93 12.79
3/14/2021 10:15:00 PM 3.88 38.984 0.029 6.51 387.39 12.82
3/14/2021 10:30:00 PM 3.82 38.876 0.029 6.51 457.12 12.84
3/14/2021 10:45:00 PM 3.75 38.75 0.029 6.51 516.5 12.88
3/14/2021 11:00:00 PM 3.69 38.642 0.029 6.51 617.99 12.9
3/14/2021 11:15:00 PM 3.65 38.57 0.029 6.51 714.34 12.92
3/14/2021 11:30:00 PM 3.58 38.444 0.029 6.51 777.88 12.95
3/14/2021 11:45:00 PM 3.51 38.318 0.029 6.51 880.86 12.98
3/15/2021 12:00:00 AM 3.43 38.174 0.029 6.51 930.89 13.01
3/15/2021 12:15:00 AM 3.38 38.084 0.029 6.51 1006.46 13.03
3/15/2021 12:30:00 AM 3.32 37.976 0.029 6.51 1047.37 13.06
3/15/2021 12:45:00 AM 3.28 37.904 0.029 6.51 1091.61 13.08
3/15/2021 1:00:00 AM 3.23 37.814 0.029 6.52 1129.17 13.09
3/15/2021 1:15:00 AM 3.17 37.706 0.029 6.51 1147.04 13.12
3/15/2021 1:30:00 AM 3.11 37.598 0.029 6.51 1157.48 13.14
3/15/2021 1:45:00 AM 3.04 37.472 0.029 6.51 1172.12 13.16
3/15/2021 2:00:00 AM 2.99 37.382 0.029 6.51 1181.1 13.18
3/15/2021 2:15:00 AM 2.94 37.292 0.029 6.52 1190.06 13.21
3/15/2021 2:30:00 AM 2.89 37.202 0.029 6.51 1198.2 13.23
3/15/2021 2:45:00 AM 2.83 37.094 0.029 6.51 1188.42 13.26
3/15/2021 3:00:00 AM 2.78 37.004 0.029 6.52 1174.2 13.27
3/15/2021 3:15:00 AM 2.73 36.914 0.029 6.51 1164.8 13.29
3/15/2021 3:30:00 AM 2.69 36.842 0.029 6.52 1182.68 13.31
3/15/2021 3:45:00 AM 2.65 36.77 0.029 6.52 1177.09 13.33
3/15/2021 4:00:00 AM 2.6 36.68 0.029 6.52 1143.24 13.35
3/15/2021 4:15:00 AM 2.57 36.626 0.029 6.52 1176.17 13.36
3/15/2021 4:30:00 AM 2.53 36.554 0.029 6.52 1217.23 13.37
3/15/2021 4:45:00 AM 2.49 36.482 0.029 6.52 1231.14 13.38
3/15/2021 5:00:00 AM 2.46 36.428 0.029 6.52 1204.61 13.4
3/15/2021 5:15:00 AM 2.41 36.338 0.029 6.52 1209.45 13.42
3/15/2021 5:30:00 AM 2.38 36.284 0.029 6.52 1219.58 13.43
3/15/2021 5:45:00 AM 2.34 36.212 0.029 6.52 1233.3 13.45
3/15/2021 6:00:00 AM 2.3 36.14 0.029 6.52 1242.96 13.46
3/15/2021 6:15:00 AM 2.25 36.05 0.029 6.52 1230.46 13.48
3/15/2021 6:30:00 AM 2.21 35.978 0.029 6.52 1251.77 13.5
3/15/2021 6:45:00 AM 2.17 35.906 0.029 6.52 1257.13 13.52
3/15/2021 7:00:00 AM 2.12 35.816 0.029 6.52 1257.73 13.55
3/15/2021 7:15:00 AM 2.08 35.744 0.029 6.52 1275.05 13.57
3/15/2021 7:30:00 AM 2.05 35.69 0.029 6.52 1277.96 13.58
3/15/2021 7:45:00 AM 2.01 35.618 0.029 6.52 1283.98 13.61
3/15/2021 8:00:00 AM 1.98 35.564 0.029 6.53 1288.75 13.63
3/15/2021 8:15:00 AM 1.93 35.474 0.029 6.53 1284.49 13.67
3/15/2021 8:30:00 AM 1.91 35.438 0.029 6.53 1276.36 13.69
3/15/2021 8:45:00 AM 1.88 35.384 0.029 6.54 1289.14 13.71
3/15/2021 9:00:00 AM 1.85 35.33 0.029 6.54 1281.87 13.73
3/15/2021 9:15:00 AM 1.84 35.312 0.029 6.55 1301 13.75
3/15/2021 9:30:00 AM 1.84 35.312 0.029 6.56 1299.63 13.77
3/15/2021 9:45:00 AM 1.86 35.348 0.029 6.56 1302.82 13.78
3/15/2021 10:00:00 AM 1.88 35.384 0.029 6.57 1302.55 13.79
3/15/2021 10:15:00 AM 1.93 35.474 0.029 6.57 1199.42 13.79
3/15/2021 10:30:00 AM 1.99 35.582 0.029 6.59 1171.24 13.76
3/15/2021 10:45:00 AM 2.09 35.762 0.029 6.59 1193.05 13.74
3/15/2021 11:00:00 AM 2.19 35.942 0.029 6.6 1219.65 13.71
3/15/2021 11:15:00 AM 2.31 36.158 0.029 6.6 1240.83 13.66
3/15/2021 11:30:00 AM 2.44 36.392 0.029 6.61 1246.99 13.62
3/15/2021 11:45:00 AM 2.57 36.626 0.029 6.61 1254.77 13.57
3/15/2021 12:00:00 PM 2.7 36.86 0.029 6.61 1289.01 13.52
3/15/2021 12:15:00 PM 2.84 37.112 0.029 6.61 1279.21 13.48
3/15/2021 12:30:00 PM 2.99 37.382 0.029 6.62 1324.73 13.43
3/15/2021 12:45:00 PM 3.13 37.634 0.029 6.62 1322.44 13.39
3/15/2021 1:00:00 PM 3.27 37.886 0.029 6.62 1340.67 13.33
3/15/2021 1:15:00 PM 3.41 38.138 0.029 6.63 1353.9 13.28
3/15/2021 1:30:00 PM 3.54 38.372 0.029 6.62 1319.82 13.23
3/15/2021 1:45:00 PM 3.68 38.624 0.029 6.63 1320.39 13.18
3/15/2021 2:00:00 PM 3.81 38.858 0.029 6.63 1335.99 13.13
3/15/2021 2:15:00 PM 3.91 39.038 0.029 6.62 1311.48 13.09
3/15/2021 2:30:00 PM 3.98 39.164 0.029 6.62 1302.75 13.05
3/15/2021 2:45:00 PM 4.01 39.218 0.029 6.62 1263.52 13.03
3/15/2021 3:00:00 PM 4.02 39.236 0.029 6.62 1253.62 13.01
3/15/2021 3:15:00 PM 4.03 39.254 0.029 6.62 1269.43 13
3/15/2021 3:30:00 PM 4.02 39.236 0.029 6.62 1243.13 12.99
3/15/2021 3:45:00 PM 4.01 39.218 0.029 6.62 1233.26 12.98
3/15/2021 4:00:00 PM 3.99 39.182 0.029 6.62 1218.94 12.99
3/15/2021 4:15:00 PM 3.96 39.128 0.029 6.62 1165.72 12.98
3/15/2021 4:30:00 PM 3.95 39.11 0.029 6.62 1129.06 12.98
3/15/2021 4:45:00 PM 3.92 39.056 0.029 6.62 1101.96 12.98
3/15/2021 5:00:00 PM 3.9 39.02 0.029 6.61 1098.41 12.97
3/15/2021 5:15:00 PM 3.87 38.966 0.029 6.61 1081.1 12.97
3/15/2021 5:30:00 PM 3.84 38.912 0.029 6.6 1081.62 12.96
3/15/2021 5:45:00 PM 3.8 38.84 0.029 6.6 1094.66 12.96
3/15/2021 6:00:00 PM 3.76 38.768 0.029 6.59 1108.47 12.97
3/15/2021 6:15:00 PM 3.73 38.714 0.029 6.59 1109.45 12.97
3/15/2021 6:30:00 PM 3.69 38.642 0.029 6.58 1117.87 12.97
3/15/2021 6:45:00 PM 3.66 38.588 0.029 6.58 1128.61 12.98
3/15/2021 7:00:00 PM 3.63 38.534 0.029 6.57 1132.45 12.97
3/15/2021 7:15:00 PM 3.6 38.48 0.029 6.57 1148.25 12.97
3/15/2021 7:30:00 PM 3.57 38.426 0.029 6.56 1148.3 12.97
3/15/2021 7:45:00 PM 3.53 38.354 0.029 6.56 1163.89 12.98
3/15/2021 8:00:00 PM 3.49 38.282 0.029 6.55 1166.61 12.99
3/15/2021 8:15:00 PM 3.45 38.21 0.029 6.55 1175.1 13
3/15/2021 8:30:00 PM 3.41 38.138 0.029 6.55 1195.22 13.01
3/15/2021 8:45:00 PM 3.37 38.066 0.029 6.55 1205.45 13.03
3/15/2021 9:00:00 PM 3.33 37.994 0.029 6.55 1225.42 13.04
3/15/2021 9:15:00 PM 3.3 37.94 0.029 6.55 1250.81 13.06
3/15/2021 9:30:00 PM 3.26 37.868 0.029 6.54 1272.07 13.07
3/15/2021 9:45:00 PM 3.22 37.796 0.029 6.54 1275.52 13.08
3/15/2021 10:00:00 PM 3.19 37.742 0.03 6.54 1276.66 13.09
3/15/2021 10:15:00 PM 3.16 37.688 0.03 6.54 1294.6 13.11
3/15/2021 10:30:00 PM 3.13 37.634 0.03 6.55 1291.37 13.12
3/15/2021 10:45:00 PM 3.1 37.58 0.03 6.55 1312.19 13.14
3/15/2021 11:00:00 PM 3.08 37.544 0.03 6.55 1351.7 13.15
3/15/2021 11:15:00 PM 3.05 37.49 0.029 6.55 1363.67 13.15
3/15/2021 11:30:00 PM 3.03 37.454 0.03 6.55 1373.92 13.16
3/15/2021 11:45:00 PM 3.02 37.436 0.03 6.55 1395.89 13.16
3/16/2021 12:00:00 AM 3 37.4 0.03 6.55 1425.18 13.17
3/16/2021 12:15:00 AM 2.99 37.382 0.03 6.55 1452.66 13.17
3/16/2021 12:30:00 AM 2.97 37.346 0.03 6.55 1503.79 13.18
3/16/2021 12:45:00 AM 2.96 37.328 0.03 6.55 1533.96 13.18
3/16/2021 1:00:00 AM 2.95 37.31 0.03 6.55 1569.47 13.19
3/16/2021 1:15:00 AM 2.93 37.274 0.03 6.55 1603.32 13.19
3/16/2021 1:30:00 AM 2.92 37.256 0.03 6.55 1688.84 13.18
3/16/2021 1:45:00 AM 2.91 37.238 0.03 6.55 1722.12 13.2
3/16/2021 2:00:00 AM 2.9 37.22 0.03 6.55 1552.1 13.2
3/16/2021 2:15:00 AM 2.89 37.202 0.03 6.56 1243.33 13.19
3/16/2021 2:30:00 AM 2.88 37.184 0.03 6.56 869.66 13.2
3/16/2021 2:45:00 AM 2.86 37.148 0.03 6.56 537.48 13.21
3/16/2021 3:00:00 AM 2.85 37.13 0.03 6.55 167.25 13.21
3/16/2021 3:15:00 AM 2.84 37.112 0.03 6.55 73.02 13.22
3/16/2021 3:30:00 AM 2.83 37.094 0.03 6.55 39.86 13.22
3/16/2021 3:45:00 AM 2.82 37.076 0.03 6.55 33.06 13.2
3/16/2021 4:00:00 AM 2.81 37.058 0.03 6.55 106.57 13.2
3/16/2021 4:15:00 AM 2.8 37.04 0.03 6.55 301.11 13.21
3/16/2021 4:30:00 AM 2.79 37.022 0.03 6.55 390.4 13.2
3/16/2021 4:45:00 AM 2.79 37.022 0.03 6.56 422.63 13.21
3/16/2021 5:00:00 AM 2.78 37.004 0.03 6.56 248.38 13.22
3/16/2021 5:15:00 AM 2.77 36.986 0.024 6.56 7265.9 13.22
3/16/2021 5:30:00 AM 2.76 36.968 0.021 6.54 2132.16 13.23
3/16/2021 5:45:00 AM 2.74 36.932 0.021 6.54 503.01 13.23
3/16/2021 6:00:00 AM 2.73 36.914 0.02 6.54 690.14 13.24
3/16/2021 6:15:00 AM 2.72 36.896 0.02 6.54 756.49 13.22
3/16/2021 6:30:00 AM 2.72 36.896 0.02 6.54 654.98 13.23
3/16/2021 6:45:00 AM 2.71 36.878 0.019 6.54 662.95 13.24
3/16/2021 7:00:00 AM 2.71 36.878 0.019 6.54 652.88 13.24
3/16/2021 7:15:00 AM 2.7 36.86 0.019 6.54 660.57 13.25
3/16/2021 7:30:00 AM 2.7 36.86 0.019 6.55 607.39 13.24
3/16/2021 7:45:00 AM 2.7 36.86 0.019 6.55 599.04 13.25
3/16/2021 8:00:00 AM 2.7 36.86 0.018 6.55 620.01 13.26
3/16/2021 8:15:00 AM 2.7 36.86 0.018 6.56 623.36 13.28
3/16/2021 8:30:00 AM 2.7 36.86 0.018 6.57 625.37 13.28
3/16/2021 8:45:00 AM 2.72 36.896 0.018 6.57 622.26 13.3
3/16/2021 9:00:00 AM 2.73 36.914 0.018 6.58 615.14 13.31
3/16/2021 9:15:00 AM 2.74 36.932 0.017 6.59 621.6 13.31
3/16/2021 9:30:00 AM 2.75 36.95 0.017 6.59 621.78 13.33
3/16/2021 9:45:00 AM 2.76 36.968 0.017 6.6 623.75 13.33
3/16/2021 10:00:00 AM 2.7 36.86 0.017 6.59 628.14 13.33
3/16/2021 10:15:00 AM 2.59 36.662 0.016 6.58 627.38 13.33
3/16/2021 10:30:00 AM 2.57 36.626 0.016 6.56 631.98 13.35
3/16/2021 10:45:00 AM 2.59 36.662 0.016 6.59 636.51 13.38
3/16/2021 11:00:00 AM 2.61 36.698 0.016 6.6 636.92 13.38
3/16/2021 11:15:00 AM 2.63 36.734 0.016 6.6 639.14 13.38
3/16/2021 11:30:00 AM 2.65 36.77 0.016 6.61 639.67 13.38
3/16/2021 11:45:00 AM 2.68 36.824 0.016 6.61 639.24 13.39
3/16/2021 12:00:00 PM 2.72 36.896 0.016 6.61 640.69 13.38
3/16/2021 12:15:00 PM 2.75 36.95 0.016 6.62 640.35 13.35
3/16/2021 12:30:00 PM 2.79 37.022 0.015 6.62 641.21 13.34
3/16/2021 12:45:00 PM 2.83 37.094 0.015 6.6 640.68 13.33
3/16/2021 1:00:00 PM 2.85 37.13 0.015 6.62 640.19 13.32
3/16/2021 1:15:00 PM 2.88 37.184 0.015 6.61 638.55 13.33
3/16/2021 1:30:00 PM 2.92 37.256 0.015 6.63 639.96 13.31
3/16/2021 1:45:00 PM 2.96 37.328 0.015 6.61 640.24 13.3
3/16/2021 2:00:00 PM 2.99 37.382 0.015 6.63 640.07 13.29
3/16/2021 2:15:00 PM 3.03 37.454 0.015 6.63 640.76 13.28
3/16/2021 2:30:00 PM 3.05 37.49 0.015 6.63 640.44 13.26
3/16/2021 2:45:00 PM 3.06 37.508 0.015 6.62 640.54 13.24
3/16/2021 3:00:00 PM 3.08 37.544 0.015 6.62 639.37 13.23
3/16/2021 3:15:00 PM 3.09 37.562 0.015 6.62 640.11 13.22
3/16/2021 3:30:00 PM 3.11 37.598 0.015 6.62 640.21 13.2
3/16/2021 3:45:00 PM 3.12 37.616 0.015 6.62 641.44 13.2
3/16/2021 4:00:00 PM 3.14 37.652 0.015 6.62 642.74 13.19
3/16/2021 4:15:00 PM 3.14 37.652 0.015 6.62 644.09 13.19
3/16/2021 4:30:00 PM 3.16 37.688 0.015 6.62 645.15 13.18
3/16/2021 4:45:00 PM 3.17 37.706 0.015 6.62 644.31 13.17
3/16/2021 5:00:00 PM 3.18 37.724 0.015 6.62 644.14 13.15
3/16/2021 5:15:00 PM 3.18 37.724 0.015 6.61 643.67 13.14
3/16/2021 5:30:00 PM 3.19 37.742 0.015 6.61 644.15 13.13
3/16/2021 5:45:00 PM 3.19 37.742 0.015 6.61 643.99 13.12
3/16/2021 6:00:00 PM 3.19 37.742 0.015 6.6 645.21 13.11
3/16/2021 6:15:00 PM 3.19 37.742 0.015 6.6 646.62 13.11
3/16/2021 6:30:00 PM 3.19 37.742 0.015 6.6 646.75 13.09
3/16/2021 6:45:00 PM 3.2 37.76 0.015 6.6 647.31 13.08
3/16/2021 7:00:00 PM 3.19 37.742 0.015 6.59 646.23 13.06
3/16/2021 7:15:00 PM 3.18 37.724 0.015 6.58 646.7 13.05
3/16/2021 7:30:00 PM 3.18 37.724 0.015 6.56 647.36 13.03
3/16/2021 7:45:00 PM 3.19 37.742 0.025 6.56 3977.93 13.02
3/16/2021 8:00:00 PM 3.19 37.742 0.02 6.56 14145.55 13.02
3/16/2021 8:15:00 PM 3.2 37.76 0.017 6.56 1221.59 13.02
3/16/2021 8:30:00 PM 3.2 37.76 0.016 6.56 1060.03 13.01
3/16/2021 8:45:00 PM 3.21 37.778 0.016 6.56 1024.64 13.01
3/16/2021 9:00:00 PM 3.21 37.778 0.021 6.54 896.83 13.01
3/16/2021 9:15:00 PM 3.21 37.778 0.015 6.54 2936.13 13.01
3/16/2021 9:30:00 PM 3.21 37.778 0.016 6.55 10615.02 13.01
3/16/2021 9:45:00 PM 3.22 37.796 0.028 6.46 585.7 13
3/16/2021 10:00:00 PM 3.23 37.814 0.021 6.48 925.56 13
3/16/2021 10:15:00 PM 3.24 37.832 0.015 6.52 863 13
3/16/2021 10:30:00 PM 3.24 37.832 0.017 6.53 884.66 13
3/16/2021 10:45:00 PM 3.24 37.832 0.021 6.51 413.24 13
3/16/2021 11:00:00 PM 3.25 37.85 0.015 6.48 5040.01 13
3/16/2021 11:15:00 PM 3.26 37.868 0.021 6.51 791.4 13
3/16/2021 11:30:00 PM 3.27 37.886 0.016 6.53 2700.55 12.99
3/16/2021 11:45:00 PM 3.27 37.886 0.022 6.46 1127.89 12.99
3/17/2021 12:00:00 AM 3.28 37.904 0.016 6.51 1439.8 12.99
3/17/2021 12:15:00 AM 3.28 37.904 0.017 6.53 2064.29 12.99
3/17/2021 12:30:00 AM 3.28 37.904 0.015 6.53 2066.41 12.98
3/17/2021 12:45:00 AM 3.29 37.922 0.023 6.53 523.99 12.98
3/17/2021 1:00:00 AM 3.29 37.922 0.017 6.48 8294.45 12.97
3/17/2021 1:15:00 AM 3.3 37.94 0.017 6.53 9459.78 12.97
3/17/2021 1:30:00 AM 3.31 37.958 0.016 6.54 8147.58 12.97
3/17/2021 1:45:00 AM 3.32 37.976 0.016 6.54 7689.44 12.96
3/17/2021 2:00:00 AM 3.33 37.994 0.022 6.5 511.29 12.96
3/17/2021 2:15:00 AM 3.33 37.994 0.016 6.47 3543.79 12.95
3/17/2021 2:30:00 AM 3.34 38.012 0.016 6.52 4174.92 12.96
3/17/2021 2:45:00 AM 3.34 38.012 0.016 6.53 2613.44 12.96
3/17/2021 3:00:00 AM 3.35 38.03 0.022 6.49 690.32 12.95
3/17/2021 3:15:00 AM 3.35 38.03 0.016 6.53 13121.45 12.95
3/17/2021 3:30:00 AM 3.36 38.048 0.023 6.5 671.09 12.94
3/17/2021 3:45:00 AM 3.36 38.048 0.017 6.5 2197.88 12.94
3/17/2021 4:00:00 AM 3.36 38.048 0.016 6.53 1952.1 12.94
3/17/2021 4:15:00 AM 3.37 38.066 0.016 6.53 1880.85 12.94
3/17/2021 4:30:00 AM 3.37 38.066 0.02 6.49 383.04 12.94
3/17/2021 4:45:00 AM 3.37 38.066 0.015 6.52 356.39 12.94
3/17/2021 5:00:00 AM 3.37 38.066 0.021 6.49 728.26 12.94
3/17/2021 5:15:00 AM 3.38 38.084 0.025 6.45 867.91 12.94
3/17/2021 5:30:00 AM 3.38 38.084 0.022 6.51 2777.69 12.93
3/17/2021 5:45:00 AM 3.39 38.102 0.021 6.51 2903.61 12.94
3/17/2021 6:00:00 AM 3.39 38.102 0.02 6.52 2888.3 12.94
3/17/2021 6:15:00 AM 3.4 38.12 0.019 6.52 4146.62 12.94
3/17/2021 6:30:00 AM 3.4 38.12 0.018 6.52 4556.59 12.94
3/17/2021 6:45:00 AM 3.4 38.12 0.018 6.52 9162.13 12.93
3/17/2021 7:00:00 AM 3.4 38.12 0.017 6.52 9068.56 12.94
3/17/2021 7:15:00 AM 3.41 38.138 0.017 6.52 9007.46 12.93
3/17/2021 7:30:00 AM 3.42 38.156 0.017 6.52 9089.77 12.94
3/17/2021 7:45:00 AM 3.43 38.174 0.016 6.53 9565.77 12.94
3/17/2021 8:00:00 AM 3.44 38.192 0.016 6.52 9536.24 12.95
3/17/2021 8:15:00 AM 3.45 38.21 0.022 6.51 737.07 12.96
3/17/2021 8:30:00 AM 3.45 38.21 0.016 6.52 855.98 12.98
3/17/2021 8:45:00 AM 3.47 38.246 0.015 6.55 1523.48 13
3/17/2021 9:00:00 AM 3.48 38.264 0.023 6.5 813.91 13.01
3/17/2021 9:15:00 AM 3.5 38.3 0.017 6.53 2121.63 13.01
3/17/2021 9:30:00 AM 3.53 38.354 0.016 6.57 3167.1 13.02
3/17/2021 9:45:00 AM 3.56 38.408 0.015 6.58 3263.89 13.03
3/17/2021 10:00:00 AM 3.6 38.48 0.016 6.59 3507.95 13.02
3/17/2021 10:15:00 AM 3.63 38.534 0.022 6.53 875.27 13.02
3/17/2021 10:30:00 AM 3.67 38.606 0.017 6.59 2464.57 13.01
3/17/2021 10:45:00 AM 3.7 38.66 0.016 6.6 774.44 13.01
3/17/2021 11:00:00 AM 3.74 38.732 0.015 6.6 3605.89 13
3/17/2021 11:15:00 AM 3.78 38.804 0.016 6.61 1667.86 12.99
3/17/2021 11:30:00 AM 3.82 38.876 0.022 6.56 504.66 12.98
3/17/2021 11:45:00 AM 3.86 38.948 0.016 6.61 3108.88 12.97
3/17/2021 12:00:00 PM 3.9 39.02 0.016 6.61 3316.66 12.95
3/17/2021 12:15:00 PM 3.94 39.092 0.021 6.59 316.7 12.94
3/17/2021 12:30:00 PM 3.98 39.164 0.016 6.57 5436.44 12.93
3/17/2021 12:45:00 PM 4.01 39.218 0.024 6.58 485.98 12.92
3/17/2021 1:00:00 PM 4.05 39.29 0.019 6.61 10644.97 12.9
3/17/2021 1:15:00 PM 4.09 39.362 0.017 6.59 9160.39 12.88
3/17/2021 1:30:00 PM 4.13 39.434 0.016 6.62 1004.05 12.87
3/17/2021 1:45:00 PM 4.17 39.506 0.016 6.63 1086.85 12.85
3/17/2021 2:00:00 PM 4.2 39.56 0.016 6.61 1159.08 12.84
3/17/2021 2:15:00 PM 4.24 39.632 0.015 6.62 531.3 12.82
3/17/2021 2:30:00 PM 4.27 39.686 0.022 6.6 943 12.81
3/17/2021 2:45:00 PM 4.3 39.74 0.016 6.6 7404.43 12.79
3/17/2021 3:00:00 PM 4.33 39.794 0.016 6.62 8294.58 12.77
3/17/2021 3:15:00 PM 4.35 39.83 0.015 6.62 12078.02 12.76
3/17/2021 3:30:00 PM 4.39 39.902 0.015 6.62 12848.34 12.75
3/17/2021 3:45:00 PM 4.42 39.956 0.022 6.58 675.94 12.73
3/17/2021 4:00:00 PM 4.45 40.01 0.018 6.61 3054.71 12.73
3/17/2021 4:15:00 PM 4.49 40.082 0.017 6.58 7664.37 12.72
3/17/2021 4:30:00 PM 4.54 40.172 0.016 6.59 7718.78 12.71
3/17/2021 4:45:00 PM 4.57 40.226 0.016 6.62 8914.19 12.69
3/17/2021 5:00:00 PM 4.57 40.226 0.016 6.62 7372.58 12.67
3/17/2021 5:15:00 PM 4.58 40.244 0.016 6.62 6063.74 12.66
3/17/2021 5:30:00 PM 4.62 40.316 0.016 6.61 3820.81 12.66
3/17/2021 5:45:00 PM 4.65 40.37 0.016 6.62 3792.28 12.63
3/17/2021 6:00:00 PM 4.66 40.388 0.017 6.61 3609.73 12.6
3/17/2021 6:15:00 PM 4.65 40.37 0.024 6.53 455.83 12.58
3/17/2021 6:30:00 PM 4.64 40.352 0.018 6.6 13389.25 12.57
3/17/2021 6:45:00 PM 4.63 40.334 0.018 6.59 13120.48 12.56
3/17/2021 7:00:00 PM 4.61 40.298 0.017 6.58 10979.59 12.55
3/17/2021 7:15:00 PM 4.58 40.244 0.016 6.57 10977.47 12.51
3/17/2021 7:30:00 PM 4.55 40.19 0.022 6.52 1231.1 12.51
3/17/2021 7:45:00 PM 4.51 40.118 0.017 6.55 8918.35 12.51
3/17/2021 8:00:00 PM 4.49 40.082 0.016 6.54 8884.24 12.52
3/17/2021 8:15:00 PM 4.47 40.046 0.015 6.54 11581.59 12.52
3/17/2021 8:30:00 PM 4.45 40.01 0.023 6.51 702.95 12.53
3/17/2021 8:45:00 PM 4.43 39.974 0.018 6.47 3934.58 12.53
3/17/2021 9:00:00 PM 4.42 39.956 0.017 6.53 2633.49 12.54
3/17/2021 9:15:00 PM 4.41 39.938 0.016 6.53 2687.84 12.54
3/17/2021 9:30:00 PM 4.41 39.938 0.014 6.54 2622.2 12.54
3/17/2021 9:45:00 PM 4.4 39.92 0.016 6.51 5165 12.55
3/17/2021 10:00:00 PM 4.41 39.938 0.022 6.52 1378.14 12.55
3/17/2021 10:15:00 PM 4.41 39.938 0.017 6.53 3985.42 12.55
3/17/2021 10:30:00 PM 4.41 39.938 0.017 6.53 12160.96 12.54
3/17/2021 10:45:00 PM 4.42 39.956 0.015 6.54 4197.18 12.54
3/17/2021 11:00:00 PM 4.42 39.956 0.015 6.51 3280.43 12.54
3/17/2021 11:15:00 PM 4.42 39.956 0.028 6.46 587.66 12.54
3/17/2021 11:30:00 PM 4.42 39.956 0.018 6.49 7883.71 12.54
3/17/2021 11:45:00 PM 4.42 39.956 0.018 6.52 5462.53 12.54
3/18/2021 12:00:00 AM 4.42 39.956 0.017 6.53 5595 12.54
3/18/2021 12:15:00 AM 4.42 39.956 0.016 6.54 6211.27 12.54
3/18/2021 12:30:00 AM 4.43 39.974 0.022 6.48 480.27 12.53
3/18/2021 12:45:00 AM 4.43 39.974 0.016 6.53 1245.61 12.53
3/18/2021 1:00:00 AM 4.43 39.974 0.022 6.48 481.27 12.52
3/18/2021 1:15:00 AM 4.43 39.974 0.016 6.48 1406.72 12.52
3/18/2021 1:30:00 AM 4.43 39.974 0.015 6.52 1557.11 12.52
3/18/2021 1:45:00 AM 4.43 39.974 0.015 6.53 1657 12.52
3/18/2021 2:00:00 AM 4.43 39.974 0.017 6.54 2443.84 12.52
3/18/2021 2:15:00 AM 4.42 39.956 0.022 6.48 428.19 12.52
3/18/2021 2:30:00 AM 4.42 39.956 0.017 6.52 4203.7 12.52
3/18/2021 2:45:00 AM 4.41 39.938 0.016 6.53 5791.87 12.52
3/18/2021 3:00:00 AM 4.41 39.938 0.016 6.51 6044.91 12.52
3/18/2021 3:15:00 AM 4.4 39.92 0.021 6.5 492.4 12.52
3/18/2021 3:30:00 AM 4.4 39.92 0.03 6.49 358.48 12.52
3/18/2021 3:45:00 AM 4.39 39.902 0.03 6.5 7383.04 12.52
3/18/2021 4:00:00 AM 4.39 39.902 0.03 6.51 995.43 12.52
3/18/2021 4:15:00 AM 4.39 39.902 0.03 6.51 3136.86 12.52
3/18/2021 4:30:00 AM 4.39 39.902 0.03 6.52 3844.7 12.51
3/18/2021 4:45:00 AM 4.39 39.902 0.03 6.53 3600.14 12.51
3/18/2021 5:00:00 AM 4.4 39.92 0.03 6.53 7487.09 12.5
3/18/2021 5:15:00 AM 4.4 39.92 0.03 6.52 6735.77 12.5
3/18/2021 5:30:00 AM 4.4 39.92 0.03 6.53 7057.99 12.5
3/18/2021 5:45:00 AM 4.41 39.938 0.03 6.53 3151.71 12.5
3/18/2021 6:00:00 AM 4.41 39.938 0.03 6.47 6837.89 12.49
3/18/2021 6:15:00 AM 4.42 39.956 0.03 6.53 4544 12.49
3/18/2021 6:30:00 AM 4.42 39.956 0.027 6.48 4364.56 12.49
3/18/2021 6:45:00 AM 4.42 39.956 0.017 6.52 3218.01 12.49
3/18/2021 7:00:00 AM 4.42 39.956 0.017 6.53 2959.79 12.48
3/18/2021 7:15:00 AM 4.42 39.956 0.023 6.47 219.71 12.48
3/18/2021 7:30:00 AM 4.42 39.956 0.017 6.52 1202.68 12.48
3/18/2021 7:45:00 AM 4.41 39.938 0.016 6.53 912.8 12.48
3/18/2021 8:00:00 AM 4.42 39.956 0.015 6.5 999.17 12.49
3/18/2021 8:15:00 AM 4.42 39.956 0.022 6.54 144.73 12.49
3/18/2021 8:30:00 AM 4.43 39.974 0.016 6.52 1240.33 12.5
3/18/2021 8:45:00 AM 4.43 39.974 0.015 6.52 1234.09 12.51
3/18/2021 9:00:00 AM 4.44 39.992 0.022 6.51 100.29 12.51
3/18/2021 9:15:00 AM 4.44 39.992 0.016 6.51 1600.23 12.51
3/18/2021 9:30:00 AM 4.45 40.01 0.016 6.51 1752.43 12.52
3/18/2021 9:45:00 AM 4.45 40.01 0.016 6.54 2162.97 12.53
3/18/2021 10:00:00 AM 4.46 40.028 0.022 6.51 202.35 12.54
3/18/2021 10:15:00 AM 4.47 40.046 0.017 6.55 332.7 12.54
3/18/2021 10:30:00 AM 4.49 40.082 0.016 6.56 344.57 12.55
3/18/2021 10:45:00 AM 4.5 40.1 0.016 6.56 1566.54 12.55
3/18/2021 11:00:00 AM 4.52 40.136 0.016 6.58 13375.93 12.55
3/18/2021 11:15:00 AM 4.55 40.19 0.016 6.6 13632.9 12.56
3/18/2021 11:30:00 AM 4.58 40.244 0.016 6.61 13921.87 12.56
3/18/2021 11:45:00 AM 4.6 40.28 0.015 6.62 13891.21 12.56
3/18/2021 12:00:00 PM 4.63 40.334 0.015 6.62 13908.54 12.55
3/18/2021 12:15:00 PM 4.67 40.406 0.015 6.62 13971.48 12.53
3/18/2021 12:30:00 PM 4.69 40.442 0.016 6.6 13984.18 12.53
3/18/2021 12:45:00 PM 4.72 40.496 0.016 6.62 14013.22 12.53
3/18/2021 1:00:00 PM 4.75 40.55 0.016 6.63 14054.61 12.53
3/18/2021 1:15:00 PM 4.78 40.604 0.016 6.65 14073.56 12.52
3/18/2021 1:30:00 PM 4.82 40.676 0.016 6.67 14260.18 12.52
3/18/2021 1:45:00 PM 4.86 40.748 0.017 6.66 14297.12 12.5
3/18/2021 2:00:00 PM 4.89 40.802 0.017 6.66 14271.43 12.49
3/18/2021 2:15:00 PM 4.9 40.82 0.017 6.65 14255.04 12.47
3/18/2021 2:30:00 PM 4.91 40.838 0.017 6.65 14227.85 12.46
3/18/2021 2:45:00 PM 4.93 40.874 0.017 6.65 14256.16 12.46
3/18/2021 3:00:00 PM 4.94 40.892 0.017 6.65 14295.94 12.44
3/18/2021 3:15:00 PM 4.94 40.892 0.017 6.64 14213.35 12.42
3/18/2021 3:30:00 PM 4.94 40.892 0.017 7.09 14237.1 12.4
3/18/2021 3:45:00 PM 4.94 40.892 0.017 7.05 14262.83 12.41
3/18/2021 4:00:00 PM 4.94 40.892 0.021 6.96 632.31 12.4
3/18/2021 4:15:00 PM 4.94 40.892 0.016 6.98 764.91 12.41
3/18/2021 4:30:00 PM 4.93 40.874 0.021 6.88 846.73 12.39
3/18/2021 4:45:00 PM 4.92 40.856 0.016 6.9 513.38 12.41
3/18/2021 5:00:00 PM 4.91 40.838 0.019 6.88 507.94 12.4
3/18/2021 5:15:00 PM 4.9 40.82 0.029 6.86 584.77 12.41
3/18/2021 5:30:00 PM 4.89 40.802 0.021 6.83 470.57 12.4
3/18/2021 5:45:00 PM 4.87 40.766 0.018 6.83 457.57 12.4
3/18/2021 6:00:00 PM 4.84 40.712 0.017 6.81 462.98 12.39
3/18/2021 6:15:00 PM 4.81 40.658 0.016 6.8 1660.19 12.4
3/18/2021 6:30:00 PM 4.79 40.622 0.021 6.82 726.02 12.4
3/18/2021 6:45:00 PM 4.77 40.586 0.016 6.77 708.48 12.4
3/18/2021 7:00:00 PM 4.75 40.55 0.016 6.75 713.08 12.41
3/18/2021 7:15:00 PM 4.72 40.496 0.022 6.7 2211.82 12.41
3/18/2021 7:30:00 PM 4.69 40.442 0.017 6.72 2258.19 12.42
3/18/2021 7:45:00 PM 4.67 40.406 0.016 6.67 2060.54 12.42
3/18/2021 8:00:00 PM 4.65 40.37 0.016 6.71 2130.19 12.43
3/18/2021 8:15:00 PM 4.63 40.334 0.015 6.69 1804.4 12.43
3/18/2021 8:30:00 PM 4.61 40.298 0.015 6.69 1785.99 12.44
3/18/2021 8:45:00 PM 4.58 40.244 0.015 6.68 1855.09 12.45
3/18/2021 9:00:00 PM 4.56 40.208 0.021 6.64 1589.47 12.45
3/18/2021 9:15:00 PM 4.53 40.154 0.016 6.66 1424.19 12.47
3/18/2021 9:30:00 PM 4.51 40.118 0.015 6.69 1924.8 12.48
3/18/2021 9:45:00 PM 4.49 40.082 0.015 6.69 1968.4 12.49
3/18/2021 10:00:00 PM 4.46 40.028 0.015 6.68 1986.66 12.5
3/18/2021 10:15:00 PM 4.43 39.974 0.026 6.67 726.51 12.51
3/18/2021 10:30:00 PM 4.4 39.92 0.016 6.66 2411.81 12.52
3/18/2021 10:45:00 PM 4.37 39.866 0.028 6.66 635.58 12.53
3/18/2021 11:00:00 PM 4.34 39.812 0.028 6.67 781.14 12.55
3/18/2021 11:15:00 PM 4.3 39.74 0.028 6.66 1300.33 12.56
3/18/2021 11:30:00 PM 4.27 39.686 0.028 6.65 1442.5 12.58
3/18/2021 11:45:00 PM 4.25 39.65 0.019 6.6 2745.66 12.59
3/19/2021 12:00:00 AM 4.21 39.578 0.015 6.64 3768.18 12.6
3/19/2021 12:15:00 AM 4.17 39.506 0.015 6.63 1896.54 12.61
3/19/2021 12:30:00 AM 4.12 39.416 0.028 6.61 1146.09 12.63
3/19/2021 12:45:00 AM 4.08 39.344 0.028 6.62 945.61 12.64
3/19/2021 1:00:00 AM 4.05 39.29 0.028 6.62 833.98 12.66
3/19/2021 1:15:00 AM 4.02 39.236 0.028 6.62 953.39 12.67
3/19/2021 1:30:00 AM 3.97 39.146 0.028 6.63 950.35 12.7
3/19/2021 1:45:00 AM 3.93 39.074 0.028 6.63 727.25 12.71
3/19/2021 2:00:00 AM 3.88 38.984 0.028 6.63 462.16 12.73
3/19/2021 2:15:00 AM 3.83 38.894 0.028 6.62 417.35 12.75
3/19/2021 2:30:00 AM 3.78 38.804 0.028 6.61 376.71 12.77
3/19/2021 2:45:00 AM 3.74 38.732 0.028 6.61 466.72 12.79
3/19/2021 3:00:00 AM 3.67 38.606 0.028 6.61 544.82 12.81
3/19/2021 3:15:00 AM 3.62 38.516 0.028 6.61 728.89 12.84
3/19/2021 3:30:00 AM 3.57 38.426 0.028 6.61 800.11 12.85
3/19/2021 3:45:00 AM 3.53 38.354 0.028 6.61 793.12 12.87
3/19/2021 4:00:00 AM 3.48 38.264 0.021 6.59 1120.68 12.89
3/19/2021 4:15:00 AM 3.42 38.156 0.018 6.59 883.26 12.91
3/19/2021 4:30:00 AM 3.37 38.066 0.017 6.59 3396.17 12.93
3/19/2021 4:45:00 AM 3.31 37.958 0.017 6.57 6717.93 12.96
3/19/2021 5:00:00 AM 3.27 37.886 0.016 6.57 4453.66 12.98
3/19/2021 5:15:00 AM 3.21 37.778 0.016 6.58 4519 13.01
3/19/2021 5:30:00 AM 3.15 37.67 0.016 6.59 4335.55 13.03
3/19/2021 5:45:00 AM 3.09 37.562 0.015 6.57 4440.28 13.06
3/19/2021 6:00:00 AM 3.04 37.472 0.016 6.59 4618.47 13.08
3/19/2021 6:15:00 AM 2.99 37.382 0.015 6.59 4604.94 13.1
3/19/2021 6:30:00 AM 2.93 37.274 0.015 6.6 4255.34 13.12
3/19/2021 6:45:00 AM 2.88 37.184 0.015 6.6 4091.99 13.15
3/19/2021 7:00:00 AM 2.83 37.094 0.015 6.57 4038.92 13.18
3/19/2021 7:15:00 AM 2.79 37.022 0.015 6.6 3850.78 13.19
3/19/2021 7:30:00 AM 2.74 36.932 0.015 6.59 3549.6 13.23
3/19/2021 7:45:00 AM 2.7 36.86 0.015 6.59 3421.56 13.25
3/19/2021 8:00:00 AM 2.66 36.788 0.016 6.6 3082.14 13.29
3/19/2021 8:15:00 AM 2.62 36.716 0.015 6.6 2806.62 13.33
3/19/2021 8:30:00 AM 2.59 36.662 0.016 6.62 2414.64 13.36
3/19/2021 8:45:00 AM 2.56 36.608 0.017 6.6 1921.26 13.39
3/19/2021 9:00:00 AM 2.52 36.536 0.028 6.61 448.7 13.4
3/19/2021 9:15:00 AM 2.5 36.5 0.028 6.62 709.44 13.44
3/19/2021 9:30:00 AM 2.5 36.5 0.028 6.62 744.27 13.45
3/19/2021 9:45:00 AM 2.51 36.518 0.028 6.62 749.8 13.47
3/19/2021 10:00:00 AM 2.53 36.554 0.028 6.63 787.11 13.49
3/19/2021 10:15:00 AM 2.57 36.626 0.028 6.65 765.17 13.49
3/19/2021 10:30:00 AM 2.62 36.716 0.028 6.66 1224.57 13.47
3/19/2021 10:45:00 AM 2.69 36.842 0.022 6.6 3750.28 13.46
3/19/2021 11:00:00 AM 2.76 36.968 0.019 6.64 5252.98 13.45
3/19/2021 11:15:00 AM 2.86 37.148 0.019 6.65 6119.01 13.43
3/19/2021 11:30:00 AM 2.96 37.328 0.018 6.67 2345.26 13.39
3/19/2021 11:45:00 AM 3.09 37.562 0.017 6.67 2421.11 13.35
3/19/2021 12:00:00 PM 3.24 37.832 0.016 6.68 2429.64 13.3
3/19/2021 12:15:00 PM 3.39 38.102 0.016 6.68 2396.41 13.25
3/19/2021 12:30:00 PM 3.54 38.372 0.016 6.68 2472.65 13.2
3/19/2021 12:45:00 PM 3.7 38.66 0.017 6.69 2430.55 13.14
3/19/2021 1:00:00 PM 3.86 38.948 0.017 6.68 2429.57 13.09
3/19/2021 1:15:00 PM 4.02 39.236 0.016 6.69 2414.51 13.04
3/19/2021 1:30:00 PM 4.16 39.488 0.016 6.68 2402.74 12.99
3/19/2021 1:45:00 PM 4.3 39.74 0.015 6.68 2479.59 12.94
3/19/2021 2:00:00 PM 4.42 39.956 0.015 6.68 2486.65 12.9
3/19/2021 2:15:00 PM 4.51 40.118 0.015 6.68 2477.53 12.86
3/19/2021 2:30:00 PM 4.56 40.208 0.015 6.69 2472.83 12.83
3/19/2021 2:45:00 PM 4.61 40.298 0.015 6.67 2501.58 12.8
3/19/2021 3:00:00 PM 4.64 40.352 0.015 6.68 2527.55 12.79
3/19/2021 3:15:00 PM 4.65 40.37 0.015 6.68 2460.14 12.77
3/19/2021 3:30:00 PM 4.67 40.406 0.016 6.67 2469.4 12.75
3/19/2021 3:45:00 PM 4.68 40.424 0.016 6.68 2459.24 12.74
3/19/2021 4:00:00 PM 4.67 40.406 0.016 6.68 2450.12 12.74
3/19/2021 4:15:00 PM 4.65 40.37 0.016 6.66 2432.58 12.74
3/19/2021 4:30:00 PM 4.65 40.37 0.016 6.66 2459.14 12.73
3/19/2021 4:45:00 PM 4.63 40.334 0.016 6.67 2539.4 12.73
3/19/2021 5:00:00 PM 4.61 40.298 0.016 6.67 2603.69 12.72
3/19/2021 5:15:00 PM 4.58 40.244 0.016 6.66 2636.68 12.72
3/19/2021 5:30:00 PM 4.55 40.19 0.017 6.66 2581.34 12.72
3/19/2021 5:45:00 PM 4.51 40.118 0.017 6.65 2527.95 12.72
3/19/2021 6:00:00 PM 4.48 40.064 0.017 6.65 2482.48 12.72
3/19/2021 6:15:00 PM 4.45 40.01 0.018 6.64 2546.11 12.72
3/19/2021 6:30:00 PM 4.41 39.938 0.018 6.62 2555.57 12.74
3/19/2021 6:45:00 PM 4.36 39.848 0.019 6.62 2506.55 12.74
3/19/2021 7:00:00 PM 4.3 39.74 0.024 6.59 425.37 12.76
3/19/2021 7:15:00 PM 4.26 39.668 0.025 6.61 347.18 12.76
3/19/2021 7:30:00 PM 4.22 39.596 0.026 6.6 322.8 12.76
3/19/2021 7:45:00 PM 4.17 39.506 0.026 6.59 284.7 12.78
3/19/2021 8:00:00 PM 4.11 39.398 0.027 6.59 281.25 12.8
3/19/2021 8:15:00 PM 4.05 39.29 0.027 6.6 284.44 12.81
3/19/2021 8:30:00 PM 4 39.2 0.027 6.59 263.77 12.83
3/19/2021 8:45:00 PM 3.95 39.11 0.027 6.58 259.56 12.85
3/19/2021 9:00:00 PM 3.89 39.002 0.027 6.58 249.17 12.87
3/19/2021 9:15:00 PM 3.84 38.912 0.027 6.58 248.66 12.9
3/19/2021 9:30:00 PM 3.79 38.822 0.027 6.58 238.38 12.92
3/19/2021 9:45:00 PM 3.74 38.732 0.028 6.58 245.47 12.93
3/19/2021 10:00:00 PM 3.69 38.642 0.028 6.57 245.27 12.96
3/19/2021 10:15:00 PM 3.64 38.552 0.028 6.57 249.42 12.98
3/19/2021 10:30:00 PM 3.6 38.48 0.028 6.57 257.54 12.99
3/19/2021 10:45:00 PM 3.56 38.408 0.028 6.57 271.32 13.01
3/19/2021 11:00:00 PM 3.52 38.336 0.028 6.57 291.86 13.03
3/19/2021 11:15:00 PM 3.47 38.246 0.029 6.57 319.15 13.05
3/19/2021 11:30:00 PM 3.43 38.174 0.029 6.57 339.59 13.06
3/19/2021 11:45:00 PM 3.39 38.102 0.029 6.57 357.85 13.09
3/20/2021 12:00:00 AM 3.35 38.03 0.029 6.56 367.49 13.1
3/20/2021 12:15:00 AM 3.31 37.958 0.029 6.56 399.6 13.12
3/20/2021 12:30:00 AM 3.27 37.886 0.029 6.56 432.8 13.13
3/20/2021 12:45:00 AM 3.24 37.832 0.029 6.56 511.93 13.15
3/20/2021 1:00:00 AM 3.2 37.76 0.029 6.56 588.27 13.17
3/20/2021 1:15:00 AM 3.16 37.688 0.029 6.56 592.53 13.19
3/20/2021 1:30:00 AM 3.13 37.634 0.029 6.56 629 13.2
3/20/2021 1:45:00 AM 3.11 37.598 0.029 6.56 621.65 13.21
3/20/2021 2:00:00 AM 3.08 37.544 0.029 6.56 582.01 13.22
3/20/2021 2:15:00 AM 3.05 37.49 0.029 6.56 509.81 13.23
3/20/2021 2:30:00 AM 3.02 37.436 0.029 6.56 450.18 13.25
3/20/2021 2:45:00 AM 2.99 37.382 0.029 6.56 382.72 13.27
3/20/2021 3:00:00 AM 2.96 37.328 0.029 6.55 336.72 13.28
3/20/2021 3:15:00 AM 2.93 37.274 0.029 6.55 299.81 13.28
3/20/2021 3:30:00 AM 2.9 37.22 0.029 6.55 285.58 13.29
3/20/2021 3:45:00 AM 2.87 37.166 0.029 6.55 245.87 13.3
3/20/2021 4:00:00 AM 2.85 37.13 0.022 6.51 3200.01 13.31
3/20/2021 4:15:00 AM 2.81 37.058 0.018 6.5 3243.7 13.33
3/20/2021 4:30:00 AM 2.79 37.022 0.017 6.54 3228.28 13.36
3/20/2021 4:45:00 AM 2.76 36.968 0.017 6.53 3305.91 13.35
3/20/2021 5:00:00 AM 2.73 36.914 0.016 6.54 3489.36 13.38
3/20/2021 5:15:00 AM 2.7 36.86 0.016 6.54 3620.54 13.38
3/20/2021 5:30:00 AM 2.67 36.806 0.028 6.51 1339.55 13.39
3/20/2021 5:45:00 AM 2.64 36.752 0.029 6.54 4966.03 13.41
3/20/2021 6:00:00 AM 2.61 36.698 0.029 6.54 4331.69 13.42
3/20/2021 6:15:00 AM 2.59 36.662 0.02 6.51 4800.51 13.44
3/20/2021 6:30:00 AM 2.55 36.59 0.029 6.49 4136.39 13.44
3/20/2021 6:45:00 AM 2.53 36.554 0.029 6.52 6874.93 13.46
3/20/2021 7:00:00 AM 2.5 36.5 0.029 6.51 3866.04 13.47
3/20/2021 7:15:00 AM 2.47 36.446 0.029 6.51 5860.62 13.48
3/20/2021 7:30:00 AM 2.45 36.41 0.029 6.52 5118.47 13.5
3/20/2021 7:45:00 AM 2.43 36.374 0.029 6.52 4993.09 13.53
3/20/2021 8:00:00 AM 2.41 36.338 0.029 6.53 4930.76 13.55
3/20/2021 8:15:00 AM 2.39 36.302 0.029 6.53 4940.08 13.57
3/20/2021 8:30:00 AM 2.38 36.284 0.029 6.53 4910.22 13.59
3/20/2021 8:45:00 AM 2.37 36.266 0.029 6.54 4888.1 13.6
3/20/2021 9:00:00 AM 2.37 36.266 0.029 6.54 4918.59 13.62
3/20/2021 9:15:00 AM 2.4 36.32 0.029 6.55 4905.16 13.63
3/20/2021 9:30:00 AM 2.44 36.392 0.029 6.56 5300.48 13.63
3/20/2021 9:45:00 AM 2.49 36.482 0.029 6.56 5730.62 13.62
3/20/2021 10:00:00 AM 2.55 36.59 0.029 6.56 5745.16 13.61
3/20/2021 10:15:00 AM 2.65 36.77 0.029 6.58 6057.19 13.6
3/20/2021 10:30:00 AM 2.77 36.986 0.029 6.59 6064.02 13.56
3/20/2021 10:45:00 AM 2.91 37.238 0.029 6.58 6086.65 13.51
3/20/2021 11:00:00 AM 3.07 37.526 0.029 6.61 5809.18 13.46
3/20/2021 11:15:00 AM 3.24 37.832 0.029 6.57 5890.58 13.4
3/20/2021 11:30:00 AM 3.42 38.156 0.029 6.62 6834.82 13.34
3/20/2021 11:45:00 AM 3.61 38.498 0.028 6.62 6929.25 13.27
3/20/2021 12:00:00 PM 3.82 38.876 0.028 6.62 6908.23 13.2
3/20/2021 12:15:00 PM 4.02 39.236 0.028 6.63 7318.03 13.13
3/20/2021 12:30:00 PM 4.24 39.632 0.028 6.63 5982.4 13.05
3/20/2021 12:45:00 PM 4.45 40.01 0.028 6.64 5994.79 12.98
3/20/2021 1:00:00 PM 4.66 40.388 0.028 6.64 6050.29 12.9
3/20/2021 1:15:00 PM 4.87 40.766 0.028 6.63 6084.64 12.83
3/20/2021 1:30:00 PM 5.06 41.108 0.028 6.64 6530.08 12.76
3/20/2021 1:45:00 PM 5.25 41.45 0.028 6.63 6528.14 12.69
3/20/2021 2:00:00 PM 5.42 41.756 0.028 6.65 3627.38 12.63
3/20/2021 2:15:00 PM 5.55 41.99 0.028 6.64 3624.98 12.58
3/20/2021 2:30:00 PM 5.67 42.206 0.028 6.64 3603.93 12.53
3/20/2021 2:45:00 PM 5.75 42.35 0.028 6.64 3224.92 12.49
3/20/2021 3:00:00 PM 5.79 42.422 0.028 6.63 3227.75 12.47
3/20/2021 3:15:00 PM 5.82 42.476 0.028 6.63 3241.51 12.45
3/20/2021 3:30:00 PM 5.85 42.53 0.028 6.63 3249.44 12.43
3/20/2021 3:45:00 PM 5.89 42.602 0.028 6.63 3249.29 12.4
3/20/2021 4:00:00 PM 5.92 42.656 0.028 6.64 3249.68 12.38
3/20/2021 4:15:00 PM 5.93 42.674 0.028 6.63 3245.46 12.37
3/20/2021 4:30:00 PM 5.94 42.692 0.028 6.63 3282.24 12.35
3/20/2021 4:45:00 PM 5.93 42.674 0.028 6.62 3282.51 12.34
3/20/2021 5:00:00 PM 5.92 42.656 0.028 6.62 3285.67 12.34
3/20/2021 5:15:00 PM 5.91 42.638 0.028 6.61 3288.84 12.32
3/20/2021 5:30:00 PM 5.89 42.602 0.028 6.61 3262.42 12.32
3/20/2021 5:45:00 PM 5.87 42.566 0.028 6.6 3240.58 12.32
3/20/2021 6:00:00 PM 5.84 42.512 0.028 6.6 3242.61 12.31
3/20/2021 6:15:00 PM 5.82 42.476 0.029 6.59 3239.42 12.31
3/20/2021 6:30:00 PM 5.79 42.422 0.029 6.58 3271.02 12.3
3/20/2021 6:45:00 PM 5.75 42.35 0.029 6.57 3270.76 12.31
3/20/2021 7:00:00 PM 5.7 42.26 0.029 6.57 3268.31 12.31
3/20/2021 7:15:00 PM 5.65 42.17 0.029 6.56 3264.28 12.32
3/20/2021 7:30:00 PM 5.6 42.08 0.029 6.55 3262.14 12.32
3/20/2021 7:45:00 PM 5.55 41.99 0.029 6.55 3267.58 12.33
3/20/2021 8:00:00 PM 5.48 41.864 0.029 6.54 3260.26 12.35
3/20/2021 8:15:00 PM 5.41 41.738 0.029 6.54 3258.93 12.37
3/20/2021 8:30:00 PM 5.35 41.63 0.029 6.53 3255.57 12.39
3/20/2021 8:45:00 PM 5.29 41.522 0.029 6.53 3256.87 12.4
3/20/2021 9:00:00 PM 5.23 41.414 0.029 6.53 3249.09 12.43
3/20/2021 9:15:00 PM 5.16 41.288 0.029 6.53 3251.09 12.45
3/20/2021 9:30:00 PM 5.1 41.18 0.029 6.54 3248.41 12.48
3/20/2021 9:45:00 PM 5.04 41.072 0.029 6.54 3247.83 12.5
3/20/2021 10:00:00 PM 4.98 40.964 0.029 6.53 3244.98 12.52
3/20/2021 10:15:00 PM 4.92 40.856 0.029 6.53 3242.51 12.54
3/20/2021 10:30:00 PM 4.86 40.748 0.029 6.53 3240.5 12.57
3/20/2021 10:45:00 PM 4.81 40.658 0.029 6.53 3239.93 12.58
3/20/2021 11:00:00 PM 4.75 40.55 0.029 6.53 3238.39 12.61
3/20/2021 11:15:00 PM 4.69 40.442 0.029 6.52 3237.38 12.63
3/20/2021 11:30:00 PM 4.63 40.334 0.029 6.52 3209.35 12.65
3/20/2021 11:45:00 PM 4.58 40.244 0.029 6.52 3209.56 12.66
3/21/2021 12:00:00 AM 4.53 40.154 0.029 6.52 3214.26 12.68
3/21/2021 12:15:00 AM 4.47 40.046 0.029 6.52 3212.26 12.71
3/21/2021 12:30:00 AM 4.41 39.938 0.029 6.52 3210.45 12.73
3/21/2021 12:45:00 AM 4.36 39.848 0.029 6.52 3210.96 12.74
3/21/2021 1:00:00 AM 4.31 39.758 0.029 6.51 3210.43 12.76
3/21/2021 1:15:00 AM 4.26 39.668 0.029 6.52 3210.65 12.78
3/21/2021 1:30:00 AM 4.22 39.596 0.029 6.52 3208.43 12.8
3/21/2021 1:45:00 AM 4.17 39.506 0.029 6.52 3206.99 12.82
3/21/2021 2:00:00 AM 4.12 39.416 0.029 6.52 3203.73 12.83
3/21/2021 2:15:00 AM 4.08 39.344 0.029 6.52 3202.69 12.85
3/21/2021 2:30:00 AM 4.05 39.29 0.029 6.52 3204.02 12.86
3/21/2021 2:45:00 AM 4.02 39.236 0.029 6.52 3203.21 12.87
3/21/2021 3:00:00 AM 3.97 39.146 0.029 6.52 3201.35 12.89
3/21/2021 3:15:00 AM 3.93 39.074 0.029 6.51 3196.55 12.9
3/21/2021 3:30:00 AM 3.88 38.984 0.029 6.51 3197.81 12.92
3/21/2021 3:45:00 AM 3.84 38.912 0.029 6.51 3196.73 12.94
3/21/2021 4:00:00 AM 3.8 38.84 0.029 6.52 3198.01 12.94
3/21/2021 4:15:00 AM 3.76 38.768 0.029 6.51 3195.3 12.96
3/21/2021 4:30:00 AM 3.72 38.696 0.029 6.51 3196.25 12.98
3/21/2021 4:45:00 AM 3.69 38.642 0.029 6.51 3197.19 12.99
3/21/2021 5:00:00 AM 3.66 38.588 0.029 6.52 3198.51 13
3/21/2021 5:15:00 AM 3.63 38.534 0.029 6.51 3198.48 13.02
3/21/2021 5:30:00 AM 3.59 38.462 0.029 6.51 3198.33 13.03
3/21/2021 5:45:00 AM 3.56 38.408 0.029 6.51 3194.69 13.04
3/21/2021 6:00:00 AM 3.52 38.336 0.029 6.51 3190.23 13.06
3/21/2021 6:15:00 AM 3.49 38.282 0.029 6.51 3191.48 13.07
3/21/2021 6:30:00 AM 3.45 38.21 0.029 6.51 3189.88 13.09
3/21/2021 6:45:00 AM 3.42 38.156 0.029 6.51 3162.92 13.1
3/21/2021 7:00:00 AM 3.4 38.12 0.029 6.51 3152.48 13.11
3/21/2021 7:15:00 AM 3.37 38.066 0.029 6.51 3142.54 13.13
3/21/2021 7:30:00 AM 3.34 38.012 0.029 6.51 3133.72 13.15
3/21/2021 7:45:00 AM 3.31 37.958 0.029 6.52 3131.56 13.17
3/21/2021 8:00:00 AM 3.29 37.922 0.029 6.52 3132.24 13.2
3/21/2021 8:15:00 AM 3.27 37.886 0.029 6.53 3206.02 13.22
3/21/2021 8:30:00 AM 3.25 37.85 0.029 6.53 3208.05 13.24
3/21/2021 8:45:00 AM 3.24 37.832 0.029 6.54 3208.35 13.25
3/21/2021 9:00:00 AM 3.24 37.832 0.029 6.54 3210.42 13.26
3/21/2021 9:15:00 AM 3.26 37.868 0.029 6.55 3141.92 13.28
3/21/2021 9:30:00 AM 3.3 37.94 0.029 6.56 3144.35 13.29
3/21/2021 9:45:00 AM 3.35 38.03 0.029 6.57 3148.12 13.28
3/21/2021 10:00:00 AM 3.42 38.156 0.029 6.58 3151.24 13.27
3/21/2021 10:15:00 AM 3.52 38.336 0.029 6.59 3156.98 13.26
3/21/2021 10:30:00 AM 3.64 38.552 0.029 6.6 3154.69 13.22
3/21/2021 10:45:00 AM 3.79 38.822 0.029 6.6 3161.18 13.18
3/21/2021 11:00:00 AM 3.96 39.128 0.029 6.61 3156.4 13.12
3/21/2021 11:15:00 AM 4.14 39.452 0.028 6.62 3164.17 13.07
3/21/2021 11:30:00 AM 4.34 39.812 0.028 6.62 3176.87 13
3/21/2021 11:45:00 AM 4.55 40.19 0.028 6.62 3182.55 12.93
3/21/2021 12:00:00 PM 4.77 40.586 0.028 6.63 3189.08 12.85
3/21/2021 12:15:00 PM 4.98 40.964 0.028 6.63 3192.51 12.78
3/21/2021 12:30:00 PM 5.2 41.36 0.028 6.63 3200.23 12.71
3/21/2021 12:45:00 PM 5.41 41.738 0.028 6.64 3227.71 12.63
3/21/2021 1:00:00 PM 5.62 42.116 0.028 6.63 3246.92 12.56
3/21/2021 1:15:00 PM 5.82 42.476 0.028 6.64 3265.52 12.5
3/21/2021 1:30:00 PM 6.02 42.836 0.028 6.64 3267.35 12.43
3/21/2021 1:45:00 PM 6.21 43.178 0.028 6.64 3270.28 12.36
3/21/2021 2:00:00 PM 6.38 43.484 0.028 6.64 3274.29 12.3
3/21/2021 2:15:00 PM 6.52 43.736 0.028 6.64 3286.79 12.24
3/21/2021 2:30:00 PM 6.63 43.934 0.028 6.64 3293.06 12.2
3/21/2021 2:45:00 PM 6.71 44.078 0.028 6.64 3266.09 12.17
3/21/2021 3:00:00 PM 6.77 44.186 0.028 6.63 3271.55 12.14
3/21/2021 3:15:00 PM 6.79 44.222 0.028 6.63 3256.18 12.12
3/21/2021 3:30:00 PM 6.81 44.258 0.028 6.63 3256.45 12.09
3/21/2021 3:45:00 PM 6.82 44.276 0.028 6.64 3260.51 12.09
3/21/2021 4:00:00 PM 6.83 44.294 0.028 6.63 3259.58 12.07
3/21/2021 4:15:00 PM 6.84 44.312 0.028 6.63 3260.51 12.06
3/21/2021 4:30:00 PM 6.85 44.33 0.028 6.63 3258.98 12.04
3/21/2021 4:45:00 PM 6.84 44.312 0.028 6.62 3258.77 12.03
3/21/2021 5:00:00 PM 6.83 44.294 0.028 6.62 3258.86 12.02
3/21/2021 5:15:00 PM 6.81 44.258 0.028 6.61 3257.41 12.01
3/21/2021 5:30:00 PM 6.78 44.204 0.028 6.6 3254.55 12.01
3/21/2021 5:45:00 PM 6.76 44.168 0.028 6.59 3255.12 12
3/21/2021 6:00:00 PM 6.73 44.114 0.028 6.59 3252.41 12
3/21/2021 6:15:00 PM 6.7 44.06 0.028 6.58 3253.45 12
3/21/2021 6:30:00 PM 6.67 44.006 0.028 6.58 3251.48 11.99
3/21/2021 6:45:00 PM 6.63 43.934 0.028 6.57 3252.34 12
3/21/2021 7:00:00 PM 6.58 43.844 0.028 6.56 3251.2 11.99
3/21/2021 7:15:00 PM 6.53 43.754 0.028 6.55 3253.38 12
3/21/2021 7:30:00 PM 6.49 43.682 0.028 6.54 3255.36 12
3/21/2021 7:45:00 PM 6.43 43.574 0.028 6.54 3250.36 12.01
3/21/2021 8:00:00 PM 6.35 43.43 0.028 6.53 3246.57 12.03
3/21/2021 8:15:00 PM 6.27 43.286 0.028 6.53 3244.35 12.05
3/21/2021 8:30:00 PM 6.19 43.142 0.028 6.53 3241.03 12.07
3/21/2021 8:45:00 PM 6.12 43.016 0.028 6.53 3229.84 12.1
3/21/2021 9:00:00 PM 6.06 42.908 0.028 6.52 2999.48 12.12
3/21/2021 9:15:00 PM 5.99 42.782 0.028 6.52 3123.95 12.14
3/21/2021 9:30:00 PM 5.92 42.656 0.028 6.52 3147.37 12.17
3/21/2021 9:45:00 PM 5.84 42.512 0.028 6.52 3158.32 12.19
3/21/2021 10:00:00 PM 5.77 42.386 0.028 6.52 3137.41 12.22
3/21/2021 10:15:00 PM 5.7 42.26 0.028 6.52 3136.73 12.24
3/21/2021 10:30:00 PM 5.62 42.116 0.028 6.51 3136.3 12.26
3/21/2021 10:45:00 PM 5.56 42.008 0.028 6.52 3137.34 12.28
3/21/2021 11:00:00 PM 5.5 41.9 0.028 6.52 3139.28 12.3
3/21/2021 11:15:00 PM 5.43 41.774 0.028 6.51 3142.64 12.32
3/21/2021 11:30:00 PM 5.36 41.648 0.028 6.51 3141.72 12.35
3/21/2021 11:45:00 PM 5.29 41.522 0.028 6.51 3142.85 12.37
3/22/2021 12:00:00 AM 5.23 41.414 0.028 6.51 3142.59 12.4
3/22/2021 12:15:00 AM 5.17 41.306 0.028 6.51 3144 12.42
3/22/2021 12:30:00 AM 5.11 41.198 0.028 6.51 3145.01 12.43
3/22/2021 12:45:00 AM 5.06 41.108 0.028 6.51 3145.95 12.45
3/22/2021 1:00:00 AM 4.99 40.982 0.028 6.51 3144.78 12.48
3/22/2021 1:15:00 AM 4.93 40.874 0.028 6.51 3147.22 12.5
3/22/2021 1:30:00 AM 4.87 40.766 0.028 6.51 3147.52 12.52
3/22/2021 1:45:00 AM 4.82 40.676 0.028 6.51 3149.91 12.54
3/22/2021 2:00:00 AM 4.77 40.586 0.028 6.51 3155.32 12.55
3/22/2021 2:15:00 AM 4.73 40.514 0.028 6.51 3157.3 12.56
3/22/2021 2:30:00 AM 4.68 40.424 0.028 6.51 3159.37 12.58
3/22/2021 2:45:00 AM 4.63 40.334 0.028 6.51 3160.8 12.6
3/22/2021 3:00:00 AM 4.58 40.244 0.028 6.51 3162.83 12.62
3/22/2021 3:15:00 AM 4.53 40.154 0.028 6.51 3163.98 12.63
3/22/2021 3:30:00 AM 4.49 40.082 0.028 6.51 3163.05 12.65
3/22/2021 3:45:00 AM 4.45 40.01 0.028 6.51 3161.37 12.66
3/22/2021 4:00:00 AM 4.4 39.92 0.028 6.51 3161.37 12.68
3/22/2021 4:15:00 AM 4.35 39.83 0.028 6.5 3161.05 12.7
3/22/2021 4:30:00 AM 4.31 39.758 0.028 6.51 3162.58 12.71
3/22/2021 4:45:00 AM 4.27 39.686 0.028 6.51 3160.34 12.72
3/22/2021 5:00:00 AM 4.23 39.614 0.028 6.5 3160.73 12.74
3/22/2021 5:15:00 AM 4.19 39.542 0.028 6.5 3163.5 12.75
3/22/2021 5:30:00 AM 4.16 39.488 0.028 6.5 3163.2 12.77
3/22/2021 5:45:00 AM 4.13 39.434 0.028 6.5 3162.97 12.77
3/22/2021 6:00:00 AM 4.09 39.362 0.028 6.5 3162.77 12.79
3/22/2021 6:15:00 AM 4.05 39.29 0.028 6.5 3163.34 12.81
3/22/2021 6:30:00 AM 4.02 39.236 0.028 6.5 3162.79 12.82
3/22/2021 6:45:00 AM 3.98 39.164 0.028 6.5 3165.12 12.84
3/22/2021 7:00:00 AM 3.95 39.11 0.028 6.5 3169.61 12.85
3/22/2021 7:15:00 AM 3.92 39.056 0.028 6.5 3169.8 12.86
3/22/2021 7:30:00 AM 3.9 39.02 0.028 6.51 3170.71 12.88
3/22/2021 7:45:00 AM 3.87 38.966 0.028 6.51 3172.1 12.91
3/22/2021 8:00:00 AM 3.85 38.93 0.028 6.51 3173.99 12.93
3/22/2021 8:15:00 AM 3.82 38.876 0.028 6.52 3174.35 12.95
3/22/2021 8:30:00 AM 3.81 38.858 0.028 6.53 3176.51 12.97
3/22/2021 8:45:00 AM 3.79 38.822 0.028 6.53 3176.1 12.99
3/22/2021 9:00:00 AM 3.79 38.822 0.028 6.54 3175.22 13.01
3/22/2021 9:15:00 AM 3.81 38.858 0.028 6.55 3176.29 13.02
3/22/2021 9:30:00 AM 3.85 38.93 0.028 6.56 3175.19 13.03
3/22/2021 9:45:00 AM 3.89 39.002 0.028 6.57 3175.85 13.02
3/22/2021 10:00:00 AM 3.97 39.146 0.028 6.58 3176.32 13.02
3/22/2021 10:15:00 AM 4.06 39.308 0.028 6.58 3177.42 12.99
3/22/2021 10:30:00 AM 4.19 39.542 0.028 6.59 3179.43 12.96
3/22/2021 10:45:00 AM 4.34 39.812 0.028 6.6 3178.68 12.92
3/22/2021 11:00:00 AM 4.51 40.118 0.028 6.6 3178.97 12.87
3/22/2021 11:15:00 AM 4.69 40.442 0.028 6.61 3182.49 12.81
3/22/2021 11:30:00 AM 4.89 40.802 0.028 6.62 3185.52 12.74
3/22/2021 11:45:00 AM 5.11 41.198 0.028 6.62 3192.85 12.67
3/22/2021 12:00:00 PM 5.32 41.576 0.028 6.63 3203.32 12.59
3/22/2021 12:15:00 PM 5.53 41.954 0.028 6.64 3210.83 12.53
3/22/2021 12:30:00 PM 5.75 42.35 0.028 6.64 3199.45 12.46
3/22/2021 12:45:00 PM 5.96 42.728 0.028 6.64 3202.92 12.39
3/22/2021 1:00:00 PM 6.16 43.088 0.028 6.64 3203.3 12.32
3/22/2021 1:15:00 PM 6.37 43.466 0.028 6.64 3206.48 12.25
3/22/2021 1:30:00 PM 6.56 43.808 0.028 6.64 3206.94 12.19
3/22/2021 1:45:00 PM 6.73 44.114 0.028 6.63 3205.26 12.13
3/22/2021 2:00:00 PM 6.89 44.402 0.028 6.63 3200.44 12.07
3/22/2021 2:15:00 PM 7.02 44.636 0.028 6.63 3199.44 12.03
3/22/2021 2:30:00 PM 7.11 44.798 0.028 6.63 3196.42 11.99
3/22/2021 2:45:00 PM 7.18 44.924 0.028 6.63 3194.95 11.96
3/22/2021 3:00:00 PM 7.23 45.014 0.028 6.64 3194.38 11.93
3/22/2021 3:15:00 PM 7.26 45.068 0.028 6.63 3196.95 11.91
3/22/2021 3:30:00 PM 7.28 45.104 0.028 6.63 3195.87 11.89
3/22/2021 3:45:00 PM 7.29 45.122 0.028 6.63 3197.32 11.87
3/22/2021 4:00:00 PM 7.29 45.122 0.028 6.63 3199.39 11.86
3/22/2021 4:15:00 PM 7.28 45.104 0.028 6.62 3198.87 11.85
3/22/2021 4:30:00 PM 7.29 45.122 0.028 6.62 3198.62 11.85
3/22/2021 4:45:00 PM 7.27 45.086 0.028 6.62 3197.84 11.84
3/22/2021 5:00:00 PM 7.26 45.068 0.028 6.62 3199.31 11.83
3/22/2021 5:15:00 PM 7.25 45.05 0.028 6.61 3199.92 11.82
3/22/2021 5:30:00 PM 7.23 45.014 0.028 6.61 3199.62 11.81
3/22/2021 5:45:00 PM 7.2 44.96 0.028 6.6 3201.3 11.8
3/22/2021 6:00:00 PM 7.17 44.906 0.028 6.59 3199.41 11.8
3/22/2021 6:15:00 PM 7.14 44.852 0.028 6.59 3197.35 11.8
3/22/2021 6:30:00 PM 7.1 44.78 0.028 6.58 3195.92 11.79
3/22/2021 6:45:00 PM 7.07 44.726 0.028 6.58 3194.21 11.79
3/22/2021 7:00:00 PM 7.02 44.636 0.028 6.57 3195.24 11.79
3/22/2021 7:15:00 PM 6.98 44.564 0.028 6.56 3193.53 11.79
3/22/2021 7:30:00 PM 6.94 44.492 0.028 6.54 3193.31 11.8
3/22/2021 7:45:00 PM 6.89 44.402 0.028 6.53 3194.25 11.79
3/22/2021 8:00:00 PM 6.82 44.276 0.028 6.53 3193.08 11.81
3/22/2021 8:15:00 PM 6.74 44.132 0.028 6.53 3193.68 11.83
3/22/2021 8:30:00 PM 6.67 44.006 0.028 6.52 3196.61 11.86
3/22/2021 8:45:00 PM 6.59 43.862 0.028 6.52 3194.26 11.88
3/22/2021 9:00:00 PM 6.52 43.736 0.028 6.52 3192.6 11.9
3/22/2021 9:15:00 PM 6.44 43.592 0.028 6.52 3207.17 11.93
3/22/2021 9:30:00 PM 6.37 43.466 0.028 6.52 3205.87 11.95
3/22/2021 9:45:00 PM 6.3 43.34 0.028 6.52 3206.52 11.98
3/22/2021 10:00:00 PM 6.23 43.214 0.028 6.52 3206.85 12
3/22/2021 10:15:00 PM 6.17 43.106 0.028 6.52 3210.12 12.01
3/22/2021 10:30:00 PM 6.1 42.98 0.028 6.52 3212.58 12.04
3/22/2021 10:45:00 PM 6.03 42.854 0.028 6.51 3215.22 12.06
3/22/2021 11:00:00 PM 5.95 42.71 0.028 6.51 3215 12.09
3/22/2021 11:15:00 PM 5.87 42.566 0.028 6.51 3216.84 12.12
3/22/2021 11:30:00 PM 5.79 42.422 0.028 6.51 3216.74 12.15
3/22/2021 11:45:00 PM 5.73 42.314 0.028 6.51 3216.15 12.17
3/23/2021 12:00:00 AM 5.66 42.188 0.028 6.51 3216.93 12.19
3/23/2021 12:15:00 AM 5.6 42.08 0.028 6.51 3220.11 12.21
3/23/2021 12:30:00 AM 5.54 41.972 0.028 6.51 3218.04 12.24
3/23/2021 12:45:00 AM 5.47 41.846 0.028 6.51 3215.45 12.26
3/23/2021 1:00:00 AM 5.4 41.72 0.028 6.51 3213.84 12.28
3/23/2021 1:15:00 AM 5.35 41.63 0.028 6.51 3207.75 12.3
3/23/2021 1:30:00 AM 5.29 41.522 0.028 6.51 3204.69 12.32
3/23/2021 1:45:00 AM 5.22 41.396 0.028 6.51 3204.36 12.34
3/23/2021 2:00:00 AM 5.16 41.288 0.028 6.51 3199.32 12.36
3/23/2021 2:15:00 AM 5.1 41.18 0.028 6.51 3196.49 12.38
3/23/2021 2:30:00 AM 5.05 41.09 0.028 6.51 3191.94 12.4
3/23/2021 2:45:00 AM 5.01 41.018 0.028 6.51 3192.06 12.41
3/23/2021 3:00:00 AM 4.96 40.928 0.028 6.51 3190.08 12.43
3/23/2021 3:15:00 AM 4.91 40.838 0.028 6.51 3190.9 12.45
3/23/2021 3:30:00 AM 4.87 40.766 0.028 6.51 3188.24 12.46
3/23/2021 3:45:00 AM 4.83 40.694 0.028 6.5 3184.49 12.47
3/23/2021 4:00:00 AM 4.79 40.622 0.028 6.51 3180.11 12.49
3/23/2021 4:15:00 AM 4.74 40.532 0.028 6.5 3179.8 12.51
3/23/2021 4:30:00 AM 4.69 40.442 0.028 6.5 3191.26 12.52
3/23/2021 4:45:00 AM 4.65 40.37 0.028 6.51 3193.08 12.54
3/23/2021 5:00:00 AM 4.61 40.298 0.028 6.51 3192.03 12.55
3/23/2021 5:15:00 AM 4.57 40.226 0.028 6.51 3190.61 12.57
3/23/2021 5:30:00 AM 4.53 40.154 0.028 6.51 3186.94 12.58
3/23/2021 5:45:00 AM 4.48 40.064 0.028 6.5 3185.13 12.6
3/23/2021 6:00:00 AM 4.45 40.01 0.028 6.5 3185.56 12.61
3/23/2021 6:15:00 AM 4.43 39.974 0.028 6.51 3187.24 12.62
3/23/2021 6:30:00 AM 4.4 39.92 0.028 6.51 3188.16 12.63
3/23/2021 6:45:00 AM 4.36 39.848 0.028 6.5 3188.13 12.64
3/23/2021 7:00:00 AM 4.32 39.776 0.028 6.5 3187.58 12.66
3/23/2021 7:15:00 AM 4.28 39.704 0.028 6.51 3191.97 12.68
3/23/2021 7:30:00 AM 4.25 39.65 0.028 6.51 3188.46 12.7
3/23/2021 7:45:00 AM 4.23 39.614 0.028 6.52 3188.23 12.73
3/23/2021 8:00:00 AM 4.2 39.56 0.028 6.52 3189.52 12.76
3/23/2021 8:15:00 AM 4.18 39.524 0.028 6.53 3188.5 12.78
3/23/2021 8:30:00 AM 4.16 39.488 0.028 6.54 3190.08 12.8
3/23/2021 8:45:00 AM 4.15 39.47 0.028 6.54 3189.25 12.82
3/23/2021 9:00:00 AM 4.16 39.488 0.028 6.55 3187.88 12.84
3/23/2021 9:15:00 AM 4.19 39.542 0.028 6.56 3186.16 12.85
3/23/2021 9:30:00 AM 4.23 39.614 0.028 6.57 3184.35 12.85
3/23/2021 9:45:00 AM 4.28 39.704 0.028 6.58 3184.15 12.85
3/23/2021 10:00:00 AM 4.35 39.83 0.028 6.59 3187.21 12.84
3/23/2021 10:15:00 AM 4.45 40.01 0.028 6.6 3190.26 12.82
3/23/2021 10:30:00 AM 4.58 40.244 0.028 6.6 3192.12 12.79
3/23/2021 10:45:00 AM 4.73 40.514 0.028 6.61 3195.92 12.74
3/23/2021 11:00:00 AM 4.9 40.82 0.028 6.62 3199.81 12.7
3/23/2021 11:15:00 AM 5.09 41.162 0.028 6.63 3202.2 12.64
3/23/2021 11:30:00 AM 5.29 41.522 0.027 6.63 3205.29 12.57
3/23/2021 11:45:00 AM 5.48 41.864 0.027 6.64 3207.91 12.51
3/23/2021 12:00:00 PM 5.67 42.206 0.027 6.64 3206.32 12.46
3/23/2021 12:15:00 PM 5.86 42.548 0.027 6.64 3211.01 12.39
3/23/2021 12:30:00 PM 6.08 42.944 0.027 6.65 3216.56 12.33
3/23/2021 12:45:00 PM 6.27 43.286 0.027 6.64 3220.14 12.27
3/23/2021 1:00:00 PM 6.44 43.592 0.027 6.65 3223.74 12.21
3/23/2021 1:15:00 PM 6.59 43.862 0.027 6.65 3225.92 12.16
3/23/2021 1:30:00 PM 6.76 44.168 0.027 6.65 3224.68 12.11
3/23/2021 1:45:00 PM 6.9 44.42 0.027 6.65 3216.16 12.06
3/23/2021 2:00:00 PM 7.05 44.69 0.027 6.65 3235.91 12.01
3/23/2021 2:15:00 PM 7.14 44.852 0.027 6.65 3240.74 11.97
3/23/2021 2:30:00 PM 7.19 44.942 0.027 6.65 3197.98 11.93
3/23/2021 2:45:00 PM 7.22 44.996 0.027 6.65 3238.12 11.91
3/23/2021 3:00:00 PM 7.26 45.068 0.027 6.65 3172.97 11.9
3/23/2021 3:15:00 PM 7.32 45.176 0.027 6.65 3218.97 11.88
3/23/2021 3:30:00 PM 7.36 45.248 0.027 6.65 3213.04 11.86
3/23/2021 3:45:00 PM 7.37 45.266 0.027 6.65 3213.98 11.85
3/23/2021 4:00:00 PM 7.38 45.284 0.027 6.64 3197.73 11.83
3/23/2021 4:15:00 PM 7.39 45.302 0.027 6.64 3203.13 11.82
3/23/2021 4:30:00 PM 7.41 45.338 0.027 6.64 3195.22 11.8
3/23/2021 4:45:00 PM 7.43 45.374 0.027 6.64 3183.29 11.79
3/23/2021 5:00:00 PM 7.43 45.374 0.027 6.63 3181.47 11.77
3/23/2021 5:15:00 PM 7.42 45.356 0.027 6.63 3174.51 11.76
3/23/2021 5:30:00 PM 7.42 45.356 0.027 6.62 3175.05 11.75
3/23/2021 5:45:00 PM 7.42 45.356 0.027 6.62 3173.75 11.74
3/23/2021 6:00:00 PM 7.42 45.356 0.027 6.61 3174.15 11.74
3/23/2021 6:15:00 PM 7.4 45.32 0.027 6.61 3174.25 11.73
3/23/2021 6:30:00 PM 7.38 45.284 0.027 6.6 3174.03 11.72
3/23/2021 6:45:00 PM 7.37 45.266 0.027 6.59 3176.45 11.71
3/23/2021 7:00:00 PM 7.34 45.212 0.027 6.58 3169.41 11.69
3/23/2021 7:15:00 PM 7.31 45.158 0.027 6.57 3167.13 11.68
3/23/2021 7:30:00 PM 7.27 45.086 0.027 6.56 3164.47 11.66
3/23/2021 7:45:00 PM 7.24 45.032 0.027 6.55 3164.94 11.66
3/23/2021 8:00:00 PM 7.19 44.942 0.027 6.54 3168.05 11.67
3/23/2021 8:15:00 PM 7.14 44.852 0.027 6.54 3161.27 11.68
3/23/2021 8:30:00 PM 7.1 44.78 0.027 6.53 3158.94 11.7
3/23/2021 8:45:00 PM 7.04 44.672 0.027 6.53 3153.76 11.71
3/23/2021 9:00:00 PM 6.99 44.582 0.027 6.53 3147.25 11.73
3/23/2021 9:15:00 PM 6.94 44.492 0.027 6.53 3144.77 11.74
3/23/2021 9:30:00 PM 6.89 44.402 0.027 6.53 3139.62 11.76
3/23/2021 9:45:00 PM 6.84 44.312 0.027 6.53 3137.63 11.78
3/23/2021 10:00:00 PM 6.79 44.222 0.027 6.52 3133.93 11.79
3/23/2021 10:15:00 PM 6.73 44.114 0.027 6.52 3148.24 11.81
3/23/2021 10:30:00 PM 6.68 44.024 0.027 6.52 3147.51 11.82
3/23/2021 10:45:00 PM 6.63 43.934 0.027 6.52 3147.24 11.83
3/23/2021 11:00:00 PM 6.57 43.826 0.027 6.52 3148.05 11.86
3/23/2021 11:15:00 PM 6.52 43.736 0.027 6.52 3148.1 11.87
3/23/2021 11:30:00 PM 6.46 43.628 0.027 6.52 3146.9 11.89
3/23/2021 11:45:00 PM 6.4 43.52 0.027 6.52 3147.14 11.91
3/24/2021 12:00:00 AM 6.35 43.43 0.027 6.52 3145.16 11.93
3/24/2021 12:15:00 AM 6.3 43.34 0.027 6.52 3146.43 11.94
3/24/2021 12:30:00 AM 6.26 43.268 0.027 6.52 3144.89 11.96
3/24/2021 12:45:00 AM 6.22 43.196 0.027 6.52 3144.69 11.97
3/24/2021 1:00:00 AM 6.18 43.124 0.027 6.52 3143.41 11.99
3/24/2021 1:15:00 AM 6.15 43.07 0.027 6.52 3142.98 12
3/24/2021 1:30:00 AM 6.13 43.034 0.027 6.52 3145.35 12.01
3/24/2021 1:45:00 AM 6.12 43.016 0.027 6.53 3143.95 12.02
3/24/2021 2:00:00 AM 6.11 42.998 0.027 6.53 3145.18 12.02
3/24/2021 2:15:00 AM 6.1 42.98 0.027 6.53 3144.35 12.02
3/24/2021 2:30:00 AM 6.08 42.944 0.027 6.53 3144.91 12.02
3/24/2021 2:45:00 AM 6.07 42.926 0.027 6.53 3143.8 12.03
3/24/2021 3:00:00 AM 6.06 42.908 0.027 6.53 3142.58 12.02
3/24/2021 3:15:00 AM 6.06 42.908 0.027 6.53 3139.33 12.02
3/24/2021 3:30:00 AM 6.06 42.908 0.027 6.55 3116.33 12.02
3/24/2021 3:45:00 AM 6.05 42.89 0.027 6.56 3117.69 12.03
3/24/2021 4:00:00 AM 6.05 42.89 0.027 6.56 3110.88 12.03
3/24/2021 4:15:00 AM 6.05 42.89 0.027 6.55 3109.45 12.03
3/24/2021 4:30:00 AM 6.06 42.908 0.027 6.56 3108.42 12.02
3/24/2021 4:45:00 AM 6.06 42.908 0.027 6.56 3105.74 12.02
3/24/2021 5:00:00 AM 6.06 42.908 0.027 6.55 3102.56 12.02
3/24/2021 5:15:00 AM 6.06 42.908 0.027 6.55 3098.4 12.02
3/24/2021 5:30:00 AM 6.06 42.908 0.027 6.55 3133.22 12.01
3/24/2021 5:45:00 AM 6.07 42.926 0.027 6.54 3039.17 12.02
3/24/2021 6:00:00 AM 6.07 42.926 0.027 6.55 3093.83 12.01
3/24/2021 6:15:00 AM 6.07 42.926 0.027 6.54 3118.46 12.02
3/24/2021 6:30:00 AM 6.07 42.926 0.027 6.55 3051.14 12.01
3/24/2021 6:45:00 AM 6.08 42.944 0.027 6.55 3046.46 12.01
3/24/2021 7:00:00 AM 6.09 42.962 0.027 6.55 3099.7 12
3/24/2021 7:15:00 AM 6.09 42.962 0.027 6.54 3098.55 12
3/24/2021 7:30:00 AM 6.1 42.98 0.027 6.54 3099.23 12
3/24/2021 7:45:00 AM 6.1 42.98 0.027 6.55 3098.96 12.01
3/24/2021 8:00:00 AM 6.11 42.998 0.027 6.54 3087.93 12.01
3/24/2021 8:15:00 AM 6.11 42.998 0.026 6.54 3089.33 12.01
3/24/2021 8:30:00 AM 6.12 43.016 0.026 6.54 3089.87 12.02
3/24/2021 8:45:00 AM 6.13 43.034 0.026 6.55 3090.2 12.02
3/24/2021 9:00:00 AM 6.14 43.052 0.026 6.55 3089.8 12.02
3/24/2021 9:15:00 AM 6.15 43.07 0.026 6.55 3088.66 12.02
3/24/2021 9:30:00 AM 6.17 43.106 0.026 6.55 3087.77 12.02
3/24/2021 9:45:00 AM 6.18 43.124 0.026 6.56 3086.13 12.02
3/24/2021 10:00:00 AM 6.2 43.16 0.026 6.56 3088.63 12.02
3/24/2021 10:15:00 AM 6.22 43.196 0.026 6.62 3090.41 12.02
3/24/2021 10:30:00 AM 6.25 43.25 0.026 6.61 3090.06 12.03
3/24/2021 10:45:00 AM 6.27 43.286 0.026 6.61 3093.43 12.04
3/24/2021 11:00:00 AM 6.29 43.322 0.026 6.62 3094.04 12.03
3/24/2021 11:15:00 AM 6.31 43.358 0.026 6.63 3097.7 12.03
3/24/2021 11:30:00 AM 6.33 43.394 0.026 6.64 3093.81 12.02
3/24/2021 11:45:00 AM 6.36 43.448 0.026 6.64 3087.58 12.01
3/24/2021 12:00:00 PM 6.38 43.484 0.026 6.64 3086.64 12
3/24/2021 12:15:00 PM 6.42 43.556 0.026 6.64 3076.97 12
3/24/2021 12:30:00 PM 6.45 43.61 0.026 6.64 3075.57 11.99
3/24/2021 12:45:00 PM 6.49 43.682 0.026 6.65 3077.74 12
3/24/2021 1:00:00 PM 6.53 43.754 0.026 6.64 3070.52 11.97
3/24/2021 1:15:00 PM 6.57 43.826 0.026 6.64 3073.09 11.96
3/24/2021 1:30:00 PM 6.61 43.898 0.026 6.64 3066.14 11.95
3/24/2021 1:45:00 PM 6.64 43.952 0.025 6.63 3065.13 11.93
3/24/2021 2:00:00 PM 6.67 44.006 0.025 6.63 3065.72 11.93
3/24/2021 2:15:00 PM 6.69 44.042 0.025 6.63 3065.48 11.92
3/24/2021 2:30:00 PM 6.71 44.078 0.025 6.63 3066.7 11.9
3/24/2021 2:45:00 PM 6.71 44.078 0.025 6.62 3072.9 11.9
3/24/2021 3:00:00 PM 6.72 44.096 0.025 6.62 3070.7 11.89
3/24/2021 3:15:00 PM 6.72 44.096 0.025 6.61 3068.6 11.88
3/24/2021 3:30:00 PM 6.72 44.096 0.025 6.61 3068.03 11.87
3/24/2021 3:45:00 PM 6.73 44.114 0.025 6.61 3063.72 11.87
3/24/2021 4:00:00 PM 6.76 44.168 0.025 6.6 3059.77 11.86
3/24/2021 4:15:00 PM 6.78 44.204 0.025 6.61 3052.31 11.86
3/24/2021 4:30:00 PM 6.82 44.276 0.025 6.62 3055.13 11.86
3/24/2021 4:45:00 PM 6.86 44.348 0.025 6.62 3055.57 11.85
3/24/2021 5:00:00 PM 6.9 44.42 0.025 6.62 3050.15 11.83
3/24/2021 5:15:00 PM 6.92 44.456 0.025 6.61 3047.62 11.81
3/24/2021 5:30:00 PM 6.94 44.492 0.025 6.6 3041.82 11.79
3/24/2021 5:45:00 PM 6.94 44.492 0.025 6.6 3027.01 11.78
3/24/2021 6:00:00 PM 6.95 44.51 0.025 6.59 2991.31 11.77
3/24/2021 6:15:00 PM 6.94 44.492 0.025 6.58 2972.76 11.77
3/24/2021 6:30:00 PM 6.94 44.492 0.025 6.58 2954.55 11.76
3/24/2021 6:45:00 PM 6.95 44.51 0.025 6.57 2936.16 11.75
3/24/2021 7:00:00 PM 6.94 44.492 0.025 6.57 2954.83 11.74
3/24/2021 7:15:00 PM 6.94 44.492 0.025 6.57 2952.69 11.73
3/24/2021 7:30:00 PM 6.94 44.492 0.025 6.56 2946.24 11.72
3/24/2021 7:45:00 PM 6.93 44.474 0.025 6.55 2937.36 11.71
3/24/2021 8:00:00 PM 6.91 44.438 0.025 6.54 2937.69 11.71
3/24/2021 8:15:00 PM 6.91 44.438 0.025 6.54 2940.66 11.71
3/24/2021 8:30:00 PM 6.9 44.42 0.025 6.53 2940.32 11.71
3/24/2021 8:45:00 PM 6.89 44.402 0.025 6.53 2943.21 11.72
3/24/2021 9:00:00 PM 6.89 44.402 0.025 6.52 2942.26 11.72
3/24/2021 9:15:00 PM 6.87 44.366 0.025 6.51 2934.71 11.72
3/24/2021 9:30:00 PM 6.86 44.348 0.024 6.51 2857.2 11.73
3/24/2021 9:45:00 PM 6.86 44.348 0.024 6.51 2813.19 11.73
3/24/2021 10:00:00 PM 6.85 44.33 0.024 6.5 2804.89 11.73
3/24/2021 10:15:00 PM 6.84 44.312 0.024 6.5 2748.27 11.73
3/24/2021 10:30:00 PM 6.84 44.312 0.024 6.5 2702.23 11.74
3/24/2021 10:45:00 PM 6.83 44.294 0.024 6.5 2644.55 11.74
3/24/2021 11:00:00 PM 6.82 44.276 0.024 6.49 2639.96 11.74
3/24/2021 11:15:00 PM 6.81 44.258 0.024 6.49 2638.54 11.74
3/24/2021 11:30:00 PM 6.81 44.258 0.024 6.49 2626.7 11.75
3/24/2021 11:45:00 PM 6.8 44.24 0.024 6.49 2516.21 11.75
3/25/2021 12:00:00 AM 6.79 44.222 0.024 6.49 2475.76 11.75
3/25/2021 12:15:00 AM 6.78 44.204 0.024 6.48 2474.43 11.76
3/25/2021 12:30:00 AM 6.77 44.186 0.024 6.48 2471.8 11.76
3/25/2021 12:45:00 AM 6.77 44.186 0.024 6.48 2449.29 11.76
3/25/2021 1:00:00 AM 6.77 44.186 0.024 6.49 2437.88 11.76
3/25/2021 1:15:00 AM 6.77 44.186 0.024 6.48 2312.7 11.76
3/25/2021 1:30:00 AM 6.76 44.168 0.024 6.48 2258.91 11.77
3/25/2021 1:45:00 AM 6.76 44.168 0.024 6.48 2210.33 11.77
3/25/2021 2:00:00 AM 6.76 44.168 0.024 6.48 2187.35 11.76
3/25/2021 2:15:00 AM 6.76 44.168 0.024 6.47 2174.76 11.76
3/25/2021 2:30:00 AM 6.76 44.168 0.024 6.48 2152.1 11.76
3/25/2021 2:45:00 AM 6.77 44.186 0.024 6.48 1596.89 11.76
3/25/2021 3:00:00 AM 6.77 44.186 0.024 6.47 1595.36 11.75
3/25/2021 3:15:00 AM 6.78 44.204 0.024 6.48 1565.22 11.75
3/25/2021 3:30:00 AM 6.78 44.204 0.024 6.47 1559.68 11.76
3/25/2021 3:45:00 AM 6.78 44.204 0.024 6.47 1561.3 11.75
3/25/2021 4:00:00 AM 6.78 44.204 0.024 6.47 1556.77 11.75
3/25/2021 4:15:00 AM 6.78 44.204 0.024 6.47 1552.98 11.75
3/25/2021 4:30:00 AM 6.78 44.204 0.024 6.47 1548.8 11.76
3/25/2021 4:45:00 AM 6.78 44.204 0.024 6.47 1556.15 11.76
3/25/2021 5:00:00 AM 6.78 44.204 0.024 6.47 1546.54 11.76
3/25/2021 5:15:00 AM 6.77 44.186 0.024 6.47 1504.46 11.76
3/25/2021 5:30:00 AM 6.77 44.186 0.024 6.47 1439.27 11.76
3/25/2021 5:45:00 AM 6.77 44.186 0.024 6.47 1155.87 11.77
3/25/2021 6:00:00 AM 6.76 44.168 0.024 6.47 1111.61 11.77
3/25/2021 6:15:00 AM 6.75 44.15 0.024 6.46 1103.05 11.77
3/25/2021 6:30:00 AM 6.75 44.15 0.024 6.47 1057.73 11.78
3/25/2021 6:45:00 AM 6.75 44.15 0.024 6.46 1008.15 11.77
3/25/2021 7:00:00 AM 6.75 44.15 0.024 6.46 958.71 11.77
3/25/2021 7:15:00 AM 6.74 44.132 0.023 6.47 947.65 11.78
3/25/2021 7:30:00 AM 6.74 44.132 0.023 6.46 942.36 11.8
3/25/2021 7:45:00 AM 6.74 44.132 0.023 6.46 935.39 11.81
3/25/2021 8:00:00 AM 6.74 44.132 0.023 6.46 932.75 11.82
3/25/2021 8:15:00 AM 6.75 44.15 0.023 6.47 928.84 11.83
3/25/2021 8:30:00 AM 6.76 44.168 0.023 6.47 902.48 11.85
3/25/2021 8:45:00 AM 6.77 44.186 0.023 6.48 872.73 11.86
3/25/2021 9:00:00 AM 6.79 44.222 0.023 6.49 850.92 11.88
3/25/2021 9:15:00 AM 6.81 44.258 0.023 6.49 843.78 11.88
3/25/2021 9:30:00 AM 6.84 44.312 0.023 6.5 838.62 11.89
3/25/2021 9:45:00 AM 6.88 44.384 0.023 6.52 836.8 11.9
3/25/2021 10:00:00 AM 6.93 44.474 0.023 6.53 838.49 11.89
3/25/2021 10:15:00 AM 6.97 44.546 0.023 6.54 829.35 11.88
3/25/2021 10:30:00 AM 7.02 44.636 0.023 6.56 820.12 11.88
3/25/2021 10:45:00 AM 7.07 44.726 0.023 6.58 818.33 11.87
3/25/2021 11:00:00 AM 7.14 44.852 0.023 6.59 811.92 11.86
3/25/2021 11:15:00 AM 7.23 45.014 0.023 6.61 804.42 11.84
3/25/2021 11:30:00 AM 7.32 45.176 0.023 6.6 803.27 11.81
3/25/2021 11:45:00 AM 7.44 45.392 0.023 6.61 797.02 11.79
3/25/2021 12:00:00 PM 7.51 45.518 0.023 6.6 793.05 11.77
3/25/2021 12:15:00 PM 7.58 45.644 0.023 6.59 782.39 11.75
3/25/2021 12:30:00 PM 7.67 45.806 0.022 6.6 770.94 11.73
3/25/2021 12:45:00 PM 7.86 46.148 0.022 6.61 612.48 11.69
3/25/2021 1:00:00 PM 8.01 46.418 0.023 6.61 488.62 11.64
3/25/2021 1:15:00 PM 8.16 46.688 0.023 6.61 448.66 11.6
3/25/2021 1:30:00 PM 8.37 47.066 0.023 6.62 356.54 11.53
3/25/2021 1:45:00 PM 8.5 47.3 0.023 6.62 451.18 11.49
3/25/2021 2:00:00 PM 8.64 47.552 0.023 6.63 486.52 11.45
3/25/2021 2:15:00 PM 8.74 47.732 0.023 6.62 459.95 11.41
3/25/2021 2:30:00 PM 8.84 47.912 0.023 6.62 450.76 11.38
3/25/2021 2:45:00 PM 8.93 48.074 0.023 6.62 470.39 11.34
3/25/2021 3:00:00 PM 8.98 48.164 0.023 6.63 470.51 11.32
3/25/2021 3:15:00 PM 8.99 48.182 0.023 6.63 471.41 11.31
3/25/2021 3:30:00 PM 9.04 48.272 0.023 6.62 469.86 11.29
3/25/2021 3:45:00 PM 9.07 48.326 0.023 6.62 470.38 11.26
3/25/2021 4:00:00 PM 9.08 48.344 0.023 6.62 470.24 11.25
3/25/2021 4:15:00 PM 9.09 48.362 0.023 6.61 469.96 11.24
3/25/2021 4:30:00 PM 9.09 48.362 0.023 6.6 469.97 11.24
3/25/2021 4:45:00 PM 9.11 48.398 0.023 6.6 469.26 11.22
3/25/2021 5:00:00 PM 9.11 48.398 0.023 6.6 468.03 11.21
3/25/2021 5:15:00 PM 9.1 48.38 0.023 6.59 464.9 11.19
3/25/2021 5:30:00 PM 9.11 48.398 0.023 6.58 461.37 11.18
3/25/2021 5:45:00 PM 9.09 48.362 0.023 6.58 459.54 11.17
3/25/2021 6:00:00 PM 9.07 48.326 0.023 6.57 458.2 11.16
3/25/2021 6:15:00 PM 9.04 48.272 0.023 6.57 458.65 11.16
3/25/2021 6:30:00 PM 9.01 48.218 0.023 6.6 457.91 11.15
3/25/2021 6:45:00 PM 8.98 48.164 0.023 6.6 457.31 11.14
3/25/2021 7:00:00 PM 8.95 48.11 0.023 6.59 457.28 11.13
3/25/2021 7:15:00 PM 8.91 48.038 0.023 6.57 456.05 11.12
3/25/2021 7:30:00 PM 8.85 47.93 0.024 6.55 455.88 11.12
3/25/2021 7:45:00 PM 8.81 47.858 0.024 6.54 456.17 11.12
3/25/2021 8:00:00 PM 8.77 47.786 0.024 6.53 457.25 11.13
3/25/2021 8:15:00 PM 8.74 47.732 0.024 6.54 452.29 11.14
3/25/2021 8:30:00 PM 8.71 47.678 0.024 6.54 449.01 11.15
3/25/2021 8:45:00 PM 8.67 47.606 0.024 6.54 446.77 11.16
3/25/2021 9:00:00 PM 8.65 47.57 0.024 6.55 446.1 11.17
3/25/2021 9:15:00 PM 8.64 47.552 0.023 6.56 444.12 11.17
3/25/2021 9:30:00 PM 8.63 47.534 0.023 6.56 444.91 11.17
3/25/2021 9:45:00 PM 8.61 47.498 0.023 6.55 443.94 11.18
3/25/2021 10:00:00 PM 8.59 47.462 0.023 6.56 442.51 11.18
3/25/2021 10:15:00 PM 8.59 47.462 0.023 6.56 441.07 11.18
3/25/2021 10:30:00 PM 8.57 47.426 0.023 6.55 437.71 11.18
3/25/2021 10:45:00 PM 8.56 47.408 0.023 6.55 438.81 11.18
3/25/2021 11:00:00 PM 8.52 47.336 0.023 6.55 438.92 11.19
3/25/2021 11:15:00 PM 8.5 47.3 0.023 6.56 436.29 11.2
3/25/2021 11:30:00 PM 8.49 47.282 0.023 6.56 435.54 11.2
3/25/2021 11:45:00 PM 8.46 47.228 0.023 6.57 433.41 11.2
3/26/2021 12:00:00 AM 8.45 47.21 0.023 6.56 435.29 11.2
3/26/2021 12:15:00 AM 8.45 47.21 0.023 6.56 434.8 11.2
3/26/2021 12:30:00 AM 8.43 47.174 0.023 6.56 433.52 11.2
3/26/2021 12:45:00 AM 8.42 47.156 0.023 6.56 432.92 11.2
3/26/2021 1:00:00 AM 8.42 47.156 0.023 6.56 433.55 11.2
3/26/2021 1:15:00 AM 8.41 47.138 0.023 6.56 434.12 11.2
3/26/2021 1:30:00 AM 8.41 47.138 0.023 6.56 433.23 11.2
3/26/2021 1:45:00 AM 8.41 47.138 0.023 6.56 433.19 11.19
3/26/2021 2:00:00 AM 8.4 47.12 0.023 6.56 431.23 11.19
3/26/2021 2:15:00 AM 8.39 47.102 0.023 6.56 431.33 11.19
3/26/2021 2:30:00 AM 8.38 47.084 0.023 6.56 431.85 11.2
3/26/2021 2:45:00 AM 8.37 47.066 0.023 6.55 432.74 11.2
3/26/2021 3:00:00 AM 8.35 47.03 0.023 6.56 432.85 11.2
3/26/2021 3:15:00 AM 8.33 46.994 0.023 6.55 431.68 11.2
3/26/2021 3:30:00 AM 8.33 46.994 0.023 6.56 430.84 11.21
3/26/2021 3:45:00 AM 8.34 47.012 0.023 6.56 429.3 11.2
3/26/2021 4:00:00 AM 8.32 46.976 0.023 6.56 426.32 11.2
3/26/2021 4:15:00 AM 8.31 46.958 0.023 6.56 425.11 11.19
3/26/2021 4:30:00 AM 8.3 46.94 0.023 6.56 423.55 11.19
3/26/2021 4:45:00 AM 8.3 46.94 0.023 6.57 424.64 11.18
3/26/2021 5:00:00 AM 8.3 46.94 0.023 6.57 423.91 11.18
3/26/2021 5:15:00 AM 8.31 46.958 0.023 6.57 424.54 11.18
3/26/2021 5:30:00 AM 8.31 46.958 0.023 6.57 423.7 11.17
3/26/2021 5:45:00 AM 8.32 46.976 0.023 6.57 423.81 11.17
3/26/2021 6:00:00 AM 8.32 46.976 0.023 6.57 422.54 11.17
3/26/2021 6:15:00 AM 8.34 47.012 0.023 6.58 423.1 11.16
3/26/2021 6:30:00 AM 8.35 47.03 0.023 6.58 424.15 11.16
3/26/2021 6:45:00 AM 8.34 47.012 0.023 6.58 421.11 11.15
3/26/2021 7:00:00 AM 8.36 47.048 0.023 6.58 420.2 11.15
3/26/2021 7:15:00 AM 8.38 47.084 0.023 6.58 419.82 11.15
3/26/2021 7:30:00 AM 8.38 47.084 0.023 6.58 419.57 11.15
3/26/2021 7:45:00 AM 8.4 47.12 0.023 6.58 418.82 11.15
3/26/2021 8:00:00 AM 8.42 47.156 0.023 6.59 418.36 11.17
3/26/2021 8:15:00 AM 8.43 47.174 0.023 6.6 418.68 11.17
3/26/2021 8:30:00 AM 8.45 47.21 0.023 6.61 417.44 11.18
3/26/2021 8:45:00 AM 8.48 47.264 0.023 6.61 417.99 11.2
3/26/2021 9:00:00 AM 8.5 47.3 0.023 6.62 415.93 11.2
3/26/2021 9:15:00 AM 8.54 47.372 0.023 6.63 416.59 11.2
3/26/2021 9:30:00 AM 8.59 47.462 0.023 6.64 415.73 11.21
3/26/2021 9:45:00 AM 8.67 47.606 0.023 6.65 414.05 11.2
3/26/2021 10:00:00 AM 8.75 47.75 0.023 6.66 412.14 11.19
3/26/2021 10:15:00 AM 8.82 47.876 0.023 6.66 414.29 11.17
3/26/2021 10:30:00 AM 8.87 47.966 0.022 6.65 414.22 11.15
3/26/2021 10:45:00 AM 8.94 48.092 0.023 6.66 414.85 11.15
3/26/2021 11:00:00 AM 9.04 48.272 0.023 6.68 414.41 11.13
3/26/2021 11:15:00 AM 9.12 48.416 0.023 6.68 413.44 11.12
3/26/2021 11:30:00 AM 9.14 48.452 0.023 6.69 414.36 11.1
3/26/2021 11:45:00 AM 9.19 48.542 0.023 6.69 413.53 11.09
3/26/2021 12:00:00 PM 9.28 48.704 0.023 6.7 413.59 11.08
3/26/2021 12:15:00 PM 9.33 48.794 0.023 6.7 413.8 11.06
3/26/2021 12:30:00 PM 9.41 48.938 0.023 6.71 411.39 11.05
3/26/2021 12:45:00 PM 9.5 49.1 0.023 6.72 411.76 11.03
3/26/2021 1:00:00 PM 9.56 49.208 0.023 6.72 411.62 11
3/26/2021 1:15:00 PM 9.61 49.298 0.023 6.72 411.94 10.99
3/26/2021 1:30:00 PM 9.63 49.334 0.023 6.72 409.45 10.98
3/26/2021 1:45:00 PM 9.63 49.334 0.023 6.72 409 10.98
3/26/2021 2:00:00 PM 9.64 49.352 0.023 6.72 408.87 11
3/26/2021 2:15:00 PM 9.69 49.442 0.023 6.72 408.79 10.99
3/26/2021 2:30:00 PM 9.7 49.46 0.023 6.72 410.3 11
3/26/2021 2:45:00 PM 9.71 49.478 0.023 6.72 409.43 11
3/26/2021 3:00:00 PM 9.73 49.514 0.022 6.71 406.13 10.99
3/26/2021 3:15:00 PM 9.75 49.55 0.022 6.71 406.83 10.99
3/26/2021 3:30:00 PM 9.74 49.532 0.022 6.71 406.77 10.98
3/26/2021 3:45:00 PM 9.76 49.568 0.022 6.72 407.89 10.98
3/26/2021 4:00:00 PM 9.74 49.532 0.022 6.7 408.37 10.99
3/26/2021 4:15:00 PM 9.73 49.514 0.022 6.71 409.6 10.99
3/26/2021 4:30:00 PM 9.67 49.406 0.022 6.7 407.81 11
3/26/2021 4:45:00 PM 9.63 49.334 0.022 6.69 408.41 11.01
3/26/2021 5:00:00 PM 9.59 49.262 0.022 6.69 409.82 11.02
3/26/2021 5:15:00 PM 9.55 49.19 0.022 6.69 410.25 11.03
3/26/2021 5:30:00 PM 9.5 49.1 0.022 6.68 411.34 11.03
3/26/2021 5:45:00 PM 9.45 49.01 0.022 6.68 412.48 11.04
3/26/2021 6:00:00 PM 9.39 48.902 0.022 6.67 413.32 11.06
3/26/2021 6:15:00 PM 9.32 48.776 0.022 6.66 411.52 11.06
3/26/2021 6:30:00 PM 9.26 48.668 0.022 6.66 409.58 11.07
3/26/2021 6:45:00 PM 9.2 48.56 0.022 6.65 410.1 11.07
3/26/2021 7:00:00 PM 9.13 48.434 0.022 6.64 409.46 11.08
3/26/2021 7:15:00 PM 9.06 48.308 0.022 6.63 409.62 11.09
3/26/2021 7:30:00 PM 8.99 48.182 0.022 6.62 410.45 11.1
3/26/2021 7:45:00 PM 8.92 48.056 0.023 6.62 410.95 11.11
3/26/2021 8:00:00 PM 8.86 47.948 0.023 6.61 411.42 11.12
3/26/2021 8:15:00 PM 8.8 47.84 0.023 6.6 411.56 11.14
3/26/2021 8:30:00 PM 8.74 47.732 0.023 6.61 412.91 11.16
3/26/2021 8:45:00 PM 8.68 47.624 0.023 6.61 413.82 11.18
3/26/2021 9:00:00 PM 8.63 47.534 0.023 6.61 414.99 11.19
3/26/2021 9:15:00 PM 8.57 47.426 0.023 6.61 415.16 11.22
3/26/2021 9:30:00 PM 8.52 47.336 0.023 6.61 414.89 11.23
3/26/2021 9:45:00 PM 8.47 47.246 0.023 6.61 414.58 11.25
3/26/2021 10:00:00 PM 8.42 47.156 0.023 6.61 414.24 11.26
3/26/2021 10:15:00 PM 8.38 47.084 0.023 6.61 414.34 11.28
3/26/2021 10:30:00 PM 8.33 46.994 0.023 6.61 414.18 11.29
3/26/2021 10:45:00 PM 8.28 46.904 0.023 6.61 414.81 11.31
3/26/2021 11:00:00 PM 8.25 46.85 0.023 6.61 413.55 11.32
3/26/2021 11:15:00 PM 8.19 46.742 0.023 6.6 412.32 11.34
3/26/2021 11:30:00 PM 8.15 46.67 0.023 6.6 411.71 11.35
3/26/2021 11:45:00 PM 8.11 46.598 0.023 6.61 411.58 11.36
3/27/2021 12:00:00 AM 8.06 46.508 0.023 6.6 408.53 11.38
3/27/2021 12:15:00 AM 8.03 46.454 0.023 6.6 407.8 11.39
3/27/2021 12:30:00 AM 7.98 46.364 0.023 6.59 408.49 11.4
3/27/2021 12:45:00 AM 7.93 46.274 0.023 6.59 409.74 11.41
3/27/2021 1:00:00 AM 7.88 46.184 0.023 6.58 412.21 11.42
3/27/2021 1:15:00 AM 7.82 46.076 0.023 6.58 411.38 11.44
3/27/2021 1:30:00 AM 7.77 45.986 0.023 6.58 411.69 11.45
3/27/2021 1:45:00 AM 7.71 45.878 0.023 6.58 411.02 11.48
3/27/2021 2:00:00 AM 7.66 45.788 0.023 6.58 411.64 11.49
3/27/2021 2:15:00 AM 7.62 45.716 0.023 6.58 411.33 11.51
3/27/2021 2:30:00 AM 7.59 45.662 0.023 6.58 411.76 11.52
3/27/2021 2:45:00 AM 7.55 45.59 0.023 6.58 412.3 11.54
3/27/2021 3:00:00 AM 7.52 45.536 0.023 6.58 418.52 11.54
3/27/2021 3:15:00 AM 7.5 45.5 0.022 6.58 419.72 11.55
3/27/2021 3:30:00 AM 7.48 45.464 0.023 6.58 420.05 11.56
3/27/2021 3:45:00 AM 7.46 45.428 0.023 6.58 425.89 11.56
3/27/2021 4:00:00 AM 7.44 45.392 0.023 6.58 426.3 11.57
3/27/2021 4:15:00 AM 7.41 45.338 0.023 6.57 427.25 11.58
3/27/2021 4:30:00 AM 7.39 45.302 0.023 6.58 427.69 11.58
3/27/2021 4:45:00 AM 7.38 45.284 0.023 6.58 427.53 11.59
3/27/2021 5:00:00 AM 7.36 45.248 0.023 6.58 427.5 11.6
3/27/2021 5:15:00 AM 7.33 45.194 0.023 6.57 427.39 11.6
3/27/2021 5:30:00 AM 7.31 45.158 0.023 6.57 427.41 11.61
3/27/2021 5:45:00 AM 7.29 45.122 0.023 6.57 427.28 11.62
3/27/2021 6:00:00 AM 7.27 45.086 0.023 6.57 426.82 11.62
3/27/2021 6:15:00 AM 7.26 45.068 0.023 6.57 427.02 11.63
3/27/2021 6:30:00 AM 7.23 45.014 0.023 6.57 426.54 11.63
3/27/2021 6:45:00 AM 7.21 44.978 0.023 6.58 426.18 11.64
3/27/2021 7:00:00 AM 7.18 44.924 0.023 6.57 425.94 11.65
3/27/2021 7:15:00 AM 7.15 44.87 0.023 6.57 425.93 11.67
3/27/2021 7:30:00 AM 7.13 44.834 0.023 6.57 423.68 11.69
3/27/2021 7:45:00 AM 7.1 44.78 0.023 6.58 421.88 11.72
3/27/2021 8:00:00 AM 7.08 44.744 0.023 6.58 421.98 11.74
3/27/2021 8:15:00 AM 7.06 44.708 0.023 6.57 421.24 11.76
3/27/2021 8:30:00 AM 7.03 44.654 0.023 6.59 420.75 11.78
3/27/2021 8:45:00 AM 7.01 44.618 0.023 6.59 420.59 11.8
3/27/2021 9:00:00 AM 7.01 44.618 0.023 6.61 420.68 11.81
3/27/2021 9:15:00 AM 7.03 44.654 0.023 6.62 420.57 11.83
3/27/2021 9:30:00 AM 7.06 44.708 0.022 6.63 420.38 11.84
3/27/2021 9:45:00 AM 7.11 44.798 0.022 6.63 420.06 11.83
3/27/2021 10:00:00 AM 7.19 44.942 0.022 6.65 419.94 11.83
3/27/2021 10:15:00 AM 7.27 45.086 0.022 6.67 419.21 11.81
3/27/2021 10:30:00 AM 7.35 45.23 0.022 6.66 418.41 11.79
3/27/2021 10:45:00 AM 7.45 45.41 0.022 6.69 418.53 11.77
3/27/2021 11:00:00 AM 7.53 45.554 0.022 6.7 418.27 11.74
3/27/2021 11:15:00 AM 7.62 45.716 0.022 6.71 417.25 11.72
3/27/2021 11:30:00 AM 7.75 45.95 0.022 6.72 416.85 11.7
3/27/2021 11:45:00 AM 7.96 46.328 0.022 6.73 415.08 11.66
3/27/2021 12:00:00 PM 8.07 46.526 0.022 6.73 413.04 11.62
3/27/2021 12:15:00 PM 8.14 46.652 0.022 6.73 411.77 11.6
3/27/2021 12:30:00 PM 8.21 46.778 0.022 6.72 411.95 11.57
3/27/2021 12:45:00 PM 8.43 47.174 0.022 6.73 409.68 11.52
3/27/2021 1:00:00 PM 8.66 47.588 0.022 6.75 409.26 11.44
3/27/2021 1:15:00 PM 8.85 47.93 0.022 6.73 408.44 11.38
3/27/2021 1:30:00 PM 9.04 48.272 0.022 6.74 408.17 11.33
3/27/2021 1:45:00 PM 9.18 48.524 0.022 6.73 407.58 11.29
3/27/2021 2:00:00 PM 9.27 48.686 0.022 6.73 407.33 11.26
3/27/2021 2:15:00 PM 9.34 48.812 0.022 6.73 407.06 11.24
3/27/2021 2:30:00 PM 9.35 48.83 0.022 6.73 408.83 11.22
3/27/2021 2:45:00 PM 9.4 48.92 0.022 6.74 407.57 11.21
3/27/2021 3:00:00 PM 9.45 49.01 0.022 6.74 405.85 11.2
3/27/2021 3:15:00 PM 9.49 49.082 0.022 6.74 406.1 11.17
3/27/2021 3:30:00 PM 9.49 49.082 0.022 6.73 405.93 11.16
3/27/2021 3:45:00 PM 9.5 49.1 0.022 6.73 405.65 11.16
3/27/2021 4:00:00 PM 9.49 49.082 0.022 6.73 405.59 11.15
3/27/2021 4:15:00 PM 9.48 49.064 0.022 7.02 406.44 11.15
3/27/2021 4:30:00 PM 9.47 49.046 0.022 6.8 406.06 11.14
3/27/2021 4:45:00 PM 9.47 49.046 0.022 6.77 406.69 11.13
3/27/2021 5:00:00 PM 9.48 49.064 0.022 6.76 406.24 11.13
3/27/2021 5:15:00 PM 9.46 49.028 0.022 6.75 405.58 11.12
3/27/2021 5:30:00 PM 9.46 49.028 0.022 6.73 403.8 11.11
3/27/2021 5:45:00 PM 9.45 49.01 0.022 6.73 404.14 11.11
3/27/2021 6:00:00 PM 9.43 48.974 0.022 6.73 403.66 11.1
3/27/2021 6:15:00 PM 9.41 48.938 0.022 6.72 403.63 11.1
3/27/2021 6:30:00 PM 9.39 48.902 0.022 6.71 404.19 11.08
3/27/2021 6:45:00 PM 9.34 48.812 0.022 6.7 404.4 11.07
3/27/2021 7:00:00 PM 9.31 48.758 0.022 6.68 405.78 11.07
3/27/2021 7:15:00 PM 9.25 48.65 0.022 6.67 404.67 11.06
3/27/2021 7:30:00 PM 9.2 48.56 0.022 6.66 406.62 11.05
3/27/2021 7:45:00 PM 9.15 48.47 0.022 6.64 405.4 11.05
3/27/2021 8:00:00 PM 9.1 48.38 0.022 6.64 406.9 11.06
3/27/2021 8:15:00 PM 9.04 48.272 0.022 6.63 407.15 11.07
3/27/2021 8:30:00 PM 8.98 48.164 0.022 6.62 407.69 11.08
3/27/2021 8:45:00 PM 8.92 48.056 0.022 6.62 408.11 11.09
3/27/2021 9:00:00 PM 8.87 47.966 0.022 6.61 408.59 11.11
3/27/2021 9:15:00 PM 8.81 47.858 0.022 6.61 407.78 11.12
3/27/2021 9:30:00 PM 8.75 47.75 0.022 6.6 407.42 11.14
3/27/2021 9:45:00 PM 8.69 47.642 0.022 6.61 406.68 11.16
3/27/2021 10:00:00 PM 8.64 47.552 0.022 6.61 405.52 11.17
3/27/2021 10:15:00 PM 8.59 47.462 0.022 6.6 405.42 11.18
3/27/2021 10:30:00 PM 8.53 47.354 0.023 6.59 406.84 11.2
3/27/2021 10:45:00 PM 8.47 47.246 0.022 6.6 406.94 11.21
3/27/2021 11:00:00 PM 8.41 47.138 0.022 6.6 407.83 11.23
3/27/2021 11:15:00 PM 8.36 47.048 0.023 6.61 408.13 11.24
3/27/2021 11:30:00 PM 8.31 46.958 0.023 6.61 407.89 11.26
3/27/2021 11:45:00 PM 8.25 46.85 0.022 6.6 409.3 11.27
3/28/2021 12:00:00 AM 8.2 46.76 0.022 6.6 410.51 11.29
3/28/2021 12:15:00 AM 8.14 46.652 0.022 6.6 411.1 11.3
3/28/2021 12:30:00 AM 8.08 46.544 0.022 6.6 410.91 11.31
3/28/2021 12:45:00 AM 8.03 46.454 0.022 6.6 411.25 11.33
3/28/2021 1:00:00 AM 7.99 46.382 0.022 6.59 412.38 11.34
3/28/2021 1:15:00 AM 7.95 46.31 0.022 6.6 410.62 11.35
3/28/2021 1:30:00 AM 7.9 46.22 0.022 6.59 409.13 11.36
3/28/2021 1:45:00 AM 7.85 46.13 0.022 6.59 408.82 11.37
3/28/2021 2:00:00 AM 7.8 46.04 0.022 6.59 408.6 11.38
3/28/2021 2:15:00 AM 7.76 45.968 0.022 6.59 410.67 11.4
3/28/2021 2:30:00 AM 7.71 45.878 0.022 6.59 412.18 11.41
3/28/2021 2:45:00 AM 7.67 45.806 0.022 6.58 410.25 11.42
3/28/2021 3:00:00 AM 7.63 45.734 0.022 6.58 410.91 11.43
3/28/2021 3:15:00 AM 7.59 45.662 0.022 6.59 409.75 11.44
3/28/2021 3:30:00 AM 7.55 45.59 0.022 6.59 410.98 11.45
3/28/2021 3:45:00 AM 7.51 45.518 0.022 6.59 411.06 11.45
3/28/2021 4:00:00 AM 7.48 45.464 0.022 6.59 411.58 11.46
3/28/2021 4:15:00 AM 7.45 45.41 0.022 6.59 412.41 11.47
3/28/2021 4:30:00 AM 7.43 45.374 0.022 6.6 413.92 11.47
3/28/2021 4:45:00 AM 7.41 45.338 0.022 6.59 413.83 11.47
3/28/2021 5:00:00 AM 7.4 45.32 0.022 6.6 414.41 11.48
3/28/2021 5:15:00 AM 7.41 45.338 0.022 6.61 414.31 11.48
3/28/2021 5:30:00 AM 7.42 45.356 0.022 6.61 414.51 11.47
3/28/2021 5:45:00 AM 7.43 45.374 0.022 6.62 414.64 11.47
3/28/2021 6:00:00 AM 7.45 45.41 0.022 6.62 413.89 11.47
3/28/2021 6:15:00 AM 7.47 45.446 0.022 6.63 414.45 11.46
3/28/2021 6:30:00 AM 7.51 45.518 0.022 6.63 416.25 11.44
3/28/2021 6:45:00 AM 7.54 45.572 0.022 6.63 417.04 11.43
3/28/2021 7:00:00 AM 7.56 45.608 0.022 6.63 416.28 11.42
3/28/2021 7:15:00 AM 7.6 45.68 0.022 6.63 416.81 11.42
3/28/2021 7:30:00 AM 7.63 45.734 0.022 6.64 415.43 11.41
3/28/2021 7:45:00 AM 7.65 45.77 0.022 6.64 415.58 11.4
3/28/2021 8:00:00 AM 7.68 45.824 0.022 6.64 415.91 11.4
3/28/2021 8:15:00 AM 7.7 45.86 0.022 6.64 416.39 11.4
3/28/2021 8:30:00 AM 7.72 45.896 0.022 6.64 416.34 11.39
3/28/2021 8:45:00 AM 7.72 45.896 0.022 6.64 416.18 11.39
3/28/2021 9:00:00 AM 7.73 45.914 0.022 6.64 416.52 11.38
3/28/2021 9:15:00 AM 7.75 45.95 0.022 6.65 416.39 11.38
3/28/2021 9:30:00 AM 7.78 46.004 0.022 6.65 416.1 11.37
3/28/2021 9:45:00 AM 7.79 46.022 0.022 6.65 416.43 11.37
3/28/2021 10:00:00 AM 7.8 46.04 0.022 6.65 417 11.37
3/28/2021 10:15:00 AM 7.81 46.058 0.022 6.66 416.49 11.33
3/28/2021 10:30:00 AM 7.85 46.13 0.022 6.66 417.39 11.38
3/28/2021 10:45:00 AM 7.88 46.184 0.022 6.65 416.87 11.37
3/28/2021 11:00:00 AM 7.91 46.238 0.022 6.65 417.29 11.35
3/28/2021 11:15:00 AM 7.93 46.274 0.022 6.66 418.61 11.34
3/28/2021 11:30:00 AM 7.95 46.31 0.022 6.66 416.83 11.32
3/28/2021 11:45:00 AM 7.96 46.328 0.022 6.67 415.32 11.33
3/28/2021 12:00:00 PM 7.98 46.364 0.022 6.67 414.69 11.32
3/28/2021 12:15:00 PM 8 46.4 0.022 6.67 414.09 11.31
3/28/2021 12:30:00 PM 8.02 46.436 0.022 6.68 413.95 11.31
3/28/2021 12:45:00 PM 8.04 46.472 0.022 6.68 414.02 11.3
3/28/2021 1:00:00 PM 8.07 46.526 0.022 6.68 413.57 11.29
3/28/2021 1:15:00 PM 8.09 46.562 0.022 6.67 413.88 11.28
3/28/2021 1:30:00 PM 8.11 46.598 0.022 6.66 413.46 11.26
3/28/2021 1:45:00 PM 8.13 46.634 0.022 6.66 414.3 11.25
3/28/2021 2:00:00 PM 8.14 46.652 0.022 6.66 415.13 11.24
3/28/2021 2:15:00 PM 8.18 46.724 0.022 6.67 415.1 11.23
3/28/2021 2:30:00 PM 8.19 46.742 0.022 6.67 415.87 11.21
3/28/2021 2:45:00 PM 8.22 46.796 0.022 6.66 411.56 11.19
3/28/2021 3:00:00 PM 8.24 46.832 0.022 6.66 409.38 11.2
3/28/2021 3:15:00 PM 8.27 46.886 0.022 6.67 408.44 11.2
3/28/2021 3:30:00 PM 8.29 46.922 0.022 6.67 408.42 11.2
3/28/2021 3:45:00 PM 8.32 46.976 0.022 6.67 407.97 11.17
3/28/2021 4:00:00 PM 8.35 47.03 0.022 6.67 407.84 11.18
3/28/2021 4:15:00 PM 8.37 47.066 0.022 6.66 408.31 11.16
3/28/2021 4:30:00 PM 8.37 47.066 0.022 6.67 407.38 11.18
3/28/2021 4:45:00 PM 8.37 47.066 0.022 6.66 407.84 11.16
3/28/2021 5:00:00 PM 8.36 47.048 0.021 6.66 407.57 11.15
3/28/2021 5:15:00 PM 8.36 47.048 0.022 6.66 408.01 11.16
3/28/2021 5:30:00 PM 8.34 47.012 0.022 6.66 407.8 11.16
3/28/2021 5:45:00 PM 8.33 46.994 0.022 6.68 407.64 11.18
3/28/2021 6:00:00 PM 8.32 46.976 0.022 6.68 407.18 11.2
3/28/2021 6:15:00 PM 8.3 46.94 0.022 6.68 406.66 11.2
3/28/2021 6:30:00 PM 8.27 46.886 0.022 6.68 406.75 11.21
3/28/2021 6:45:00 PM 8.24 46.832 0.022 6.67 406.55 11.2
3/28/2021 7:00:00 PM 8.22 46.796 0.022 6.67 407.39 11.2
3/28/2021 7:15:00 PM 8.19 46.742 0.022 6.66 408.09 11.19
3/28/2021 7:30:00 PM 8.16 46.688 0.022 6.66 407.8 11.18
3/28/2021 7:45:00 PM 8.12 46.616 0.022 6.64 408.35 11.19
3/28/2021 8:00:00 PM 8.08 46.544 0.022 6.65 409.46 11.19
3/28/2021 8:15:00 PM 8.04 46.472 0.022 6.63 408.95 11.2
3/28/2021 8:30:00 PM 8 46.4 0.022 6.63 409.34 11.21
3/28/2021 8:45:00 PM 7.95 46.31 0.022 6.63 410.31 11.23
3/28/2021 9:00:00 PM 7.91 46.238 0.022 6.63 410.23 11.24
3/28/2021 9:15:00 PM 7.85 46.13 0.022 6.63 410.21 11.26
3/28/2021 9:30:00 PM 7.8 46.04 0.022 6.63 409.93 11.28
3/28/2021 9:45:00 PM 7.75 45.95 0.022 6.64 410.46 11.29
3/28/2021 10:00:00 PM 7.72 45.896 0.022 6.64 410.74 11.31
3/28/2021 10:15:00 PM 7.68 45.824 0.022 6.63 410.83 11.33
3/28/2021 10:30:00 PM 7.61 45.698 0.022 6.62 412.15 11.34
3/28/2021 10:45:00 PM 7.56 45.608 0.022 6.61 411.62 11.36
3/28/2021 11:00:00 PM 7.52 45.536 0.022 6.61 411.68 11.38
3/28/2021 11:15:00 PM 7.46 45.428 0.022 6.61 411.94 11.39
3/28/2021 11:30:00 PM 7.39 45.302 0.022 6.63 411.47 11.42
3/28/2021 11:45:00 PM 7.35 45.23 0.022 6.62 409.41 11.44
3/29/2021 12:00:00 AM 7.3 45.14 0.022 6.63 410.12 11.45
3/29/2021 12:15:00 AM 7.25 45.05 0.022 6.63 409.27 11.47
3/29/2021 12:30:00 AM 7.2 44.96 0.022 6.64 410.5 11.49
3/29/2021 12:45:00 AM 7.16 44.888 0.021 6.64 410.64 11.5
3/29/2021 1:00:00 AM 7.12 44.816 0.021 6.64 411.11 11.51
3/29/2021 1:15:00 AM 7.08 44.744 0.021 6.64 408.85 11.53
3/29/2021 1:30:00 AM 7.02 44.636 0.021 6.64 407.89 11.55
3/29/2021 1:45:00 AM 6.97 44.546 0.021 6.64 406.42 11.57
3/29/2021 2:00:00 AM 6.92 44.456 0.021 6.64 406.05 11.58
3/29/2021 2:15:00 AM 6.86 44.348 0.021 6.64 405.68 11.6
3/29/2021 2:30:00 AM 6.8 44.24 0.021 6.64 406.15 11.62
3/29/2021 2:45:00 AM 6.74 44.132 0.021 6.64 406.93 11.65
3/29/2021 3:00:00 AM 6.69 44.042 0.021 6.64 408.34 11.67
3/29/2021 3:15:00 AM 6.62 43.916 0.021 6.64 406.36 11.69
3/29/2021 3:30:00 AM 6.56 43.808 0.021 6.64 404.33 11.7
3/29/2021 3:45:00 AM 6.54 43.772 0.021 6.64 402.58 11.72
3/29/2021 4:00:00 AM 6.51 43.718 0.021 6.64 402.43 11.73
3/29/2021 4:15:00 AM 6.45 43.61 0.021 6.64 402.87 11.75
3/29/2021 4:30:00 AM 6.4 43.52 0.021 6.64 402.22 11.77
3/29/2021 4:45:00 AM 6.37 43.466 0.021 6.64 402 11.78
3/29/2021 5:00:00 AM 6.31 43.358 0.021 6.63 401.43 11.81
3/29/2021 5:15:00 AM 6.29 43.322 0.021 6.64 401.87 11.82
3/29/2021 5:30:00 AM 6.26 43.268 0.021 6.64 400.87 11.83
3/29/2021 5:45:00 AM 6.23 43.214 0.021 6.64 400.21 11.85
3/29/2021 6:00:00 AM 6.21 43.178 0.021 6.64 397.82 11.86
3/29/2021 6:15:00 AM 6.2 43.16 0.021 6.64 398.23 11.87
3/29/2021 6:30:00 AM 6.16 43.088 0.021 6.64 399.7 11.89
3/29/2021 6:45:00 AM 6.12 43.016 0.021 6.64 400.54 11.91
3/29/2021 7:00:00 AM 6.09 42.962 0.021 6.64 399.25 11.92
3/29/2021 7:15:00 AM 6.07 42.926 0.021 6.64 398.05 11.93
3/29/2021 7:30:00 AM 6.03 42.854 0.021 6.64 397.69 11.95
3/29/2021 7:45:00 AM 6.01 42.818 0.021 6.64 398.07 11.98
3/29/2021 8:00:00 AM 5.99 42.782 0.021 6.64 398.28 12.01
3/29/2021 8:15:00 AM 5.98 42.764 0.021 6.64 398.39 12.03
3/29/2021 8:30:00 AM 5.9 42.62 0.026 6.25 2.81 12.22
3/29/2021 8:45:00 AM 5.88 42.584 0.026 6.39 2.4 12.25
3/29/2021 9:00:00 AM 5.87 42.566 0.026 6.5 2.35 12.28
3/29/2021 9:15:00 AM 5.84 42.512 0.026 6.57 2.29 12.3
3/29/2021 9:30:00 AM 5.83 42.494 0.025 6.63 2.31 12.32
3/29/2021 9:45:00 AM 5.83 42.494 0.025 6.65 2.24 12.33
3/29/2021 10:00:00 AM 5.84 42.512 0.025 6.67 2.27 12.35
3/29/2021 10:15:00 AM 5.85 42.53 0.025 6.67 2.29 12.37
3/29/2021 10:30:00 AM 5.88 42.584 0.026 6.73 2.25 12.36
3/29/2021 10:45:00 AM 5.9 42.62 0.025 6.69 2.25 12.38
3/29/2021 11:00:00 AM 5.94 42.692 0.025 6.71 2.5 12.39
3/29/2021 11:15:00 AM 5.98 42.764 0.025 6.74 2.24 12.38
3/29/2021 11:30:00 AM 6.04 42.872 0.025 6.73 2.2 12.38
3/29/2021 11:45:00 AM 6.11 42.998 0.025 6.74 2.27 12.36
3/29/2021 12:00:00 PM 6.21 43.178 0.025 6.75 2.24 12.35
3/29/2021 12:15:00 PM 6.37 43.466 0.025 6.76 2.27 12.31
3/29/2021 12:30:00 PM 6.46 43.628 0.025 6.76 2.24 12.29
3/29/2021 12:45:00 PM 6.67 44.006 0.025 6.76 2.3 12.24
3/29/2021 1:00:00 PM 6.84 44.312 0.025 6.75 2.27 12.19
3/29/2021 1:15:00 PM 6.98 44.564 0.025 6.76 2.27 12.14
3/29/2021 1:30:00 PM 7.14 44.852 0.025 6.75 2.21 12.09
3/29/2021 1:45:00 PM 7.27 45.086 0.025 6.74 2.28 12.05
3/29/2021 2:00:00 PM 7.42 45.356 0.025 6.73 2.28 12.01
3/29/2021 2:15:00 PM 7.55 45.59 0.025 6.74 2.22 11.96
3/29/2021 2:30:00 PM 7.66 45.788 0.025 6.71 2.2 11.92
3/29/2021 2:45:00 PM 7.73 45.914 0.025 6.74 2.3 11.89
3/29/2021 3:00:00 PM 7.78 46.004 0.025 6.72 2.17 11.87
3/29/2021 3:15:00 PM 7.79 46.022 0.025 6.71 2.12 11.85
3/29/2021 3:30:00 PM 7.79 46.022 0.025 6.72 2.18 11.84
3/29/2021 3:45:00 PM 7.78 46.004 0.025 6.71 2.08 11.83
3/29/2021 4:00:00 PM 7.76 45.968 0.025 6.71 2.21 11.83
3/29/2021 4:15:00 PM 7.74 45.932 0.025 6.71 2.26 11.83
3/29/2021 4:30:00 PM 7.72 45.896 0.025 6.71 2.32 11.83
3/29/2021 4:45:00 PM 7.69 45.842 0.025 6.68 2.31 11.83
3/29/2021 5:00:00 PM 7.66 45.788 0.025 6.68 2.31 11.83
3/29/2021 5:15:00 PM 7.64 45.752 0.025 6.68 2.24 11.82
3/29/2021 5:30:00 PM 7.59 45.662 0.025 6.69 2.32 11.83
3/29/2021 5:45:00 PM 7.55 45.59 0.025 6.66 2.29 11.83
3/29/2021 6:00:00 PM 7.51 45.518 0.025 6.69 2.18 11.84
3/29/2021 6:15:00 PM 7.48 45.464 0.025 6.68 2.32 11.84
3/29/2021 6:30:00 PM 7.45 45.41 0.025 6.65 2.15 11.83
3/29/2021 6:45:00 PM 7.4 45.32 0.026 6.64 2.19 11.83
3/29/2021 7:00:00 PM 7.35 45.23 0.026 6.63 2.22 11.84
3/29/2021 7:15:00 PM 7.31 45.158 0.026 6.62 2.25 11.84
3/29/2021 7:30:00 PM 7.26 45.068 0.026 6.61 2.24 11.85
3/29/2021 7:45:00 PM 7.2 44.96 0.026 6.6 2.26 11.85
3/29/2021 8:00:00 PM 7.15 44.87 0.026 6.58 2.25 11.86
3/29/2021 8:15:00 PM 7.08 44.744 0.026 6.6 2.35 11.87
3/29/2021 8:30:00 PM 7.01 44.618 0.026 6.59 2.24 11.89
3/29/2021 8:45:00 PM 6.95 44.51 0.026 6.59 2.33 11.91
3/29/2021 9:00:00 PM 6.88 44.384 0.026 6.6 2.17 11.93
3/29/2021 9:15:00 PM 6.81 44.258 0.026 6.6 2.29 11.95
3/29/2021 9:30:00 PM 6.75 44.15 0.026 6.6 2.24 11.97
3/29/2021 9:45:00 PM 6.69 44.042 0.026 6.59 2.35 11.99
3/29/2021 10:00:00 PM 6.63 43.934 0.026 6.6 2.26 12.01
3/29/2021 10:15:00 PM 6.56 43.808 0.026 6.6 2.09 12.04
3/29/2021 10:30:00 PM 6.49 43.682 0.026 6.6 2.12 12.06
3/29/2021 10:45:00 PM 6.43 43.574 0.026 6.61 2.28 12.08
3/29/2021 11:00:00 PM 6.36 43.448 0.026 6.61 2.19 12.1
3/29/2021 11:15:00 PM 6.3 43.34 0.026 6.6 2.18 12.12
3/29/2021 11:30:00 PM 6.25 43.25 0.026 6.59 2.18 12.13
3/29/2021 11:45:00 PM 6.2 43.16 0.026 6.61 2.15 12.15
3/30/2021 12:00:00 AM 6.14 43.052 0.026 6.6 2.24 12.17
3/30/2021 12:15:00 AM 6.08 42.944 0.026 6.6 2.11 12.19
3/30/2021 12:30:00 AM 6.02 42.836 0.026 6.6 2.19 12.21
3/30/2021 12:45:00 AM 5.96 42.728 0.026 6.58 2.15 12.23
3/30/2021 1:00:00 AM 5.9 42.62 0.026 6.61 2.23 12.25
3/30/2021 1:15:00 AM 5.85 42.53 0.026 6.6 2.22 12.26
3/30/2021 1:30:00 AM 5.79 42.422 0.026 6.6 2.22 12.28
3/30/2021 1:45:00 AM 5.74 42.332 0.026 6.59 2.23 12.29
3/30/2021 2:00:00 AM 5.7 42.26 0.026 6.6 2.12 12.3
3/30/2021 2:15:00 AM 5.66 42.188 0.026 6.61 2.25 12.32
3/30/2021 2:30:00 AM 5.61 42.098 0.026 6.6 2.16 12.34
3/30/2021 2:45:00 AM 5.56 42.008 0.026 6.6 2.17 12.36
3/30/2021 3:00:00 AM 5.51 41.918 0.026 6.58 2.19 12.37
3/30/2021 3:15:00 AM 5.46 41.828 0.026 6.6 2.19 12.39
3/30/2021 3:30:00 AM 5.42 41.756 0.026 6.59 2.14 12.4
3/30/2021 3:45:00 AM 5.38 41.684 0.026 6.6 2.17 12.41
3/30/2021 4:00:00 AM 5.34 41.612 0.026 6.62 2.17 12.42
3/30/2021 4:15:00 AM 5.3 41.54 0.026 6.63 2.19 12.44
3/30/2021 4:30:00 AM 5.26 41.468 0.026 6.61 2.15 12.46
3/30/2021 4:45:00 AM 5.22 41.396 0.026 6.61 2.45 12.47
3/30/2021 5:00:00 AM 5.18 41.324 0.026 6.61 2.12 12.49
3/30/2021 5:15:00 AM 5.16 41.288 0.026 6.6 2.12 12.49
3/30/2021 5:30:00 AM 5.12 41.216 0.026 6.6 2.13 12.5
3/30/2021 5:45:00 AM 5.08 41.144 0.026 6.61 2.26 12.52
3/30/2021 6:00:00 AM 5.04 41.072 0.026 6.59 2.23 12.53
3/30/2021 6:15:00 AM 5 41 0.026 6.6 2.15 12.55
3/30/2021 6:30:00 AM 4.97 40.946 0.026 6.61 2.18 12.56
3/30/2021 6:45:00 AM 4.95 40.91 0.026 6.61 2.13 12.56
3/30/2021 7:00:00 AM 4.92 40.856 0.026 6.6 2.19 12.58
3/30/2021 7:15:00 AM 4.89 40.802 0.026 6.61 2.09 12.6
3/30/2021 7:30:00 AM 4.85 40.73 0.026 6.61 2.11 12.63
3/30/2021 7:45:00 AM 4.82 40.676 0.026 6.63 2.17 12.65
3/30/2021 8:00:00 AM 4.8 40.64 0.026 6.64 2.14 12.67
3/30/2021 8:15:00 AM 4.79 40.622 0.026 6.64 2.12 12.69
3/30/2021 8:30:00 AM 4.77 40.586 0.026 6.64 2.15 12.71
3/30/2021 8:45:00 AM 4.78 40.604 0.026 6.65 2.16 12.72
3/30/2021 9:00:00 AM 4.8 40.64 0.026 6.65 2.19 12.73
3/30/2021 9:15:00 AM 4.84 40.712 0.026 6.66 2.13 12.74
3/30/2021 9:30:00 AM 4.89 40.802 0.026 6.68 2.12 12.74
3/30/2021 9:45:00 AM 4.97 40.946 0.026 6.69 2.15 12.73
3/30/2021 10:00:00 AM 5.07 41.126 0.026 6.7 2.06 12.72
3/30/2021 10:15:00 AM 5.2 41.36 0.026 6.71 2.09 12.69
3/30/2021 10:30:00 AM 5.35 41.63 0.026 6.7 2.09 12.65
3/30/2021 10:45:00 AM 5.51 41.918 0.026 6.7 2.15 12.61
3/30/2021 11:00:00 AM 5.7 42.26 0.026 6.7 2.16 12.56
3/30/2021 11:15:00 AM 5.9 42.62 0.026 6.71 2.12 12.5
3/30/2021 11:30:00 AM 6.11 42.998 0.026 6.71 2.12 12.44
3/30/2021 11:45:00 AM 6.33 43.394 0.026 6.71 2.33 12.37
3/30/2021 12:00:00 PM 6.55 43.79 0.026 6.72 2.04 12.31
3/30/2021 12:15:00 PM 6.77 44.186 0.026 6.71 2.14 12.25
3/30/2021 12:30:00 PM 7 44.6 0.026 6.72 2.17 12.18
3/30/2021 12:45:00 PM 7.23 45.014 0.026 6.71 2.1 12.12
3/30/2021 1:00:00 PM 7.47 45.446 0.026 6.72 2.03 12.05
3/30/2021 1:15:00 PM 7.7 45.86 0.026 6.72 2.07 11.98
3/30/2021 1:30:00 PM 7.92 46.256 0.026 6.7 2.07 11.92
3/30/2021 1:45:00 PM 8.12 46.616 0.026 6.7 2.17 11.86
3/30/2021 2:00:00 PM 8.3 46.94 0.026 6.71 2.15 11.8
3/30/2021 2:15:00 PM 8.45 47.21 0.026 6.7 2.16 11.75
3/30/2021 2:30:00 PM 8.56 47.408 0.026 6.68 2.07 11.7
3/30/2021 2:45:00 PM 8.65 47.57 0.026 6.69 2.23 11.67
3/30/2021 3:00:00 PM 8.7 47.66 0.026 6.69 2.16 11.64
3/30/2021 3:15:00 PM 8.73 47.714 0.026 6.69 2.11 11.62
3/30/2021 3:30:00 PM 8.74 47.732 0.026 6.68 2.16 11.61
3/30/2021 3:45:00 PM 8.74 47.732 0.026 6.68 2.14 11.6
3/30/2021 4:00:00 PM 8.74 47.732 0.026 6.68 2.15 11.59
3/30/2021 4:15:00 PM 8.74 47.732 0.026 6.67 2.14 11.57
3/30/2021 4:30:00 PM 8.71 47.678 0.026 6.66 2.11 11.57
3/30/2021 4:45:00 PM 8.69 47.642 0.026 6.66 2.2 11.57
3/30/2021 5:00:00 PM 8.65 47.57 0.026 6.67 2.06 11.57
3/30/2021 5:15:00 PM 8.63 47.534 0.026 6.69 2.12 11.58
3/30/2021 5:30:00 PM 8.6 47.48 0.026 6.68 2.1 11.57
3/30/2021 5:45:00 PM 8.58 47.444 0.026 6.68 2.21 11.56
3/30/2021 6:00:00 PM 8.57 47.426 0.026 6.68 2.15 11.54
3/30/2021 6:15:00 PM 8.56 47.408 0.026 6.68 2.17 11.54
3/30/2021 6:30:00 PM 8.55 47.39 0.026 6.65 2.1 11.53
3/30/2021 6:45:00 PM 8.52 47.336 0.026 6.65 2.19 11.51
3/30/2021 7:00:00 PM 8.51 47.318 0.026 6.64 2.16 11.5
3/30/2021 7:15:00 PM 8.49 47.282 0.026 6.64 2.18 11.49
3/30/2021 7:30:00 PM 8.46 47.228 0.026 6.65 2.18 11.48
3/30/2021 7:45:00 PM 8.44 47.192 0.026 6.62 2.2 11.46
3/30/2021 8:00:00 PM 8.41 47.138 0.026 6.63 2.17 11.46
3/30/2021 8:15:00 PM 8.39 47.102 0.026 6.62 2.19 11.46
3/30/2021 8:30:00 PM 8.37 47.066 0.026 6.61 2.27 11.47
3/30/2021 8:45:00 PM 8.35 47.03 0.026 6.6 2.22 11.47
3/30/2021 9:00:00 PM 8.32 46.976 0.026 6.62 2.32 11.49
3/30/2021 9:15:00 PM 8.3 46.94 0.026 6.63 2.25 11.49
3/30/2021 9:30:00 PM 8.27 46.886 0.026 6.61 2.28 11.5
3/30/2021 9:45:00 PM 8.24 46.832 0.026 6.61 2.16 11.52
3/30/2021 10:00:00 PM 8.21 46.778 0.026 6.6 2.23 11.52
3/30/2021 10:15:00 PM 8.17 46.706 0.026 6.6 2.27 11.53
3/30/2021 10:30:00 PM 8.14 46.652 0.026 6.58 2.2 11.54
3/30/2021 10:45:00 PM 8.12 46.616 0.026 6.6 2.24 11.55
3/30/2021 11:00:00 PM 8.09 46.562 0.026 6.59 2.24 11.56
3/30/2021 11:15:00 PM 8.06 46.508 0.026 6.59 2.19 11.57
3/30/2021 11:30:00 PM 8.03 46.454 0.026 6.61 2.21 11.57
3/30/2021 11:45:00 PM 8 46.4 0.026 6.61 2.17 11.58
3/31/2021 12:00:00 AM 7.96 46.328 0.026 6.61 2.1 11.59
3/31/2021 12:15:00 AM 7.93 46.274 0.026 6.6 2.25 11.6
3/31/2021 12:30:00 AM 7.89 46.202 0.026 6.61 2.29 11.61
3/31/2021 12:45:00 AM 7.85 46.13 0.026 6.61 2.14 11.62
3/31/2021 1:00:00 AM 7.82 46.076 0.026 6.62 2.22 11.63
3/31/2021 1:15:00 AM 7.78 46.004 0.026 6.61 2.17 11.64
3/31/2021 1:30:00 AM 7.75 45.95 0.026 6.61 2.21 11.65
3/31/2021 1:45:00 AM 7.71 45.878 0.026 6.61 2.26 11.66
3/31/2021 2:00:00 AM 7.67 45.806 0.026 6.59 2.21 11.67
3/31/2021 2:15:00 AM 7.64 45.752 0.026 6.6 2.24 11.68
3/31/2021 2:30:00 AM 7.6 45.68 0.026 6.61 2.2 11.69
3/31/2021 2:45:00 AM 7.58 45.644 0.026 6.61 2.22 11.69
3/31/2021 3:00:00 AM 7.55 45.59 0.026 6.63 2.15 11.7
3/31/2021 3:15:00 AM 7.52 45.536 0.026 6.63 2.26 11.71
3/31/2021 3:30:00 AM 7.49 45.482 0.026 6.63 2.19 11.71
3/31/2021 3:45:00 AM 7.47 45.446 0.026 6.63 2.25 11.72
3/31/2021 4:00:00 AM 7.44 45.392 0.026 6.62 2.38 11.72
3/31/2021 4:15:00 AM 7.42 45.356 0.026 6.63 2.21 11.73
3/31/2021 4:30:00 AM 7.4 45.32 0.026 6.6 2.21 11.73
3/31/2021 4:45:00 AM 7.37 45.266 0.026 6.62 2.2 11.73
3/31/2021 5:00:00 AM 7.35 45.23 0.026 6.61 2.26 11.74
3/31/2021 5:15:00 AM 7.33 45.194 0.026 6.63 2.24 11.74
3/31/2021 5:30:00 AM 7.31 45.158 0.026 6.6 2.21 11.75
3/31/2021 5:45:00 AM 7.29 45.122 0.026 6.61 2.27 11.75
3/31/2021 6:00:00 AM 7.27 45.086 0.026 6.6 2.2 11.76
3/31/2021 6:15:00 AM 7.26 45.068 0.026 6.61 2.3 11.76
3/31/2021 6:30:00 AM 7.24 45.032 0.026 6.58 2.18 11.77
3/31/2021 6:45:00 AM 7.23 45.014 0.026 6.61 2.19 11.77
3/31/2021 7:00:00 AM 7.22 44.996 0.026 6.58 2.2 11.78
3/31/2021 7:15:00 AM 7.21 44.978 0.026 6.6 2.22 11.79
3/31/2021 7:30:00 AM 7.2 44.96 0.026 6.62 2.2 11.81
3/31/2021 7:45:00 AM 7.2 44.96 0.026 6.6 2.34 11.83
3/31/2021 8:00:00 AM 7.21 44.978 0.026 6.63 2.37 11.85
3/31/2021 8:15:00 AM 7.23 45.014 0.026 6.64 2.17 11.87
3/31/2021 8:30:00 AM 7.25 45.05 0.026 6.66 2.2 11.89
3/31/2021 8:45:00 AM 7.28 45.104 0.026 6.66 2.17 11.9
3/31/2021 9:00:00 AM 7.3 45.14 0.026 6.65 2.21 11.89
3/31/2021 9:15:00 AM 7.33 45.194 0.026 6.66 2.18 11.89
3/31/2021 9:30:00 AM 7.37 45.266 0.026 6.69 2.1 11.89
3/31/2021 9:45:00 AM 7.41 45.338 0.026 6.69 2.2 11.88
3/31/2021 10:00:00 AM 7.43 45.374 0.026 6.69 2.17 11.87
3/31/2021 10:15:00 AM